<?xml version="1.0" encoding="UTF-8" standalone="no" ?>
<gpx xmlns="http://www.topografix.com/GPX/1/1" xmlns:xsi="http://www.w3.org/2001/XMLSchema-instance" xsi:schemaLocation="http://www.topografix.com/GPX/1/1 http://www.topografix.com/GPX/1/1/gpx.xsd" version="1.1" creator="VisuGPX - https://www.visugpx.com">
  <metadata>
    <name>Marche nordique val joly 2014</name>
    <desc><![CDATA[Marche nordique de 18km]]></desc>
  </metadata>
  <trk>
    <name><![CDATA[Val Joly]]></name>
    <trkseg>
      <trkpt lat="50.12" lon="4.13471">
        <ele>209.22</ele>
        <time>2014-03-30T07:35:43Z</time>
      </trkpt>
      <trkpt lat="50.11999" lon="4.13471">
        <ele>207.78</ele>
        <time>2014-03-30T07:36:06Z</time>
      </trkpt>
      <trkpt lat="50.12001" lon="4.13489">
        <ele>207.78</ele>
        <time>2014-03-30T07:36:30Z</time>
      </trkpt>
      <trkpt lat="50.12" lon="4.13487">
        <ele>207.78</ele>
        <time>2014-03-30T07:37:06Z</time>
      </trkpt>
      <trkpt lat="50.11996" lon="4.13487">
        <ele>207.78</ele>
        <time>2014-03-30T07:37:41Z</time>
      </trkpt>
      <trkpt lat="50.11991" lon="4.13482">
        <ele>207.78</ele>
        <time>2014-03-30T07:37:58Z</time>
      </trkpt>
      <trkpt lat="50.11982" lon="4.13474">
        <ele>207.3</ele>
        <time>2014-03-30T07:38:26Z</time>
      </trkpt>
      <trkpt lat="50.11977" lon="4.13479">
        <ele>206.34</ele>
        <time>2014-03-30T07:38:32Z</time>
      </trkpt>
      <trkpt lat="50.11962" lon="4.13484">
        <ele>205.38</ele>
        <time>2014-03-30T07:38:47Z</time>
      </trkpt>
      <trkpt lat="50.11945" lon="4.13489">
        <ele>203.94</ele>
        <time>2014-03-30T07:39:04Z</time>
      </trkpt>
      <trkpt lat="50.11931" lon="4.13489">
        <ele>203.94</ele>
        <time>2014-03-30T07:39:20Z</time>
      </trkpt>
      <trkpt lat="50.11931" lon="4.1349">
        <ele>203.46</ele>
        <time>2014-03-30T07:39:33Z</time>
      </trkpt>
      <trkpt lat="50.11932" lon="4.13494">
        <ele>203.46</ele>
        <time>2014-03-30T07:40:08Z</time>
      </trkpt>
      <trkpt lat="50.11934" lon="4.13496">
        <ele>202.98</ele>
        <time>2014-03-30T07:40:38Z</time>
      </trkpt>
      <trkpt lat="50.11932" lon="4.1349">
        <ele>202.98</ele>
        <time>2014-03-30T07:41:01Z</time>
      </trkpt>
      <trkpt lat="50.11935" lon="4.13484">
        <ele>203.94</ele>
        <time>2014-03-30T07:41:13Z</time>
      </trkpt>
      <trkpt lat="50.11934" lon="4.13484">
        <ele>203.94</ele>
        <time>2014-03-30T07:41:26Z</time>
      </trkpt>
      <trkpt lat="50.11933" lon="4.13483">
        <ele>203.94</ele>
        <time>2014-03-30T07:41:45Z</time>
      </trkpt>
      <trkpt lat="50.1193" lon="4.13484">
        <ele>203.94</ele>
        <time>2014-03-30T07:42:18Z</time>
      </trkpt>
      <trkpt lat="50.1193" lon="4.13484">
        <ele>203.94</ele>
        <time>2014-03-30T07:42:45Z</time>
      </trkpt>
      <trkpt lat="50.1193" lon="4.13484">
        <ele>203.94</ele>
        <time>2014-03-30T07:43:19Z</time>
      </trkpt>
      <trkpt lat="50.11931" lon="4.13484">
        <ele>203.94</ele>
        <time>2014-03-30T07:43:46Z</time>
      </trkpt>
      <trkpt lat="50.11933" lon="4.13479">
        <ele>203.46</ele>
        <time>2014-03-30T07:44:19Z</time>
      </trkpt>
      <trkpt lat="50.11935" lon="4.13482">
        <ele>203.94</ele>
        <time>2014-03-30T07:44:48Z</time>
      </trkpt>
      <trkpt lat="50.11933" lon="4.13485">
        <ele>202.49</ele>
        <time>2014-03-30T07:44:54Z</time>
      </trkpt>
      <trkpt lat="50.11934" lon="4.13485">
        <ele>202.49</ele>
        <time>2014-03-30T07:45:24Z</time>
      </trkpt>
      <trkpt lat="50.11934" lon="4.13482">
        <ele>202.49</ele>
        <time>2014-03-30T07:45:55Z</time>
      </trkpt>
      <trkpt lat="50.11935" lon="4.13485">
        <ele>203.46</ele>
        <time>2014-03-30T07:46:28Z</time>
      </trkpt>
      <trkpt lat="50.11936" lon="4.13483">
        <ele>202.98</ele>
        <time>2014-03-30T07:47:03Z</time>
      </trkpt>
      <trkpt lat="50.11936" lon="4.13487">
        <ele>201.53</ele>
        <time>2014-03-30T07:47:17Z</time>
      </trkpt>
      <trkpt lat="50.11936" lon="4.1349">
        <ele>202.98</ele>
        <time>2014-03-30T07:47:49Z</time>
      </trkpt>
      <trkpt lat="50.11934" lon="4.13489">
        <ele>202.98</ele>
        <time>2014-03-30T07:48:19Z</time>
      </trkpt>
      <trkpt lat="50.11938" lon="4.1349">
        <ele>202.49</ele>
        <time>2014-03-30T07:48:51Z</time>
      </trkpt>
      <trkpt lat="50.11937" lon="4.13487">
        <ele>202.49</ele>
        <time>2014-03-30T07:49:25Z</time>
      </trkpt>
      <trkpt lat="50.11934" lon="4.13484">
        <ele>202.49</ele>
        <time>2014-03-30T07:49:51Z</time>
      </trkpt>
      <trkpt lat="50.11934" lon="4.13489">
        <ele>202.01</ele>
        <time>2014-03-30T07:50:21Z</time>
      </trkpt>
      <trkpt lat="50.11934" lon="4.13488">
        <ele>201.05</ele>
        <time>2014-03-30T07:50:49Z</time>
      </trkpt>
      <trkpt lat="50.11938" lon="4.13489">
        <ele>200.57</ele>
        <time>2014-03-30T07:51:18Z</time>
      </trkpt>
      <trkpt lat="50.11938" lon="4.13487">
        <ele>200.57</ele>
        <time>2014-03-30T07:51:51Z</time>
      </trkpt>
      <trkpt lat="50.11933" lon="4.13488">
        <ele>199.13</ele>
        <time>2014-03-30T07:52:06Z</time>
      </trkpt>
      <trkpt lat="50.1193" lon="4.13485">
        <ele>201.05</ele>
        <time>2014-03-30T07:52:09Z</time>
      </trkpt>
      <trkpt lat="50.11923" lon="4.1348">
        <ele>201.05</ele>
        <time>2014-03-30T07:52:16Z</time>
      </trkpt>
      <trkpt lat="50.11916" lon="4.1348">
        <ele>198.65</ele>
        <time>2014-03-30T07:52:21Z</time>
      </trkpt>
      <trkpt lat="50.11913" lon="4.13479">
        <ele>200.57</ele>
        <time>2014-03-30T07:52:24Z</time>
      </trkpt>
      <trkpt lat="50.11911" lon="4.13481">
        <ele>199.13</ele>
        <time>2014-03-30T07:52:27Z</time>
      </trkpt>
      <trkpt lat="50.11906" lon="4.13489">
        <ele>200.09</ele>
        <time>2014-03-30T07:52:34Z</time>
      </trkpt>
      <trkpt lat="50.11902" lon="4.13511">
        <ele>200.09</ele>
        <time>2014-03-30T07:52:45Z</time>
      </trkpt>
      <trkpt lat="50.11901" lon="4.13524">
        <ele>198.17</ele>
        <time>2014-03-30T07:52:52Z</time>
      </trkpt>
      <trkpt lat="50.119" lon="4.13527">
        <ele>200.09</ele>
        <time>2014-03-30T07:52:54Z</time>
      </trkpt>
      <trkpt lat="50.11895" lon="4.13535">
        <ele>198.17</ele>
        <time>2014-03-30T07:53:01Z</time>
      </trkpt>
      <trkpt lat="50.11893" lon="4.13535">
        <ele>199.61</ele>
        <time>2014-03-30T07:53:03Z</time>
      </trkpt>
      <trkpt lat="50.1189" lon="4.13537">
        <ele>198.17</ele>
        <time>2014-03-30T07:53:07Z</time>
      </trkpt>
      <trkpt lat="50.1188" lon="4.13542">
        <ele>198.65</ele>
        <time>2014-03-30T07:53:16Z</time>
      </trkpt>
      <trkpt lat="50.11875" lon="4.13543">
        <ele>196.73</ele>
        <time>2014-03-30T07:53:19Z</time>
      </trkpt>
      <trkpt lat="50.11868" lon="4.13544">
        <ele>197.21</ele>
        <time>2014-03-30T07:53:25Z</time>
      </trkpt>
      <trkpt lat="50.11864" lon="4.13545">
        <ele>195.28</ele>
        <time>2014-03-30T07:53:28Z</time>
      </trkpt>
      <trkpt lat="50.11858" lon="4.13546">
        <ele>196.25</ele>
        <time>2014-03-30T07:53:34Z</time>
      </trkpt>
      <trkpt lat="50.11843" lon="4.13551">
        <ele>193.36</ele>
        <time>2014-03-30T07:53:50Z</time>
      </trkpt>
      <trkpt lat="50.11828" lon="4.13564">
        <ele>193.84</ele>
        <time>2014-03-30T07:54:10Z</time>
      </trkpt>
      <trkpt lat="50.11827" lon="4.13566">
        <ele>194.8</ele>
        <time>2014-03-30T07:54:20Z</time>
      </trkpt>
      <trkpt lat="50.11827" lon="4.13567">
        <ele>193.36</ele>
        <time>2014-03-30T07:54:35Z</time>
      </trkpt>
      <trkpt lat="50.11826" lon="4.13564">
        <ele>193.36</ele>
        <time>2014-03-30T07:55:03Z</time>
      </trkpt>
      <trkpt lat="50.11826" lon="4.13567">
        <ele>193.84</ele>
        <time>2014-03-30T07:55:29Z</time>
      </trkpt>
      <trkpt lat="50.11826" lon="4.13574">
        <ele>194.8</ele>
        <time>2014-03-30T07:55:45Z</time>
      </trkpt>
      <trkpt lat="50.11827" lon="4.13586">
        <ele>194.8</ele>
        <time>2014-03-30T07:55:51Z</time>
      </trkpt>
      <trkpt lat="50.11823" lon="4.13609">
        <ele>195.28</ele>
        <time>2014-03-30T07:56:07Z</time>
      </trkpt>
      <trkpt lat="50.11824" lon="4.13615">
        <ele>195.77</ele>
        <time>2014-03-30T07:56:11Z</time>
      </trkpt>
      <trkpt lat="50.11822" lon="4.13621">
        <ele>196.73</ele>
        <time>2014-03-30T07:56:24Z</time>
      </trkpt>
      <trkpt lat="50.11823" lon="4.13624">
        <ele>196.73</ele>
        <time>2014-03-30T07:56:42Z</time>
      </trkpt>
      <trkpt lat="50.11825" lon="4.13631">
        <ele>197.69</ele>
        <time>2014-03-30T07:57:00Z</time>
      </trkpt>
      <trkpt lat="50.11827" lon="4.13637">
        <ele>198.65</ele>
        <time>2014-03-30T07:57:14Z</time>
      </trkpt>
      <trkpt lat="50.11827" lon="4.13636">
        <ele>198.17</ele>
        <time>2014-03-30T07:57:36Z</time>
      </trkpt>
      <trkpt lat="50.11827" lon="4.13636">
        <ele>198.65</ele>
        <time>2014-03-30T07:58:01Z</time>
      </trkpt>
      <trkpt lat="50.11827" lon="4.13637">
        <ele>198.65</ele>
        <time>2014-03-30T07:58:26Z</time>
      </trkpt>
      <trkpt lat="50.11826" lon="4.1364">
        <ele>198.65</ele>
        <time>2014-03-30T07:58:51Z</time>
      </trkpt>
      <trkpt lat="50.11827" lon="4.13639">
        <ele>197.21</ele>
        <time>2014-03-30T07:59:06Z</time>
      </trkpt>
      <trkpt lat="50.11827" lon="4.13637">
        <ele>197.21</ele>
        <time>2014-03-30T07:59:25Z</time>
      </trkpt>
      <trkpt lat="50.11828" lon="4.13638">
        <ele>197.21</ele>
        <time>2014-03-30T07:59:34Z</time>
      </trkpt>
      <trkpt lat="50.11827" lon="4.13639">
        <ele>197.21</ele>
        <time>2014-03-30T08:00:09Z</time>
      </trkpt>
      <trkpt lat="50.11826" lon="4.13639">
        <ele>197.21</ele>
        <time>2014-03-30T08:00:32Z</time>
      </trkpt>
      <trkpt lat="50.1182" lon="4.13634">
        <ele>197.21</ele>
        <time>2014-03-30T08:00:46Z</time>
      </trkpt>
      <trkpt lat="50.11803" lon="4.13611">
        <ele>193.84</ele>
        <time>2014-03-30T08:01:03Z</time>
      </trkpt>
      <trkpt lat="50.11792" lon="4.13576">
        <ele>192.4</ele>
        <time>2014-03-30T08:01:18Z</time>
      </trkpt>
      <trkpt lat="50.11783" lon="4.13538">
        <ele>191.92</ele>
        <time>2014-03-30T08:01:33Z</time>
      </trkpt>
      <trkpt lat="50.11773" lon="4.13493">
        <ele>190.96</ele>
        <time>2014-03-30T08:01:52Z</time>
      </trkpt>
      <trkpt lat="50.1176" lon="4.13447">
        <ele>188.56</ele>
        <time>2014-03-30T08:02:12Z</time>
      </trkpt>
      <trkpt lat="50.11753" lon="4.13421">
        <ele>185.19</ele>
        <time>2014-03-30T08:02:23Z</time>
      </trkpt>
      <trkpt lat="50.11747" lon="4.13385">
        <ele>183.75</ele>
        <time>2014-03-30T08:02:36Z</time>
      </trkpt>
      <trkpt lat="50.11754" lon="4.13343">
        <ele>183.27</ele>
        <time>2014-03-30T08:02:53Z</time>
      </trkpt>
      <trkpt lat="50.11765" lon="4.13298">
        <ele>183.27</ele>
        <time>2014-03-30T08:03:11Z</time>
      </trkpt>
      <trkpt lat="50.11779" lon="4.13266">
        <ele>183.27</ele>
        <time>2014-03-30T08:03:26Z</time>
      </trkpt>
      <trkpt lat="50.11801" lon="4.13234">
        <ele>182.31</ele>
        <time>2014-03-30T08:03:44Z</time>
      </trkpt>
      <trkpt lat="50.11825" lon="4.13214">
        <ele>182.31</ele>
        <time>2014-03-30T08:04:01Z</time>
      </trkpt>
      <trkpt lat="50.1185" lon="4.13211">
        <ele>184.23</ele>
        <time>2014-03-30T08:04:16Z</time>
      </trkpt>
      <trkpt lat="50.11879" lon="4.13221">
        <ele>185.19</ele>
        <time>2014-03-30T08:04:35Z</time>
      </trkpt>
      <trkpt lat="50.11898" lon="4.13252">
        <ele>186.15</ele>
        <time>2014-03-30T08:04:51Z</time>
      </trkpt>
      <trkpt lat="50.11907" lon="4.13279">
        <ele>187.11</ele>
        <time>2014-03-30T08:05:03Z</time>
      </trkpt>
      <trkpt lat="50.11914" lon="4.13314">
        <ele>188.08</ele>
        <time>2014-03-30T08:05:16Z</time>
      </trkpt>
      <trkpt lat="50.11897" lon="4.13345">
        <ele>189.52</ele>
        <time>2014-03-30T08:05:32Z</time>
      </trkpt>
      <trkpt lat="50.11878" lon="4.13369">
        <ele>190</ele>
        <time>2014-03-30T08:05:47Z</time>
      </trkpt>
      <trkpt lat="50.11863" lon="4.13404">
        <ele>191.44</ele>
        <time>2014-03-30T08:06:05Z</time>
      </trkpt>
      <trkpt lat="50.11863" lon="4.13413">
        <ele>191.44</ele>
        <time>2014-03-30T08:06:09Z</time>
      </trkpt>
      <trkpt lat="50.11874" lon="4.13431">
        <ele>192.88</ele>
        <time>2014-03-30T08:06:21Z</time>
      </trkpt>
      <trkpt lat="50.11893" lon="4.1345">
        <ele>193.84</ele>
        <time>2014-03-30T08:06:36Z</time>
      </trkpt>
      <trkpt lat="50.11917" lon="4.13469">
        <ele>195.77</ele>
        <time>2014-03-30T08:06:52Z</time>
      </trkpt>
      <trkpt lat="50.11933" lon="4.13495">
        <ele>196.73</ele>
        <time>2014-03-30T08:07:08Z</time>
      </trkpt>
      <trkpt lat="50.11929" lon="4.13527">
        <ele>197.69</ele>
        <time>2014-03-30T08:07:24Z</time>
      </trkpt>
      <trkpt lat="50.11921" lon="4.13569">
        <ele>198.17</ele>
        <time>2014-03-30T08:07:41Z</time>
      </trkpt>
      <trkpt lat="50.11915" lon="4.13604">
        <ele>198.65</ele>
        <time>2014-03-30T08:07:55Z</time>
      </trkpt>
      <trkpt lat="50.11917" lon="4.1362">
        <ele>199.61</ele>
        <time>2014-03-30T08:08:03Z</time>
      </trkpt>
      <trkpt lat="50.11919" lon="4.13651">
        <ele>202.49</ele>
        <time>2014-03-30T08:08:19Z</time>
      </trkpt>
      <trkpt lat="50.1192" lon="4.13655">
        <ele>202.98</ele>
        <time>2014-03-30T08:08:21Z</time>
      </trkpt>
      <trkpt lat="50.1192" lon="4.13671">
        <ele>204.42</ele>
        <time>2014-03-30T08:08:27Z</time>
      </trkpt>
      <trkpt lat="50.11926" lon="4.13705">
        <ele>207.78</ele>
        <time>2014-03-30T08:08:42Z</time>
      </trkpt>
      <trkpt lat="50.11934" lon="4.13731">
        <ele>211.15</ele>
        <time>2014-03-30T08:08:57Z</time>
      </trkpt>
      <trkpt lat="50.11935" lon="4.13733">
        <ele>211.15</ele>
        <time>2014-03-30T08:08:58Z</time>
      </trkpt>
      <trkpt lat="50.11937" lon="4.13743">
        <ele>211.63</ele>
        <time>2014-03-30T08:09:02Z</time>
      </trkpt>
      <trkpt lat="50.1194" lon="4.13752">
        <ele>212.59</ele>
        <time>2014-03-30T08:09:06Z</time>
      </trkpt>
      <trkpt lat="50.11944" lon="4.13787">
        <ele>214.51</ele>
        <time>2014-03-30T08:09:21Z</time>
      </trkpt>
      <trkpt lat="50.11949" lon="4.13819">
        <ele>216.43</ele>
        <time>2014-03-30T08:09:36Z</time>
      </trkpt>
      <trkpt lat="50.11959" lon="4.13851">
        <ele>216.91</ele>
        <time>2014-03-30T08:09:51Z</time>
      </trkpt>
      <trkpt lat="50.11963" lon="4.13863">
        <ele>216.91</ele>
        <time>2014-03-30T08:09:57Z</time>
      </trkpt>
      <trkpt lat="50.11963" lon="4.13869">
        <ele>217.4</ele>
        <time>2014-03-30T08:10:00Z</time>
      </trkpt>
      <trkpt lat="50.11962" lon="4.13907">
        <ele>217.4</ele>
        <time>2014-03-30T08:10:16Z</time>
      </trkpt>
      <trkpt lat="50.1194" lon="4.13928">
        <ele>217.4</ele>
        <time>2014-03-30T08:10:31Z</time>
      </trkpt>
      <trkpt lat="50.11927" lon="4.13939">
        <ele>215.95</ele>
        <time>2014-03-30T08:10:40Z</time>
      </trkpt>
      <trkpt lat="50.11923" lon="4.13974">
        <ele>215.47</ele>
        <time>2014-03-30T08:10:56Z</time>
      </trkpt>
      <trkpt lat="50.11936" lon="4.14019">
        <ele>215.47</ele>
        <time>2014-03-30T08:11:14Z</time>
      </trkpt>
      <trkpt lat="50.11947" lon="4.14063">
        <ele>215.47</ele>
        <time>2014-03-30T08:11:32Z</time>
      </trkpt>
      <trkpt lat="50.11953" lon="4.14102">
        <ele>216.91</ele>
        <time>2014-03-30T08:11:47Z</time>
      </trkpt>
      <trkpt lat="50.11948" lon="4.14149">
        <ele>216.43</ele>
        <time>2014-03-30T08:12:05Z</time>
      </trkpt>
      <trkpt lat="50.1195" lon="4.14196">
        <ele>216.43</ele>
        <time>2014-03-30T08:12:23Z</time>
      </trkpt>
      <trkpt lat="50.11964" lon="4.14245">
        <ele>216.43</ele>
        <time>2014-03-30T08:12:44Z</time>
      </trkpt>
      <trkpt lat="50.11979" lon="4.14288">
        <ele>216.43</ele>
        <time>2014-03-30T08:13:02Z</time>
      </trkpt>
      <trkpt lat="50.12006" lon="4.14305">
        <ele>216.91</ele>
        <time>2014-03-30T08:13:20Z</time>
      </trkpt>
      <trkpt lat="50.1203" lon="4.14286">
        <ele>218.36</ele>
        <time>2014-03-30T08:13:37Z</time>
      </trkpt>
      <trkpt lat="50.1205" lon="4.14264">
        <ele>219.8</ele>
        <time>2014-03-30T08:13:52Z</time>
      </trkpt>
      <trkpt lat="50.12057" lon="4.14245">
        <ele>220.28</ele>
        <time>2014-03-30T08:14:02Z</time>
      </trkpt>
      <trkpt lat="50.12076" lon="4.14213">
        <ele>221.72</ele>
        <time>2014-03-30T08:14:21Z</time>
      </trkpt>
      <trkpt lat="50.12071" lon="4.14184">
        <ele>221.72</ele>
        <time>2014-03-30T08:14:38Z</time>
      </trkpt>
      <trkpt lat="50.12067" lon="4.14176">
        <ele>221.24</ele>
        <time>2014-03-30T08:14:42Z</time>
      </trkpt>
      <trkpt lat="50.12057" lon="4.14143">
        <ele>221.24</ele>
        <time>2014-03-30T08:14:56Z</time>
      </trkpt>
      <trkpt lat="50.12049" lon="4.1411">
        <ele>221.24</ele>
        <time>2014-03-30T08:15:10Z</time>
      </trkpt>
      <trkpt lat="50.1204" lon="4.14083">
        <ele>221.24</ele>
        <time>2014-03-30T08:15:23Z</time>
      </trkpt>
      <trkpt lat="50.12028" lon="4.14051">
        <ele>220.76</ele>
        <time>2014-03-30T08:15:37Z</time>
      </trkpt>
      <trkpt lat="50.12024" lon="4.14033">
        <ele>219.8</ele>
        <time>2014-03-30T08:15:44Z</time>
      </trkpt>
      <trkpt lat="50.12021" lon="4.1402">
        <ele>219.8</ele>
        <time>2014-03-30T08:15:49Z</time>
      </trkpt>
      <trkpt lat="50.12013" lon="4.13978">
        <ele>218.36</ele>
        <time>2014-03-30T08:16:04Z</time>
      </trkpt>
      <trkpt lat="50.12014" lon="4.13945">
        <ele>217.88</ele>
        <time>2014-03-30T08:16:17Z</time>
      </trkpt>
      <trkpt lat="50.12016" lon="4.13936">
        <ele>217.88</ele>
        <time>2014-03-30T08:16:21Z</time>
      </trkpt>
      <trkpt lat="50.1202" lon="4.13919">
        <ele>217.88</ele>
        <time>2014-03-30T08:16:28Z</time>
      </trkpt>
      <trkpt lat="50.12026" lon="4.13904">
        <ele>216.91</ele>
        <time>2014-03-30T08:16:36Z</time>
      </trkpt>
      <trkpt lat="50.1203" lon="4.13869">
        <ele>215.47</ele>
        <time>2014-03-30T08:16:50Z</time>
      </trkpt>
      <trkpt lat="50.12031" lon="4.13864">
        <ele>214.99</ele>
        <time>2014-03-30T08:16:52Z</time>
      </trkpt>
      <trkpt lat="50.1204" lon="4.13829">
        <ele>213.07</ele>
        <time>2014-03-30T08:17:07Z</time>
      </trkpt>
      <trkpt lat="50.12039" lon="4.13821">
        <ele>212.59</ele>
        <time>2014-03-30T08:17:10Z</time>
      </trkpt>
      <trkpt lat="50.12035" lon="4.13789">
        <ele>210.67</ele>
        <time>2014-03-30T08:17:23Z</time>
      </trkpt>
      <trkpt lat="50.12029" lon="4.13749">
        <ele>209.22</ele>
        <time>2014-03-30T08:17:38Z</time>
      </trkpt>
      <trkpt lat="50.12028" lon="4.13718">
        <ele>208.74</ele>
        <time>2014-03-30T08:17:49Z</time>
      </trkpt>
      <trkpt lat="50.12035" lon="4.13679">
        <ele>208.26</ele>
        <time>2014-03-30T08:18:06Z</time>
      </trkpt>
      <trkpt lat="50.12036" lon="4.13645">
        <ele>206.82</ele>
        <time>2014-03-30T08:18:20Z</time>
      </trkpt>
      <trkpt lat="50.12038" lon="4.13626">
        <ele>206.34</ele>
        <time>2014-03-30T08:18:27Z</time>
      </trkpt>
      <trkpt lat="50.12038" lon="4.13615">
        <ele>204.9</ele>
        <time>2014-03-30T08:18:31Z</time>
      </trkpt>
      <trkpt lat="50.12043" lon="4.13597">
        <ele>203.46</ele>
        <time>2014-03-30T08:18:40Z</time>
      </trkpt>
      <trkpt lat="50.12049" lon="4.13567">
        <ele>200.09</ele>
        <time>2014-03-30T08:18:52Z</time>
      </trkpt>
      <trkpt lat="50.12048" lon="4.13561">
        <ele>200.09</ele>
        <time>2014-03-30T08:18:54Z</time>
      </trkpt>
      <trkpt lat="50.12046" lon="4.13522">
        <ele>196.25</ele>
        <time>2014-03-30T08:19:08Z</time>
      </trkpt>
      <trkpt lat="50.12046" lon="4.1351">
        <ele>195.28</ele>
        <time>2014-03-30T08:19:12Z</time>
      </trkpt>
      <trkpt lat="50.12047" lon="4.135">
        <ele>194.32</ele>
        <time>2014-03-30T08:19:15Z</time>
      </trkpt>
      <trkpt lat="50.12049" lon="4.13478">
        <ele>190.96</ele>
        <time>2014-03-30T08:19:23Z</time>
      </trkpt>
      <trkpt lat="50.12049" lon="4.13459">
        <ele>187.11</ele>
        <time>2014-03-30T08:19:31Z</time>
      </trkpt>
      <trkpt lat="50.12041" lon="4.13437">
        <ele>186.15</ele>
        <time>2014-03-30T08:19:39Z</time>
      </trkpt>
      <trkpt lat="50.12033" lon="4.13423">
        <ele>185.67</ele>
        <time>2014-03-30T08:19:45Z</time>
      </trkpt>
      <trkpt lat="50.12018" lon="4.13411">
        <ele>185.19</ele>
        <time>2014-03-30T08:19:55Z</time>
      </trkpt>
      <trkpt lat="50.12003" lon="4.134">
        <ele>183.75</ele>
        <time>2014-03-30T08:20:06Z</time>
      </trkpt>
      <trkpt lat="50.11981" lon="4.13364">
        <ele>181.83</ele>
        <time>2014-03-30T08:20:23Z</time>
      </trkpt>
      <trkpt lat="50.11975" lon="4.13322">
        <ele>179.42</ele>
        <time>2014-03-30T08:20:37Z</time>
      </trkpt>
      <trkpt lat="50.11973" lon="4.13288">
        <ele>176.06</ele>
        <time>2014-03-30T08:20:48Z</time>
      </trkpt>
      <trkpt lat="50.11973" lon="4.13244">
        <ele>176.06</ele>
        <time>2014-03-30T08:21:04Z</time>
      </trkpt>
      <trkpt lat="50.11975" lon="4.13197">
        <ele>176.06</ele>
        <time>2014-03-30T08:21:21Z</time>
      </trkpt>
      <trkpt lat="50.11981" lon="4.13164">
        <ele>177.5</ele>
        <time>2014-03-30T08:21:34Z</time>
      </trkpt>
      <trkpt lat="50.11999" lon="4.13143">
        <ele>179.42</ele>
        <time>2014-03-30T08:21:49Z</time>
      </trkpt>
      <trkpt lat="50.12017" lon="4.13117">
        <ele>180.87</ele>
        <time>2014-03-30T08:22:04Z</time>
      </trkpt>
      <trkpt lat="50.12032" lon="4.13079">
        <ele>181.35</ele>
        <time>2014-03-30T08:22:21Z</time>
      </trkpt>
      <trkpt lat="50.12053" lon="4.13052">
        <ele>181.35</ele>
        <time>2014-03-30T08:22:39Z</time>
      </trkpt>
      <trkpt lat="50.12075" lon="4.13021">
        <ele>179.42</ele>
        <time>2014-03-30T08:22:57Z</time>
      </trkpt>
      <trkpt lat="50.12089" lon="4.12988">
        <ele>178.46</ele>
        <time>2014-03-30T08:23:11Z</time>
      </trkpt>
      <trkpt lat="50.12108" lon="4.12944">
        <ele>177.5</ele>
        <time>2014-03-30T08:23:31Z</time>
      </trkpt>
      <trkpt lat="50.12121" lon="4.1291">
        <ele>176.54</ele>
        <time>2014-03-30T08:23:46Z</time>
      </trkpt>
      <trkpt lat="50.12137" lon="4.12876">
        <ele>176.54</ele>
        <time>2014-03-30T08:24:02Z</time>
      </trkpt>
      <trkpt lat="50.1215" lon="4.12845">
        <ele>176.54</ele>
        <time>2014-03-30T08:24:16Z</time>
      </trkpt>
      <trkpt lat="50.12164" lon="4.12811">
        <ele>177.98</ele>
        <time>2014-03-30T08:24:32Z</time>
      </trkpt>
      <trkpt lat="50.12179" lon="4.12776">
        <ele>178.46</ele>
        <time>2014-03-30T08:24:49Z</time>
      </trkpt>
      <trkpt lat="50.12192" lon="4.1276">
        <ele>178.46</ele>
        <time>2014-03-30T08:25:02Z</time>
      </trkpt>
      <trkpt lat="50.12201" lon="4.12733">
        <ele>180.38</ele>
        <time>2014-03-30T08:25:16Z</time>
      </trkpt>
      <trkpt lat="50.12209" lon="4.12699">
        <ele>182.31</ele>
        <time>2014-03-30T08:25:30Z</time>
      </trkpt>
      <trkpt lat="50.12212" lon="4.12681">
        <ele>182.79</ele>
        <time>2014-03-30T08:25:37Z</time>
      </trkpt>
      <trkpt lat="50.12217" lon="4.12646">
        <ele>183.75</ele>
        <time>2014-03-30T08:25:53Z</time>
      </trkpt>
      <trkpt lat="50.12219" lon="4.12633">
        <ele>183.75</ele>
        <time>2014-03-30T08:25:58Z</time>
      </trkpt>
      <trkpt lat="50.12222" lon="4.12586">
        <ele>183.75</ele>
        <time>2014-03-30T08:26:13Z</time>
      </trkpt>
      <trkpt lat="50.12222" lon="4.12581">
        <ele>182.31</ele>
        <time>2014-03-30T08:26:15Z</time>
      </trkpt>
      <trkpt lat="50.12223" lon="4.12549">
        <ele>179.42</ele>
        <time>2014-03-30T08:26:25Z</time>
      </trkpt>
      <trkpt lat="50.12223" lon="4.12517">
        <ele>177.98</ele>
        <time>2014-03-30T08:26:36Z</time>
      </trkpt>
      <trkpt lat="50.12225" lon="4.12482">
        <ele>179.42</ele>
        <time>2014-03-30T08:26:49Z</time>
      </trkpt>
      <trkpt lat="50.12225" lon="4.12471">
        <ele>179.42</ele>
        <time>2014-03-30T08:26:53Z</time>
      </trkpt>
      <trkpt lat="50.12228" lon="4.1244">
        <ele>177.98</ele>
        <time>2014-03-30T08:27:04Z</time>
      </trkpt>
      <trkpt lat="50.12227" lon="4.12415">
        <ele>177.98</ele>
        <time>2014-03-30T08:27:13Z</time>
      </trkpt>
      <trkpt lat="50.12235" lon="4.12407">
        <ele>179.9</ele>
        <time>2014-03-30T08:27:19Z</time>
      </trkpt>
      <trkpt lat="50.12259" lon="4.1242">
        <ele>181.35</ele>
        <time>2014-03-30T08:27:35Z</time>
      </trkpt>
      <trkpt lat="50.12279" lon="4.12446">
        <ele>182.31</ele>
        <time>2014-03-30T08:27:51Z</time>
      </trkpt>
      <trkpt lat="50.12284" lon="4.12453">
        <ele>182.31</ele>
        <time>2014-03-30T08:27:55Z</time>
      </trkpt>
      <trkpt lat="50.123" lon="4.12489">
        <ele>183.27</ele>
        <time>2014-03-30T08:28:12Z</time>
      </trkpt>
      <trkpt lat="50.12308" lon="4.12498">
        <ele>184.71</ele>
        <time>2014-03-30T08:28:18Z</time>
      </trkpt>
      <trkpt lat="50.12327" lon="4.12527">
        <ele>185.19</ele>
        <time>2014-03-30T08:28:35Z</time>
      </trkpt>
      <trkpt lat="50.1234" lon="4.12544">
        <ele>186.63</ele>
        <time>2014-03-30T08:28:47Z</time>
      </trkpt>
      <trkpt lat="50.12343" lon="4.12554">
        <ele>183.75</ele>
        <time>2014-03-30T08:28:54Z</time>
      </trkpt>
      <trkpt lat="50.12336" lon="4.12552">
        <ele>180.87</ele>
        <time>2014-03-30T08:29:06Z</time>
      </trkpt>
      <trkpt lat="50.12328" lon="4.12553">
        <ele>178.94</ele>
        <time>2014-03-30T08:29:14Z</time>
      </trkpt>
      <trkpt lat="50.12312" lon="4.12554">
        <ele>177.5</ele>
        <time>2014-03-30T08:29:25Z</time>
      </trkpt>
      <trkpt lat="50.12293" lon="4.12562">
        <ele>176.54</ele>
        <time>2014-03-30T08:29:40Z</time>
      </trkpt>
      <trkpt lat="50.12288" lon="4.12566">
        <ele>180.38</ele>
        <time>2014-03-30T08:29:43Z</time>
      </trkpt>
      <trkpt lat="50.12287" lon="4.12566">
        <ele>180.38</ele>
        <time>2014-03-30T08:29:44Z</time>
      </trkpt>
      <trkpt lat="50.12281" lon="4.12569">
        <ele>182.79</ele>
        <time>2014-03-30T08:29:47Z</time>
      </trkpt>
      <trkpt lat="50.12263" lon="4.12581">
        <ele>186.63</ele>
        <time>2014-03-30T08:29:56Z</time>
      </trkpt>
      <trkpt lat="50.12262" lon="4.12605">
        <ele>190.48</ele>
        <time>2014-03-30T08:30:08Z</time>
      </trkpt>
      <trkpt lat="50.12257" lon="4.12624">
        <ele>190.48</ele>
        <time>2014-03-30T08:30:20Z</time>
      </trkpt>
      <trkpt lat="50.12253" lon="4.12662">
        <ele>190.48</ele>
        <time>2014-03-30T08:30:36Z</time>
      </trkpt>
      <trkpt lat="50.12251" lon="4.12672">
        <ele>189.04</ele>
        <time>2014-03-30T08:30:41Z</time>
      </trkpt>
      <trkpt lat="50.12243" lon="4.12695">
        <ele>186.15</ele>
        <time>2014-03-30T08:30:54Z</time>
      </trkpt>
      <trkpt lat="50.12235" lon="4.12709">
        <ele>182.79</ele>
        <time>2014-03-30T08:31:02Z</time>
      </trkpt>
      <trkpt lat="50.12225" lon="4.12735">
        <ele>179.9</ele>
        <time>2014-03-30T08:31:16Z</time>
      </trkpt>
      <trkpt lat="50.12214" lon="4.12756">
        <ele>177.98</ele>
        <time>2014-03-30T08:31:28Z</time>
      </trkpt>
      <trkpt lat="50.12206" lon="4.12756">
        <ele>176.06</ele>
        <time>2014-03-30T08:31:32Z</time>
      </trkpt>
      <trkpt lat="50.12197" lon="4.1277">
        <ele>175.58</ele>
        <time>2014-03-30T08:31:39Z</time>
      </trkpt>
      <trkpt lat="50.12173" lon="4.12817">
        <ele>174.62</ele>
        <time>2014-03-30T08:31:58Z</time>
      </trkpt>
      <trkpt lat="50.12148" lon="4.12863">
        <ele>174.14</ele>
        <time>2014-03-30T08:32:14Z</time>
      </trkpt>
      <trkpt lat="50.12128" lon="4.12906">
        <ele>173.66</ele>
        <time>2014-03-30T08:32:31Z</time>
      </trkpt>
      <trkpt lat="50.12109" lon="4.1295">
        <ele>173.66</ele>
        <time>2014-03-30T08:32:49Z</time>
      </trkpt>
      <trkpt lat="50.12102" lon="4.12968">
        <ele>174.62</ele>
        <time>2014-03-30T08:32:56Z</time>
      </trkpt>
      <trkpt lat="50.12086" lon="4.13007">
        <ele>175.58</ele>
        <time>2014-03-30T08:33:14Z</time>
      </trkpt>
      <trkpt lat="50.12085" lon="4.13009">
        <ele>175.58</ele>
        <time>2014-03-30T08:33:15Z</time>
      </trkpt>
      <trkpt lat="50.12073" lon="4.13052">
        <ele>177.02</ele>
        <time>2014-03-30T08:33:34Z</time>
      </trkpt>
      <trkpt lat="50.12062" lon="4.13088">
        <ele>178.46</ele>
        <time>2014-03-30T08:33:50Z</time>
      </trkpt>
      <trkpt lat="50.1205" lon="4.13131">
        <ele>179.42</ele>
        <time>2014-03-30T08:34:06Z</time>
      </trkpt>
      <trkpt lat="50.12038" lon="4.13175">
        <ele>178.94</ele>
        <time>2014-03-30T08:34:22Z</time>
      </trkpt>
      <trkpt lat="50.12023" lon="4.13217">
        <ele>179.9</ele>
        <time>2014-03-30T08:34:38Z</time>
      </trkpt>
      <trkpt lat="50.12013" lon="4.13257">
        <ele>179.9</ele>
        <time>2014-03-30T08:34:53Z</time>
      </trkpt>
      <trkpt lat="50.12007" lon="4.13274">
        <ele>178.46</ele>
        <time>2014-03-30T08:35:00Z</time>
      </trkpt>
      <trkpt lat="50.12006" lon="4.13279">
        <ele>178.46</ele>
        <time>2014-03-30T08:35:02Z</time>
      </trkpt>
      <trkpt lat="50.12007" lon="4.13282">
        <ele>178.46</ele>
        <time>2014-03-30T08:35:03Z</time>
      </trkpt>
      <trkpt lat="50.12007" lon="4.13284">
        <ele>178.46</ele>
        <time>2014-03-30T08:35:04Z</time>
      </trkpt>
      <trkpt lat="50.12007" lon="4.13286">
        <ele>178.46</ele>
        <time>2014-03-30T08:35:05Z</time>
      </trkpt>
      <trkpt lat="50.12008" lon="4.13288">
        <ele>178.46</ele>
        <time>2014-03-30T08:35:06Z</time>
      </trkpt>
      <trkpt lat="50.12015" lon="4.13307">
        <ele>178.46</ele>
        <time>2014-03-30T08:35:15Z</time>
      </trkpt>
      <trkpt lat="50.12033" lon="4.13322">
        <ele>177.5</ele>
        <time>2014-03-30T08:35:28Z</time>
      </trkpt>
      <trkpt lat="50.12053" lon="4.13342">
        <ele>177.5</ele>
        <time>2014-03-30T08:35:42Z</time>
      </trkpt>
      <trkpt lat="50.12055" lon="4.13345">
        <ele>177.5</ele>
        <time>2014-03-30T08:35:44Z</time>
      </trkpt>
      <trkpt lat="50.12075" lon="4.13365">
        <ele>177.02</ele>
        <time>2014-03-30T08:35:57Z</time>
      </trkpt>
      <trkpt lat="50.12085" lon="4.13374">
        <ele>177.02</ele>
        <time>2014-03-30T08:36:04Z</time>
      </trkpt>
      <trkpt lat="50.12106" lon="4.134">
        <ele>177.02</ele>
        <time>2014-03-30T08:36:18Z</time>
      </trkpt>
      <trkpt lat="50.12118" lon="4.13418">
        <ele>177.02</ele>
        <time>2014-03-30T08:36:30Z</time>
      </trkpt>
      <trkpt lat="50.12127" lon="4.13448">
        <ele>178.94</ele>
        <time>2014-03-30T08:36:47Z</time>
      </trkpt>
      <trkpt lat="50.12128" lon="4.13455">
        <ele>179.9</ele>
        <time>2014-03-30T08:36:53Z</time>
      </trkpt>
      <trkpt lat="50.1213" lon="4.13462">
        <ele>180.38</ele>
        <time>2014-03-30T08:36:55Z</time>
      </trkpt>
      <trkpt lat="50.12135" lon="4.13492">
        <ele>183.75</ele>
        <time>2014-03-30T08:37:08Z</time>
      </trkpt>
      <trkpt lat="50.12138" lon="4.13504">
        <ele>185.19</ele>
        <time>2014-03-30T08:37:14Z</time>
      </trkpt>
      <trkpt lat="50.1214" lon="4.13511">
        <ele>185.67</ele>
        <time>2014-03-30T08:37:17Z</time>
      </trkpt>
      <trkpt lat="50.12143" lon="4.13541">
        <ele>188.08</ele>
        <time>2014-03-30T08:37:30Z</time>
      </trkpt>
      <trkpt lat="50.12158" lon="4.13565">
        <ele>190.96</ele>
        <time>2014-03-30T08:37:44Z</time>
      </trkpt>
      <trkpt lat="50.12167" lon="4.136">
        <ele>190.96</ele>
        <time>2014-03-30T08:38:00Z</time>
      </trkpt>
      <trkpt lat="50.12168" lon="4.13609">
        <ele>190.96</ele>
        <time>2014-03-30T08:38:05Z</time>
      </trkpt>
      <trkpt lat="50.12179" lon="4.13632">
        <ele>188.56</ele>
        <time>2014-03-30T08:38:14Z</time>
      </trkpt>
      <trkpt lat="50.12182" lon="4.1364">
        <ele>188.56</ele>
        <time>2014-03-30T08:38:16Z</time>
      </trkpt>
      <trkpt lat="50.12181" lon="4.13661">
        <ele>189.04</ele>
        <time>2014-03-30T08:38:26Z</time>
      </trkpt>
      <trkpt lat="50.1218" lon="4.13666">
        <ele>190</ele>
        <time>2014-03-30T08:38:28Z</time>
      </trkpt>
      <trkpt lat="50.12174" lon="4.13697">
        <ele>191.44</ele>
        <time>2014-03-30T08:38:44Z</time>
      </trkpt>
      <trkpt lat="50.12168" lon="4.1371">
        <ele>193.84</ele>
        <time>2014-03-30T08:38:54Z</time>
      </trkpt>
      <trkpt lat="50.12148" lon="4.13732">
        <ele>195.77</ele>
        <time>2014-03-30T08:39:06Z</time>
      </trkpt>
      <trkpt lat="50.12138" lon="4.13742">
        <ele>197.69</ele>
        <time>2014-03-30T08:39:18Z</time>
      </trkpt>
      <trkpt lat="50.1213" lon="4.13766">
        <ele>199.61</ele>
        <time>2014-03-30T08:39:33Z</time>
      </trkpt>
      <trkpt lat="50.12125" lon="4.1379">
        <ele>202.01</ele>
        <time>2014-03-30T08:39:46Z</time>
      </trkpt>
      <trkpt lat="50.12121" lon="4.13813">
        <ele>203.94</ele>
        <time>2014-03-30T08:39:57Z</time>
      </trkpt>
      <trkpt lat="50.12121" lon="4.1384">
        <ele>207.3</ele>
        <time>2014-03-30T08:40:10Z</time>
      </trkpt>
      <trkpt lat="50.12115" lon="4.13882">
        <ele>209.7</ele>
        <time>2014-03-30T08:40:23Z</time>
      </trkpt>
      <trkpt lat="50.12106" lon="4.13903">
        <ele>212.11</ele>
        <time>2014-03-30T08:40:34Z</time>
      </trkpt>
      <trkpt lat="50.12103" lon="4.13909">
        <ele>213.07</ele>
        <time>2014-03-30T08:40:37Z</time>
      </trkpt>
      <trkpt lat="50.12099" lon="4.13934">
        <ele>214.03</ele>
        <time>2014-03-30T08:40:49Z</time>
      </trkpt>
      <trkpt lat="50.121" lon="4.13947">
        <ele>214.99</ele>
        <time>2014-03-30T08:40:54Z</time>
      </trkpt>
      <trkpt lat="50.1211" lon="4.13974">
        <ele>216.43</ele>
        <time>2014-03-30T08:41:07Z</time>
      </trkpt>
      <trkpt lat="50.12119" lon="4.14002">
        <ele>216.91</ele>
        <time>2014-03-30T08:41:22Z</time>
      </trkpt>
      <trkpt lat="50.12122" lon="4.14021">
        <ele>217.4</ele>
        <time>2014-03-30T08:41:31Z</time>
      </trkpt>
      <trkpt lat="50.12125" lon="4.14046">
        <ele>217.4</ele>
        <time>2014-03-30T08:41:42Z</time>
      </trkpt>
      <trkpt lat="50.12125" lon="4.14052">
        <ele>217.88</ele>
        <time>2014-03-30T08:41:44Z</time>
      </trkpt>
      <trkpt lat="50.12133" lon="4.14093">
        <ele>217.88</ele>
        <time>2014-03-30T08:41:59Z</time>
      </trkpt>
      <trkpt lat="50.1214" lon="4.14124">
        <ele>217.88</ele>
        <time>2014-03-30T08:42:13Z</time>
      </trkpt>
      <trkpt lat="50.1214" lon="4.14136">
        <ele>217.88</ele>
        <time>2014-03-30T08:42:18Z</time>
      </trkpt>
      <trkpt lat="50.12135" lon="4.14168">
        <ele>217.88</ele>
        <time>2014-03-30T08:42:31Z</time>
      </trkpt>
      <trkpt lat="50.12136" lon="4.14188">
        <ele>216.43</ele>
        <time>2014-03-30T08:42:38Z</time>
      </trkpt>
      <trkpt lat="50.1214" lon="4.14213">
        <ele>215.47</ele>
        <time>2014-03-30T08:42:48Z</time>
      </trkpt>
      <trkpt lat="50.12125" lon="4.14222">
        <ele>214.99</ele>
        <time>2014-03-30T08:43:02Z</time>
      </trkpt>
      <trkpt lat="50.12112" lon="4.14238">
        <ele>214.51</ele>
        <time>2014-03-30T08:43:15Z</time>
      </trkpt>
      <trkpt lat="50.12103" lon="4.1426">
        <ele>213.07</ele>
        <time>2014-03-30T08:43:28Z</time>
      </trkpt>
      <trkpt lat="50.12103" lon="4.1427">
        <ele>212.59</ele>
        <time>2014-03-30T08:43:32Z</time>
      </trkpt>
      <trkpt lat="50.12105" lon="4.14304">
        <ele>211.63</ele>
        <time>2014-03-30T08:43:45Z</time>
      </trkpt>
      <trkpt lat="50.12115" lon="4.1434">
        <ele>210.19</ele>
        <time>2014-03-30T08:43:59Z</time>
      </trkpt>
      <trkpt lat="50.12116" lon="4.14343">
        <ele>210.19</ele>
        <time>2014-03-30T08:44:00Z</time>
      </trkpt>
      <trkpt lat="50.12121" lon="4.14353">
        <ele>209.7</ele>
        <time>2014-03-30T08:44:05Z</time>
      </trkpt>
      <trkpt lat="50.12128" lon="4.14369">
        <ele>208.74</ele>
        <time>2014-03-30T08:44:16Z</time>
      </trkpt>
      <trkpt lat="50.12128" lon="4.1438">
        <ele>206.82</ele>
        <time>2014-03-30T08:44:29Z</time>
      </trkpt>
      <trkpt lat="50.12128" lon="4.14383">
        <ele>206.34</ele>
        <time>2014-03-30T08:44:33Z</time>
      </trkpt>
      <trkpt lat="50.12121" lon="4.14408">
        <ele>204.9</ele>
        <time>2014-03-30T08:44:45Z</time>
      </trkpt>
      <trkpt lat="50.12118" lon="4.14412">
        <ele>204.9</ele>
        <time>2014-03-30T08:44:49Z</time>
      </trkpt>
      <trkpt lat="50.12115" lon="4.14418">
        <ele>204.42</ele>
        <time>2014-03-30T08:44:54Z</time>
      </trkpt>
      <trkpt lat="50.12109" lon="4.1446">
        <ele>203.46</ele>
        <time>2014-03-30T08:45:05Z</time>
      </trkpt>
      <trkpt lat="50.12104" lon="4.14501">
        <ele>202.49</ele>
        <time>2014-03-30T08:45:18Z</time>
      </trkpt>
      <trkpt lat="50.12103" lon="4.14552">
        <ele>201.05</ele>
        <time>2014-03-30T08:45:34Z</time>
      </trkpt>
      <trkpt lat="50.12101" lon="4.146">
        <ele>199.13</ele>
        <time>2014-03-30T08:45:52Z</time>
      </trkpt>
      <trkpt lat="50.121" lon="4.14649">
        <ele>197.21</ele>
        <time>2014-03-30T08:46:10Z</time>
      </trkpt>
      <trkpt lat="50.121" lon="4.14691">
        <ele>195.28</ele>
        <time>2014-03-30T08:46:26Z</time>
      </trkpt>
      <trkpt lat="50.1209" lon="4.14734">
        <ele>192.4</ele>
        <time>2014-03-30T08:46:44Z</time>
      </trkpt>
      <trkpt lat="50.1207" lon="4.14739">
        <ele>190.48</ele>
        <time>2014-03-30T08:46:57Z</time>
      </trkpt>
      <trkpt lat="50.12048" lon="4.14738">
        <ele>187.59</ele>
        <time>2014-03-30T08:47:11Z</time>
      </trkpt>
      <trkpt lat="50.12028" lon="4.14742">
        <ele>184.23</ele>
        <time>2014-03-30T08:47:23Z</time>
      </trkpt>
      <trkpt lat="50.12018" lon="4.14754">
        <ele>181.83</ele>
        <time>2014-03-30T08:47:32Z</time>
      </trkpt>
      <trkpt lat="50.12014" lon="4.14754">
        <ele>180.87</ele>
        <time>2014-03-30T08:47:35Z</time>
      </trkpt>
      <trkpt lat="50.12006" lon="4.14726">
        <ele>179.42</ele>
        <time>2014-03-30T08:47:50Z</time>
      </trkpt>
      <trkpt lat="50.12005" lon="4.14724">
        <ele>178.94</ele>
        <time>2014-03-30T08:47:52Z</time>
      </trkpt>
      <trkpt lat="50.11991" lon="4.14705">
        <ele>175.58</ele>
        <time>2014-03-30T08:48:05Z</time>
      </trkpt>
      <trkpt lat="50.1199" lon="4.14705">
        <ele>175.58</ele>
        <time>2014-03-30T08:48:06Z</time>
      </trkpt>
      <trkpt lat="50.11991" lon="4.14712">
        <ele>175.1</ele>
        <time>2014-03-30T08:48:09Z</time>
      </trkpt>
      <trkpt lat="50.11991" lon="4.14714">
        <ele>175.1</ele>
        <time>2014-03-30T08:48:10Z</time>
      </trkpt>
      <trkpt lat="50.11992" lon="4.14716">
        <ele>175.1</ele>
        <time>2014-03-30T08:48:11Z</time>
      </trkpt>
      <trkpt lat="50.11992" lon="4.14718">
        <ele>175.1</ele>
        <time>2014-03-30T08:48:12Z</time>
      </trkpt>
      <trkpt lat="50.11996" lon="4.14726">
        <ele>176.54</ele>
        <time>2014-03-30T08:48:17Z</time>
      </trkpt>
      <trkpt lat="50.11997" lon="4.14728">
        <ele>176.54</ele>
        <time>2014-03-30T08:48:18Z</time>
      </trkpt>
      <trkpt lat="50.11997" lon="4.1473">
        <ele>176.54</ele>
        <time>2014-03-30T08:48:19Z</time>
      </trkpt>
      <trkpt lat="50.11997" lon="4.14733">
        <ele>176.54</ele>
        <time>2014-03-30T08:48:20Z</time>
      </trkpt>
      <trkpt lat="50.11997" lon="4.14736">
        <ele>176.54</ele>
        <time>2014-03-30T08:48:21Z</time>
      </trkpt>
      <trkpt lat="50.11997" lon="4.14748">
        <ele>176.54</ele>
        <time>2014-03-30T08:48:26Z</time>
      </trkpt>
      <trkpt lat="50.11996" lon="4.1475">
        <ele>176.54</ele>
        <time>2014-03-30T08:48:27Z</time>
      </trkpt>
      <trkpt lat="50.11996" lon="4.14753">
        <ele>176.54</ele>
        <time>2014-03-30T08:48:28Z</time>
      </trkpt>
      <trkpt lat="50.11996" lon="4.14756">
        <ele>176.54</ele>
        <time>2014-03-30T08:48:29Z</time>
      </trkpt>
      <trkpt lat="50.11995" lon="4.14759">
        <ele>176.54</ele>
        <time>2014-03-30T08:48:30Z</time>
      </trkpt>
      <trkpt lat="50.11995" lon="4.14761">
        <ele>175.1</ele>
        <time>2014-03-30T08:48:31Z</time>
      </trkpt>
      <trkpt lat="50.11995" lon="4.14764">
        <ele>175.1</ele>
        <time>2014-03-30T08:48:32Z</time>
      </trkpt>
      <trkpt lat="50.11995" lon="4.14766">
        <ele>175.1</ele>
        <time>2014-03-30T08:48:33Z</time>
      </trkpt>
      <trkpt lat="50.11996" lon="4.14775">
        <ele>174.62</ele>
        <time>2014-03-30T08:48:37Z</time>
      </trkpt>
      <trkpt lat="50.12001" lon="4.1479">
        <ele>172.21</ele>
        <time>2014-03-30T08:48:45Z</time>
      </trkpt>
      <trkpt lat="50.12002" lon="4.14791">
        <ele>172.21</ele>
        <time>2014-03-30T08:48:46Z</time>
      </trkpt>
      <trkpt lat="50.12003" lon="4.14792">
        <ele>172.21</ele>
        <time>2014-03-30T08:48:47Z</time>
      </trkpt>
      <trkpt lat="50.12022" lon="4.14808">
        <ele>172.21</ele>
        <time>2014-03-30T08:49:01Z</time>
      </trkpt>
      <trkpt lat="50.12037" lon="4.1481">
        <ele>172.21</ele>
        <time>2014-03-30T08:49:12Z</time>
      </trkpt>
      <trkpt lat="50.12063" lon="4.14814">
        <ele>172.21</ele>
        <time>2014-03-30T08:49:26Z</time>
      </trkpt>
      <trkpt lat="50.12084" lon="4.1482">
        <ele>172.21</ele>
        <time>2014-03-30T08:49:38Z</time>
      </trkpt>
      <trkpt lat="50.12094" lon="4.14819">
        <ele>172.21</ele>
        <time>2014-03-30T08:49:47Z</time>
      </trkpt>
      <trkpt lat="50.12102" lon="4.14811">
        <ele>173.17</ele>
        <time>2014-03-30T08:49:55Z</time>
      </trkpt>
      <trkpt lat="50.12103" lon="4.14808">
        <ele>174.62</ele>
        <time>2014-03-30T08:49:57Z</time>
      </trkpt>
      <trkpt lat="50.12104" lon="4.14806">
        <ele>174.62</ele>
        <time>2014-03-30T08:49:58Z</time>
      </trkpt>
      <trkpt lat="50.12107" lon="4.14799">
        <ele>177.02</ele>
        <time>2014-03-30T08:50:02Z</time>
      </trkpt>
      <trkpt lat="50.12115" lon="4.14786">
        <ele>180.38</ele>
        <time>2014-03-30T08:50:12Z</time>
      </trkpt>
      <trkpt lat="50.12116" lon="4.14782">
        <ele>180.87</ele>
        <time>2014-03-30T08:50:14Z</time>
      </trkpt>
      <trkpt lat="50.1212" lon="4.14771">
        <ele>184.23</ele>
        <time>2014-03-30T08:50:21Z</time>
      </trkpt>
      <trkpt lat="50.12126" lon="4.14768">
        <ele>186.15</ele>
        <time>2014-03-30T08:50:27Z</time>
      </trkpt>
      <trkpt lat="50.12137" lon="4.14741">
        <ele>188.56</ele>
        <time>2014-03-30T08:50:41Z</time>
      </trkpt>
      <trkpt lat="50.1214" lon="4.14708">
        <ele>190.96</ele>
        <time>2014-03-30T08:50:56Z</time>
      </trkpt>
      <trkpt lat="50.12142" lon="4.14696">
        <ele>192.4</ele>
        <time>2014-03-30T08:51:05Z</time>
      </trkpt>
      <trkpt lat="50.12146" lon="4.14667">
        <ele>193.84</ele>
        <time>2014-03-30T08:51:20Z</time>
      </trkpt>
      <trkpt lat="50.12149" lon="4.14637">
        <ele>194.32</ele>
        <time>2014-03-30T08:51:33Z</time>
      </trkpt>
      <trkpt lat="50.12151" lon="4.14628">
        <ele>194.32</ele>
        <time>2014-03-30T08:51:39Z</time>
      </trkpt>
      <trkpt lat="50.12153" lon="4.1463">
        <ele>192.88</ele>
        <time>2014-03-30T08:51:42Z</time>
      </trkpt>
      <trkpt lat="50.12162" lon="4.14644">
        <ele>190.48</ele>
        <time>2014-03-30T08:51:54Z</time>
      </trkpt>
      <trkpt lat="50.12166" lon="4.14647">
        <ele>190.48</ele>
        <time>2014-03-30T08:51:57Z</time>
      </trkpt>
      <trkpt lat="50.12189" lon="4.14674">
        <ele>187.11</ele>
        <time>2014-03-30T08:52:14Z</time>
      </trkpt>
      <trkpt lat="50.12196" lon="4.14696">
        <ele>185.19</ele>
        <time>2014-03-30T08:52:27Z</time>
      </trkpt>
      <trkpt lat="50.12192" lon="4.14719">
        <ele>183.75</ele>
        <time>2014-03-30T08:52:39Z</time>
      </trkpt>
      <trkpt lat="50.1219" lon="4.1475">
        <ele>180.38</ele>
        <time>2014-03-30T08:52:51Z</time>
      </trkpt>
      <trkpt lat="50.1219" lon="4.14755">
        <ele>179.9</ele>
        <time>2014-03-30T08:52:53Z</time>
      </trkpt>
      <trkpt lat="50.12191" lon="4.14776">
        <ele>176.06</ele>
        <time>2014-03-30T08:53:03Z</time>
      </trkpt>
      <trkpt lat="50.12192" lon="4.14783">
        <ele>174.14</ele>
        <time>2014-03-30T08:53:06Z</time>
      </trkpt>
      <trkpt lat="50.12196" lon="4.1481">
        <ele>172.21</ele>
        <time>2014-03-30T08:53:18Z</time>
      </trkpt>
      <trkpt lat="50.12204" lon="4.14829">
        <ele>170.29</ele>
        <time>2014-03-30T08:53:32Z</time>
      </trkpt>
      <trkpt lat="50.12212" lon="4.14827">
        <ele>169.81</ele>
        <time>2014-03-30T08:53:38Z</time>
      </trkpt>
      <trkpt lat="50.1222" lon="4.1481">
        <ele>171.25</ele>
        <time>2014-03-30T08:53:51Z</time>
      </trkpt>
      <trkpt lat="50.1222" lon="4.14807">
        <ele>171.25</ele>
        <time>2014-03-30T08:53:52Z</time>
      </trkpt>
      <trkpt lat="50.12228" lon="4.14774">
        <ele>172.21</ele>
        <time>2014-03-30T08:54:07Z</time>
      </trkpt>
      <trkpt lat="50.1223" lon="4.14742">
        <ele>173.17</ele>
        <time>2014-03-30T08:54:22Z</time>
      </trkpt>
      <trkpt lat="50.12229" lon="4.14713">
        <ele>174.62</ele>
        <time>2014-03-30T08:54:36Z</time>
      </trkpt>
      <trkpt lat="50.12225" lon="4.14669">
        <ele>175.1</ele>
        <time>2014-03-30T08:54:49Z</time>
      </trkpt>
      <trkpt lat="50.12223" lon="4.14639">
        <ele>176.06</ele>
        <time>2014-03-30T08:55:00Z</time>
      </trkpt>
      <trkpt lat="50.12223" lon="4.14632">
        <ele>176.54</ele>
        <time>2014-03-30T08:55:02Z</time>
      </trkpt>
      <trkpt lat="50.12228" lon="4.14627">
        <ele>177.98</ele>
        <time>2014-03-30T08:55:09Z</time>
      </trkpt>
      <trkpt lat="50.12231" lon="4.1461">
        <ele>178.46</ele>
        <time>2014-03-30T08:55:16Z</time>
      </trkpt>
      <trkpt lat="50.12234" lon="4.14596">
        <ele>179.42</ele>
        <time>2014-03-30T08:55:24Z</time>
      </trkpt>
      <trkpt lat="50.12242" lon="4.1459">
        <ele>181.35</ele>
        <time>2014-03-30T08:55:30Z</time>
      </trkpt>
      <trkpt lat="50.12249" lon="4.1459">
        <ele>183.27</ele>
        <time>2014-03-30T08:55:35Z</time>
      </trkpt>
      <trkpt lat="50.12255" lon="4.14576">
        <ele>186.63</ele>
        <time>2014-03-30T08:55:44Z</time>
      </trkpt>
      <trkpt lat="50.12262" lon="4.14555">
        <ele>189.04</ele>
        <time>2014-03-30T08:55:55Z</time>
      </trkpt>
      <trkpt lat="50.12273" lon="4.14527">
        <ele>192.88</ele>
        <time>2014-03-30T08:56:07Z</time>
      </trkpt>
      <trkpt lat="50.12281" lon="4.14511">
        <ele>196.25</ele>
        <time>2014-03-30T08:56:19Z</time>
      </trkpt>
      <trkpt lat="50.12289" lon="4.14486">
        <ele>199.13</ele>
        <time>2014-03-30T08:56:31Z</time>
      </trkpt>
      <trkpt lat="50.12294" lon="4.14474">
        <ele>202.01</ele>
        <time>2014-03-30T08:56:44Z</time>
      </trkpt>
      <trkpt lat="50.12302" lon="4.14488">
        <ele>203.94</ele>
        <time>2014-03-30T08:56:56Z</time>
      </trkpt>
      <trkpt lat="50.1231" lon="4.145">
        <ele>203.94</ele>
        <time>2014-03-30T08:57:08Z</time>
      </trkpt>
      <trkpt lat="50.12324" lon="4.14524">
        <ele>204.42</ele>
        <time>2014-03-30T08:57:25Z</time>
      </trkpt>
      <trkpt lat="50.12333" lon="4.14544">
        <ele>202.01</ele>
        <time>2014-03-30T08:57:37Z</time>
      </trkpt>
      <trkpt lat="50.12335" lon="4.1455">
        <ele>199.13</ele>
        <time>2014-03-30T08:57:41Z</time>
      </trkpt>
      <trkpt lat="50.12339" lon="4.14561">
        <ele>200.57</ele>
        <time>2014-03-30T08:57:46Z</time>
      </trkpt>
      <trkpt lat="50.12347" lon="4.14579">
        <ele>202.98</ele>
        <time>2014-03-30T08:57:56Z</time>
      </trkpt>
      <trkpt lat="50.12351" lon="4.14593">
        <ele>204.42</ele>
        <time>2014-03-30T08:58:01Z</time>
      </trkpt>
      <trkpt lat="50.1236" lon="4.14604">
        <ele>206.34</ele>
        <time>2014-03-30T08:58:12Z</time>
      </trkpt>
      <trkpt lat="50.12365" lon="4.1462">
        <ele>206.34</ele>
        <time>2014-03-30T08:58:23Z</time>
      </trkpt>
      <trkpt lat="50.12366" lon="4.14621">
        <ele>206.34</ele>
        <time>2014-03-30T08:58:24Z</time>
      </trkpt>
      <trkpt lat="50.12374" lon="4.14645">
        <ele>206.34</ele>
        <time>2014-03-30T08:58:38Z</time>
      </trkpt>
      <trkpt lat="50.12375" lon="4.14667">
        <ele>206.34</ele>
        <time>2014-03-30T08:58:53Z</time>
      </trkpt>
      <trkpt lat="50.12373" lon="4.1468">
        <ele>204.9</ele>
        <time>2014-03-30T08:59:03Z</time>
      </trkpt>
      <trkpt lat="50.12369" lon="4.14701">
        <ele>204.42</ele>
        <time>2014-03-30T08:59:16Z</time>
      </trkpt>
      <trkpt lat="50.12367" lon="4.14712">
        <ele>204.42</ele>
        <time>2014-03-30T08:59:23Z</time>
      </trkpt>
      <trkpt lat="50.12363" lon="4.14732">
        <ele>202.98</ele>
        <time>2014-03-30T08:59:34Z</time>
      </trkpt>
      <trkpt lat="50.12361" lon="4.1474">
        <ele>202.98</ele>
        <time>2014-03-30T08:59:37Z</time>
      </trkpt>
      <trkpt lat="50.12359" lon="4.1475">
        <ele>202.49</ele>
        <time>2014-03-30T08:59:41Z</time>
      </trkpt>
      <trkpt lat="50.12352" lon="4.14783">
        <ele>201.53</ele>
        <time>2014-03-30T08:59:55Z</time>
      </trkpt>
      <trkpt lat="50.12351" lon="4.14801">
        <ele>201.05</ele>
        <time>2014-03-30T09:00:02Z</time>
      </trkpt>
      <trkpt lat="50.1235" lon="4.14825">
        <ele>200.09</ele>
        <time>2014-03-30T09:00:13Z</time>
      </trkpt>
      <trkpt lat="50.1234" lon="4.14854">
        <ele>198.65</ele>
        <time>2014-03-30T09:00:27Z</time>
      </trkpt>
      <trkpt lat="50.12336" lon="4.14885">
        <ele>198.17</ele>
        <time>2014-03-30T09:00:39Z</time>
      </trkpt>
      <trkpt lat="50.12331" lon="4.14904">
        <ele>196.73</ele>
        <time>2014-03-30T09:00:46Z</time>
      </trkpt>
      <trkpt lat="50.12329" lon="4.14909">
        <ele>196.25</ele>
        <time>2014-03-30T09:00:48Z</time>
      </trkpt>
      <trkpt lat="50.12318" lon="4.14941">
        <ele>193.36</ele>
        <time>2014-03-30T09:01:02Z</time>
      </trkpt>
      <trkpt lat="50.12314" lon="4.14974">
        <ele>191.44</ele>
        <time>2014-03-30T09:01:14Z</time>
      </trkpt>
      <trkpt lat="50.12307" lon="4.15002">
        <ele>188.56</ele>
        <time>2014-03-30T09:01:26Z</time>
      </trkpt>
      <trkpt lat="50.12302" lon="4.1503">
        <ele>185.67</ele>
        <time>2014-03-30T09:01:40Z</time>
      </trkpt>
      <trkpt lat="50.12301" lon="4.15063">
        <ele>183.75</ele>
        <time>2014-03-30T09:01:50Z</time>
      </trkpt>
      <trkpt lat="50.12296" lon="4.15091">
        <ele>182.31</ele>
        <time>2014-03-30T09:02:02Z</time>
      </trkpt>
      <trkpt lat="50.1229" lon="4.1512">
        <ele>180.87</ele>
        <time>2014-03-30T09:02:14Z</time>
      </trkpt>
      <trkpt lat="50.12282" lon="4.15158">
        <ele>179.9</ele>
        <time>2014-03-30T09:02:26Z</time>
      </trkpt>
      <trkpt lat="50.12277" lon="4.15169">
        <ele>179.42</ele>
        <time>2014-03-30T09:02:31Z</time>
      </trkpt>
      <trkpt lat="50.1227" lon="4.15195">
        <ele>180.38</ele>
        <time>2014-03-30T09:02:43Z</time>
      </trkpt>
      <trkpt lat="50.12266" lon="4.15204">
        <ele>180.38</ele>
        <time>2014-03-30T09:02:48Z</time>
      </trkpt>
      <trkpt lat="50.12249" lon="4.15274">
        <ele>180.38</ele>
        <time>2014-03-30T09:03:03Z</time>
      </trkpt>
      <trkpt lat="50.12253" lon="4.15332">
        <ele>180.38</ele>
        <time>2014-03-30T09:03:18Z</time>
      </trkpt>
      <trkpt lat="50.12258" lon="4.15357">
        <ele>181.83</ele>
        <time>2014-03-30T09:03:29Z</time>
      </trkpt>
      <trkpt lat="50.12268" lon="4.1539">
        <ele>183.27</ele>
        <time>2014-03-30T09:03:44Z</time>
      </trkpt>
      <trkpt lat="50.12277" lon="4.15418">
        <ele>185.19</ele>
        <time>2014-03-30T09:03:57Z</time>
      </trkpt>
      <trkpt lat="50.12285" lon="4.15452">
        <ele>186.63</ele>
        <time>2014-03-30T09:04:12Z</time>
      </trkpt>
      <trkpt lat="50.12278" lon="4.15477">
        <ele>188.08</ele>
        <time>2014-03-30T09:04:24Z</time>
      </trkpt>
      <trkpt lat="50.12289" lon="4.15501">
        <ele>190</ele>
        <time>2014-03-30T09:04:39Z</time>
      </trkpt>
      <trkpt lat="50.12295" lon="4.1552">
        <ele>191.44</ele>
        <time>2014-03-30T09:04:47Z</time>
      </trkpt>
      <trkpt lat="50.12297" lon="4.15527">
        <ele>192.88</ele>
        <time>2014-03-30T09:04:50Z</time>
      </trkpt>
      <trkpt lat="50.123" lon="4.15546">
        <ele>194.8</ele>
        <time>2014-03-30T09:04:58Z</time>
      </trkpt>
      <trkpt lat="50.123" lon="4.15559">
        <ele>196.73</ele>
        <time>2014-03-30T09:05:04Z</time>
      </trkpt>
      <trkpt lat="50.12301" lon="4.15589">
        <ele>199.61</ele>
        <time>2014-03-30T09:05:18Z</time>
      </trkpt>
      <trkpt lat="50.12301" lon="4.156">
        <ele>200.57</ele>
        <time>2014-03-30T09:05:24Z</time>
      </trkpt>
      <trkpt lat="50.12301" lon="4.15629">
        <ele>203.46</ele>
        <time>2014-03-30T09:05:39Z</time>
      </trkpt>
      <trkpt lat="50.123" lon="4.15655">
        <ele>205.86</ele>
        <time>2014-03-30T09:05:54Z</time>
      </trkpt>
      <trkpt lat="50.123" lon="4.15664">
        <ele>206.82</ele>
        <time>2014-03-30T09:05:59Z</time>
      </trkpt>
      <trkpt lat="50.12304" lon="4.1569">
        <ele>209.22</ele>
        <time>2014-03-30T09:06:15Z</time>
      </trkpt>
      <trkpt lat="50.12304" lon="4.15692">
        <ele>209.22</ele>
        <time>2014-03-30T09:06:16Z</time>
      </trkpt>
      <trkpt lat="50.12306" lon="4.15714">
        <ele>211.63</ele>
        <time>2014-03-30T09:06:29Z</time>
      </trkpt>
      <trkpt lat="50.12307" lon="4.15727">
        <ele>212.59</ele>
        <time>2014-03-30T09:06:37Z</time>
      </trkpt>
      <trkpt lat="50.12312" lon="4.15746">
        <ele>213.55</ele>
        <time>2014-03-30T09:06:46Z</time>
      </trkpt>
      <trkpt lat="50.12321" lon="4.15777">
        <ele>215.47</ele>
        <time>2014-03-30T09:07:03Z</time>
      </trkpt>
      <trkpt lat="50.1233" lon="4.158">
        <ele>216.91</ele>
        <time>2014-03-30T09:07:15Z</time>
      </trkpt>
      <trkpt lat="50.12337" lon="4.15817">
        <ele>217.4</ele>
        <time>2014-03-30T09:07:24Z</time>
      </trkpt>
      <trkpt lat="50.12341" lon="4.15836">
        <ele>217.4</ele>
        <time>2014-03-30T09:07:32Z</time>
      </trkpt>
      <trkpt lat="50.1235" lon="4.15871">
        <ele>217.4</ele>
        <time>2014-03-30T09:07:47Z</time>
      </trkpt>
      <trkpt lat="50.12355" lon="4.15889">
        <ele>217.4</ele>
        <time>2014-03-30T09:07:54Z</time>
      </trkpt>
      <trkpt lat="50.12345" lon="4.15894">
        <ele>217.4</ele>
        <time>2014-03-30T09:08:02Z</time>
      </trkpt>
      <trkpt lat="50.12316" lon="4.15887">
        <ele>216.43</ele>
        <time>2014-03-30T09:08:21Z</time>
      </trkpt>
      <trkpt lat="50.12296" lon="4.15876">
        <ele>214.99</ele>
        <time>2014-03-30T09:08:35Z</time>
      </trkpt>
      <trkpt lat="50.1227" lon="4.1586">
        <ele>213.07</ele>
        <time>2014-03-30T09:08:53Z</time>
      </trkpt>
      <trkpt lat="50.12245" lon="4.15842">
        <ele>210.67</ele>
        <time>2014-03-30T09:09:10Z</time>
      </trkpt>
      <trkpt lat="50.1222" lon="4.15831">
        <ele>207.3</ele>
        <time>2014-03-30T09:09:27Z</time>
      </trkpt>
      <trkpt lat="50.12195" lon="4.15822">
        <ele>203.94</ele>
        <time>2014-03-30T09:09:43Z</time>
      </trkpt>
      <trkpt lat="50.12168" lon="4.15811">
        <ele>201.53</ele>
        <time>2014-03-30T09:09:58Z</time>
      </trkpt>
      <trkpt lat="50.12147" lon="4.15792">
        <ele>198.17</ele>
        <time>2014-03-30T09:10:10Z</time>
      </trkpt>
      <trkpt lat="50.12135" lon="4.15782">
        <ele>194.8</ele>
        <time>2014-03-30T09:10:23Z</time>
      </trkpt>
      <trkpt lat="50.1212" lon="4.15771">
        <ele>194.32</ele>
        <time>2014-03-30T09:10:31Z</time>
      </trkpt>
      <trkpt lat="50.12116" lon="4.15766">
        <ele>193.36</ele>
        <time>2014-03-30T09:10:33Z</time>
      </trkpt>
      <trkpt lat="50.12115" lon="4.15765">
        <ele>192.88</ele>
        <time>2014-03-30T09:10:34Z</time>
      </trkpt>
      <trkpt lat="50.12114" lon="4.15763">
        <ele>192.4</ele>
        <time>2014-03-30T09:10:35Z</time>
      </trkpt>
      <trkpt lat="50.12096" lon="4.1575">
        <ele>189.04</ele>
        <time>2014-03-30T09:10:49Z</time>
      </trkpt>
      <trkpt lat="50.12082" lon="4.15747">
        <ele>188.08</ele>
        <time>2014-03-30T09:10:57Z</time>
      </trkpt>
      <trkpt lat="50.1208" lon="4.15749">
        <ele>188.08</ele>
        <time>2014-03-30T09:10:58Z</time>
      </trkpt>
      <trkpt lat="50.12079" lon="4.15749">
        <ele>188.08</ele>
        <time>2014-03-30T09:10:59Z</time>
      </trkpt>
      <trkpt lat="50.1208" lon="4.15755">
        <ele>189.52</ele>
        <time>2014-03-30T09:11:03Z</time>
      </trkpt>
      <trkpt lat="50.12085" lon="4.15778">
        <ele>191.92</ele>
        <time>2014-03-30T09:11:14Z</time>
      </trkpt>
      <trkpt lat="50.12089" lon="4.15795">
        <ele>193.36</ele>
        <time>2014-03-30T09:11:22Z</time>
      </trkpt>
      <trkpt lat="50.12097" lon="4.15819">
        <ele>194.8</ele>
        <time>2014-03-30T09:11:32Z</time>
      </trkpt>
      <trkpt lat="50.12098" lon="4.15821">
        <ele>194.8</ele>
        <time>2014-03-30T09:11:33Z</time>
      </trkpt>
      <trkpt lat="50.12098" lon="4.15822">
        <ele>194.8</ele>
        <time>2014-03-30T09:11:34Z</time>
      </trkpt>
      <trkpt lat="50.12099" lon="4.15824">
        <ele>194.8</ele>
        <time>2014-03-30T09:11:35Z</time>
      </trkpt>
      <trkpt lat="50.121" lon="4.15826">
        <ele>195.28</ele>
        <time>2014-03-30T09:11:36Z</time>
      </trkpt>
      <trkpt lat="50.12101" lon="4.15828">
        <ele>195.28</ele>
        <time>2014-03-30T09:11:37Z</time>
      </trkpt>
      <trkpt lat="50.12102" lon="4.1583">
        <ele>195.77</ele>
        <time>2014-03-30T09:11:38Z</time>
      </trkpt>
      <trkpt lat="50.12103" lon="4.15833">
        <ele>195.77</ele>
        <time>2014-03-30T09:11:39Z</time>
      </trkpt>
      <trkpt lat="50.12121" lon="4.15867">
        <ele>197.69</ele>
        <time>2014-03-30T09:11:51Z</time>
      </trkpt>
      <trkpt lat="50.12126" lon="4.1587">
        <ele>199.61</ele>
        <time>2014-03-30T09:12:02Z</time>
      </trkpt>
      <trkpt lat="50.12147" lon="4.15905">
        <ele>201.05</ele>
        <time>2014-03-30T09:12:15Z</time>
      </trkpt>
      <trkpt lat="50.1216" lon="4.15927">
        <ele>202.49</ele>
        <time>2014-03-30T09:12:29Z</time>
      </trkpt>
      <trkpt lat="50.12159" lon="4.15927">
        <ele>202.98</ele>
        <time>2014-03-30T09:12:34Z</time>
      </trkpt>
      <trkpt lat="50.12159" lon="4.15928">
        <ele>202.98</ele>
        <time>2014-03-30T09:12:35Z</time>
      </trkpt>
      <trkpt lat="50.1216" lon="4.15929">
        <ele>202.98</ele>
        <time>2014-03-30T09:12:36Z</time>
      </trkpt>
      <trkpt lat="50.12162" lon="4.15966">
        <ele>202.01</ele>
        <time>2014-03-30T09:12:51Z</time>
      </trkpt>
      <trkpt lat="50.12169" lon="4.15992">
        <ele>200.57</ele>
        <time>2014-03-30T09:13:04Z</time>
      </trkpt>
      <trkpt lat="50.12181" lon="4.16019">
        <ele>199.61</ele>
        <time>2014-03-30T09:13:17Z</time>
      </trkpt>
      <trkpt lat="50.12193" lon="4.16034">
        <ele>199.61</ele>
        <time>2014-03-30T09:13:30Z</time>
      </trkpt>
      <trkpt lat="50.1221" lon="4.16061">
        <ele>199.13</ele>
        <time>2014-03-30T09:13:44Z</time>
      </trkpt>
      <trkpt lat="50.12214" lon="4.16065">
        <ele>199.13</ele>
        <time>2014-03-30T09:13:50Z</time>
      </trkpt>
      <trkpt lat="50.12215" lon="4.16066">
        <ele>199.13</ele>
        <time>2014-03-30T09:13:51Z</time>
      </trkpt>
      <trkpt lat="50.12236" lon="4.16104">
        <ele>198.65</ele>
        <time>2014-03-30T09:14:10Z</time>
      </trkpt>
      <trkpt lat="50.12245" lon="4.16122">
        <ele>198.65</ele>
        <time>2014-03-30T09:14:21Z</time>
      </trkpt>
      <trkpt lat="50.1226" lon="4.16143">
        <ele>198.17</ele>
        <time>2014-03-30T09:14:33Z</time>
      </trkpt>
      <trkpt lat="50.12274" lon="4.16165">
        <ele>197.21</ele>
        <time>2014-03-30T09:14:47Z</time>
      </trkpt>
      <trkpt lat="50.12287" lon="4.16185">
        <ele>196.73</ele>
        <time>2014-03-30T09:14:58Z</time>
      </trkpt>
      <trkpt lat="50.12299" lon="4.16205">
        <ele>195.77</ele>
        <time>2014-03-30T09:15:08Z</time>
      </trkpt>
      <trkpt lat="50.1231" lon="4.1623">
        <ele>194.8</ele>
        <time>2014-03-30T09:15:18Z</time>
      </trkpt>
      <trkpt lat="50.1231" lon="4.16233">
        <ele>194.32</ele>
        <time>2014-03-30T09:15:19Z</time>
      </trkpt>
      <trkpt lat="50.12316" lon="4.16256">
        <ele>193.84</ele>
        <time>2014-03-30T09:15:28Z</time>
      </trkpt>
      <trkpt lat="50.12318" lon="4.16281">
        <ele>193.36</ele>
        <time>2014-03-30T09:15:38Z</time>
      </trkpt>
      <trkpt lat="50.12318" lon="4.16283">
        <ele>193.36</ele>
        <time>2014-03-30T09:15:40Z</time>
      </trkpt>
      <trkpt lat="50.12317" lon="4.16286">
        <ele>193.36</ele>
        <time>2014-03-30T09:15:41Z</time>
      </trkpt>
      <trkpt lat="50.12317" lon="4.16289">
        <ele>193.36</ele>
        <time>2014-03-30T09:15:42Z</time>
      </trkpt>
      <trkpt lat="50.12317" lon="4.16294">
        <ele>193.36</ele>
        <time>2014-03-30T09:15:43Z</time>
      </trkpt>
      <trkpt lat="50.12318" lon="4.16298">
        <ele>192.88</ele>
        <time>2014-03-30T09:15:44Z</time>
      </trkpt>
      <trkpt lat="50.12314" lon="4.16321">
        <ele>192.4</ele>
        <time>2014-03-30T09:15:53Z</time>
      </trkpt>
      <trkpt lat="50.12313" lon="4.16334">
        <ele>191.44</ele>
        <time>2014-03-30T09:15:58Z</time>
      </trkpt>
      <trkpt lat="50.12312" lon="4.16338">
        <ele>191.44</ele>
        <time>2014-03-30T09:15:59Z</time>
      </trkpt>
      <trkpt lat="50.12311" lon="4.16341">
        <ele>191.44</ele>
        <time>2014-03-30T09:16:00Z</time>
      </trkpt>
      <trkpt lat="50.1231" lon="4.16345">
        <ele>191.44</ele>
        <time>2014-03-30T09:16:01Z</time>
      </trkpt>
      <trkpt lat="50.12309" lon="4.16349">
        <ele>191.44</ele>
        <time>2014-03-30T09:16:02Z</time>
      </trkpt>
      <trkpt lat="50.12301" lon="4.16372">
        <ele>190.48</ele>
        <time>2014-03-30T09:16:11Z</time>
      </trkpt>
      <trkpt lat="50.12294" lon="4.1639">
        <ele>190.48</ele>
        <time>2014-03-30T09:16:20Z</time>
      </trkpt>
      <trkpt lat="50.1228" lon="4.16422">
        <ele>189.04</ele>
        <time>2014-03-30T09:16:35Z</time>
      </trkpt>
      <trkpt lat="50.12269" lon="4.16449">
        <ele>189.04</ele>
        <time>2014-03-30T09:16:47Z</time>
      </trkpt>
      <trkpt lat="50.1226" lon="4.16476">
        <ele>188.08</ele>
        <time>2014-03-30T09:16:57Z</time>
      </trkpt>
      <trkpt lat="50.12253" lon="4.16516">
        <ele>188.08</ele>
        <time>2014-03-30T09:17:12Z</time>
      </trkpt>
      <trkpt lat="50.12247" lon="4.16553">
        <ele>187.59</ele>
        <time>2014-03-30T09:17:26Z</time>
      </trkpt>
      <trkpt lat="50.12238" lon="4.16592">
        <ele>186.15</ele>
        <time>2014-03-30T09:17:42Z</time>
      </trkpt>
      <trkpt lat="50.12224" lon="4.16619">
        <ele>184.71</ele>
        <time>2014-03-30T09:17:54Z</time>
      </trkpt>
      <trkpt lat="50.12205" lon="4.16654">
        <ele>183.75</ele>
        <time>2014-03-30T09:18:09Z</time>
      </trkpt>
      <trkpt lat="50.12189" lon="4.16684">
        <ele>182.31</ele>
        <time>2014-03-30T09:18:23Z</time>
      </trkpt>
      <trkpt lat="50.12177" lon="4.16716">
        <ele>181.83</ele>
        <time>2014-03-30T09:18:36Z</time>
      </trkpt>
      <trkpt lat="50.12166" lon="4.1674">
        <ele>181.35</ele>
        <time>2014-03-30T09:18:47Z</time>
      </trkpt>
      <trkpt lat="50.12155" lon="4.16763">
        <ele>180.87</ele>
        <time>2014-03-30T09:19:00Z</time>
      </trkpt>
      <trkpt lat="50.12144" lon="4.16792">
        <ele>180.87</ele>
        <time>2014-03-30T09:19:17Z</time>
      </trkpt>
      <trkpt lat="50.12133" lon="4.16832">
        <ele>182.79</ele>
        <time>2014-03-30T09:19:33Z</time>
      </trkpt>
      <trkpt lat="50.12127" lon="4.16873">
        <ele>184.23</ele>
        <time>2014-03-30T09:19:49Z</time>
      </trkpt>
      <trkpt lat="50.12121" lon="4.16917">
        <ele>184.71</ele>
        <time>2014-03-30T09:20:06Z</time>
      </trkpt>
      <trkpt lat="50.12116" lon="4.16952">
        <ele>185.19</ele>
        <time>2014-03-30T09:20:21Z</time>
      </trkpt>
      <trkpt lat="50.1211" lon="4.16998">
        <ele>185.67</ele>
        <time>2014-03-30T09:20:39Z</time>
      </trkpt>
      <trkpt lat="50.12102" lon="4.17039">
        <ele>185.67</ele>
        <time>2014-03-30T09:20:55Z</time>
      </trkpt>
      <trkpt lat="50.12094" lon="4.17077">
        <ele>185.67</ele>
        <time>2014-03-30T09:21:11Z</time>
      </trkpt>
      <trkpt lat="50.12083" lon="4.17093">
        <ele>184.23</ele>
        <time>2014-03-30T09:21:22Z</time>
      </trkpt>
      <trkpt lat="50.12082" lon="4.17092">
        <ele>184.23</ele>
        <time>2014-03-30T09:21:23Z</time>
      </trkpt>
      <trkpt lat="50.12082" lon="4.17091">
        <ele>183.75</ele>
        <time>2014-03-30T09:21:24Z</time>
      </trkpt>
      <trkpt lat="50.12077" lon="4.17065">
        <ele>180.87</ele>
        <time>2014-03-30T09:21:37Z</time>
      </trkpt>
      <trkpt lat="50.1206" lon="4.17044">
        <ele>178.94</ele>
        <time>2014-03-30T09:21:51Z</time>
      </trkpt>
      <trkpt lat="50.12055" lon="4.17042">
        <ele>178.46</ele>
        <time>2014-03-30T09:21:54Z</time>
      </trkpt>
      <trkpt lat="50.12053" lon="4.17042">
        <ele>178.46</ele>
        <time>2014-03-30T09:21:55Z</time>
      </trkpt>
      <trkpt lat="50.12051" lon="4.17042">
        <ele>178.46</ele>
        <time>2014-03-30T09:21:56Z</time>
      </trkpt>
      <trkpt lat="50.12049" lon="4.17042">
        <ele>178.46</ele>
        <time>2014-03-30T09:21:57Z</time>
      </trkpt>
      <trkpt lat="50.12047" lon="4.17042">
        <ele>178.46</ele>
        <time>2014-03-30T09:21:58Z</time>
      </trkpt>
      <trkpt lat="50.12046" lon="4.17042">
        <ele>177.98</ele>
        <time>2014-03-30T09:21:59Z</time>
      </trkpt>
      <trkpt lat="50.12044" lon="4.17042">
        <ele>177.98</ele>
        <time>2014-03-30T09:22:00Z</time>
      </trkpt>
      <trkpt lat="50.12042" lon="4.17042">
        <ele>177.98</ele>
        <time>2014-03-30T09:22:01Z</time>
      </trkpt>
      <trkpt lat="50.1204" lon="4.17043">
        <ele>177.98</ele>
        <time>2014-03-30T09:22:02Z</time>
      </trkpt>
      <trkpt lat="50.12038" lon="4.17043">
        <ele>177.98</ele>
        <time>2014-03-30T09:22:03Z</time>
      </trkpt>
      <trkpt lat="50.12037" lon="4.17043">
        <ele>177.98</ele>
        <time>2014-03-30T09:22:04Z</time>
      </trkpt>
      <trkpt lat="50.12035" lon="4.17043">
        <ele>177.98</ele>
        <time>2014-03-30T09:22:05Z</time>
      </trkpt>
      <trkpt lat="50.12033" lon="4.17043">
        <ele>177.98</ele>
        <time>2014-03-30T09:22:06Z</time>
      </trkpt>
      <trkpt lat="50.12009" lon="4.17042">
        <ele>177.98</ele>
        <time>2014-03-30T09:22:22Z</time>
      </trkpt>
      <trkpt lat="50.12003" lon="4.1704">
        <ele>177.98</ele>
        <time>2014-03-30T09:22:26Z</time>
      </trkpt>
      <trkpt lat="50.12002" lon="4.17039">
        <ele>177.98</ele>
        <time>2014-03-30T09:22:27Z</time>
      </trkpt>
      <trkpt lat="50.11984" lon="4.17026">
        <ele>178.94</ele>
        <time>2014-03-30T09:22:38Z</time>
      </trkpt>
      <trkpt lat="50.1198" lon="4.17022">
        <ele>180.38</ele>
        <time>2014-03-30T09:22:41Z</time>
      </trkpt>
      <trkpt lat="50.11971" lon="4.17011">
        <ele>180.87</ele>
        <time>2014-03-30T09:22:50Z</time>
      </trkpt>
      <trkpt lat="50.11969" lon="4.17009">
        <ele>180.87</ele>
        <time>2014-03-30T09:22:51Z</time>
      </trkpt>
      <trkpt lat="50.11946" lon="4.16997">
        <ele>177.98</ele>
        <time>2014-03-30T09:23:06Z</time>
      </trkpt>
      <trkpt lat="50.11939" lon="4.1699">
        <ele>177.5</ele>
        <time>2014-03-30T09:23:11Z</time>
      </trkpt>
      <trkpt lat="50.11937" lon="4.16989">
        <ele>177.5</ele>
        <time>2014-03-30T09:23:12Z</time>
      </trkpt>
      <trkpt lat="50.11935" lon="4.16987">
        <ele>177.5</ele>
        <time>2014-03-30T09:23:13Z</time>
      </trkpt>
      <trkpt lat="50.11912" lon="4.16967">
        <ele>178.46</ele>
        <time>2014-03-30T09:23:26Z</time>
      </trkpt>
      <trkpt lat="50.11895" lon="4.16946">
        <ele>180.38</ele>
        <time>2014-03-30T09:23:40Z</time>
      </trkpt>
      <trkpt lat="50.1188" lon="4.1692">
        <ele>181.35</ele>
        <time>2014-03-30T09:23:53Z</time>
      </trkpt>
      <trkpt lat="50.11874" lon="4.16886">
        <ele>182.79</ele>
        <time>2014-03-30T09:24:08Z</time>
      </trkpt>
      <trkpt lat="50.11873" lon="4.16879">
        <ele>182.79</ele>
        <time>2014-03-30T09:24:11Z</time>
      </trkpt>
      <trkpt lat="50.11873" lon="4.16877">
        <ele>182.79</ele>
        <time>2014-03-30T09:24:12Z</time>
      </trkpt>
      <trkpt lat="50.11867" lon="4.16839">
        <ele>183.27</ele>
        <time>2014-03-30T09:24:28Z</time>
      </trkpt>
      <trkpt lat="50.11858" lon="4.16805">
        <ele>184.71</ele>
        <time>2014-03-30T09:24:44Z</time>
      </trkpt>
      <trkpt lat="50.1185" lon="4.16779">
        <ele>186.15</ele>
        <time>2014-03-30T09:24:58Z</time>
      </trkpt>
      <trkpt lat="50.11842" lon="4.16762">
        <ele>187.11</ele>
        <time>2014-03-30T09:25:07Z</time>
      </trkpt>
      <trkpt lat="50.11841" lon="4.1676">
        <ele>187.11</ele>
        <time>2014-03-30T09:25:08Z</time>
      </trkpt>
      <trkpt lat="50.11839" lon="4.16759">
        <ele>188.08</ele>
        <time>2014-03-30T09:25:09Z</time>
      </trkpt>
      <trkpt lat="50.11824" lon="4.16749">
        <ele>190</ele>
        <time>2014-03-30T09:25:22Z</time>
      </trkpt>
      <trkpt lat="50.11819" lon="4.16749">
        <ele>190.96</ele>
        <time>2014-03-30T09:25:27Z</time>
      </trkpt>
      <trkpt lat="50.11804" lon="4.16753">
        <ele>192.88</ele>
        <time>2014-03-30T09:25:41Z</time>
      </trkpt>
      <trkpt lat="50.11788" lon="4.16761">
        <ele>195.28</ele>
        <time>2014-03-30T09:25:55Z</time>
      </trkpt>
      <trkpt lat="50.11771" lon="4.16768">
        <ele>198.65</ele>
        <time>2014-03-30T09:26:08Z</time>
      </trkpt>
      <trkpt lat="50.11754" lon="4.16775">
        <ele>202.01</ele>
        <time>2014-03-30T09:26:23Z</time>
      </trkpt>
      <trkpt lat="50.11748" lon="4.16777">
        <ele>202.98</ele>
        <time>2014-03-30T09:26:28Z</time>
      </trkpt>
      <trkpt lat="50.11732" lon="4.16781">
        <ele>205.86</ele>
        <time>2014-03-30T09:26:41Z</time>
      </trkpt>
      <trkpt lat="50.11715" lon="4.16781">
        <ele>209.22</ele>
        <time>2014-03-30T09:26:55Z</time>
      </trkpt>
      <trkpt lat="50.11695" lon="4.1679">
        <ele>211.15</ele>
        <time>2014-03-30T09:27:12Z</time>
      </trkpt>
      <trkpt lat="50.11677" lon="4.16788">
        <ele>213.55</ele>
        <time>2014-03-30T09:27:28Z</time>
      </trkpt>
      <trkpt lat="50.11659" lon="4.16786">
        <ele>214.99</ele>
        <time>2014-03-30T09:27:44Z</time>
      </trkpt>
      <trkpt lat="50.11638" lon="4.16785">
        <ele>216.43</ele>
        <time>2014-03-30T09:28:00Z</time>
      </trkpt>
      <trkpt lat="50.11619" lon="4.16785">
        <ele>217.88</ele>
        <time>2014-03-30T09:28:16Z</time>
      </trkpt>
      <trkpt lat="50.11603" lon="4.16787">
        <ele>219.8</ele>
        <time>2014-03-30T09:28:29Z</time>
      </trkpt>
      <trkpt lat="50.11582" lon="4.1679">
        <ele>221.72</ele>
        <time>2014-03-30T09:28:43Z</time>
      </trkpt>
      <trkpt lat="50.11562" lon="4.16792">
        <ele>223.16</ele>
        <time>2014-03-30T09:28:57Z</time>
      </trkpt>
      <trkpt lat="50.11543" lon="4.16791">
        <ele>225.09</ele>
        <time>2014-03-30T09:29:11Z</time>
      </trkpt>
      <trkpt lat="50.11524" lon="4.16792">
        <ele>226.05</ele>
        <time>2014-03-30T09:29:24Z</time>
      </trkpt>
      <trkpt lat="50.11521" lon="4.16793">
        <ele>226.05</ele>
        <time>2014-03-30T09:29:26Z</time>
      </trkpt>
      <trkpt lat="50.1152" lon="4.16792">
        <ele>226.53</ele>
        <time>2014-03-30T09:29:27Z</time>
      </trkpt>
      <trkpt lat="50.11518" lon="4.16792">
        <ele>226.53</ele>
        <time>2014-03-30T09:29:28Z</time>
      </trkpt>
      <trkpt lat="50.11517" lon="4.16792">
        <ele>226.53</ele>
        <time>2014-03-30T09:29:29Z</time>
      </trkpt>
      <trkpt lat="50.11515" lon="4.16792">
        <ele>226.53</ele>
        <time>2014-03-30T09:29:30Z</time>
      </trkpt>
      <trkpt lat="50.11488" lon="4.16783">
        <ele>227.01</ele>
        <time>2014-03-30T09:29:49Z</time>
      </trkpt>
      <trkpt lat="50.11466" lon="4.16771">
        <ele>227.49</ele>
        <time>2014-03-30T09:30:03Z</time>
      </trkpt>
      <trkpt lat="50.11438" lon="4.16744">
        <ele>228.45</ele>
        <time>2014-03-30T09:30:23Z</time>
      </trkpt>
      <trkpt lat="50.11422" lon="4.16729">
        <ele>228.45</ele>
        <time>2014-03-30T09:30:34Z</time>
      </trkpt>
      <trkpt lat="50.11421" lon="4.16727">
        <ele>228.45</ele>
        <time>2014-03-30T09:30:35Z</time>
      </trkpt>
      <trkpt lat="50.1142" lon="4.16725">
        <ele>228.45</ele>
        <time>2014-03-30T09:30:36Z</time>
      </trkpt>
      <trkpt lat="50.11394" lon="4.16702">
        <ele>229.41</ele>
        <time>2014-03-30T09:30:54Z</time>
      </trkpt>
      <trkpt lat="50.11371" lon="4.16688">
        <ele>229.41</ele>
        <time>2014-03-30T09:31:09Z</time>
      </trkpt>
      <trkpt lat="50.11368" lon="4.16686">
        <ele>229.89</ele>
        <time>2014-03-30T09:31:11Z</time>
      </trkpt>
      <trkpt lat="50.11366" lon="4.16684">
        <ele>229.89</ele>
        <time>2014-03-30T09:31:12Z</time>
      </trkpt>
      <trkpt lat="50.11365" lon="4.16683">
        <ele>229.89</ele>
        <time>2014-03-30T09:31:13Z</time>
      </trkpt>
      <trkpt lat="50.11364" lon="4.16683">
        <ele>229.89</ele>
        <time>2014-03-30T09:31:14Z</time>
      </trkpt>
      <trkpt lat="50.11362" lon="4.16682">
        <ele>229.89</ele>
        <time>2014-03-30T09:31:15Z</time>
      </trkpt>
      <trkpt lat="50.11361" lon="4.16682">
        <ele>229.89</ele>
        <time>2014-03-30T09:31:16Z</time>
      </trkpt>
      <trkpt lat="50.11352" lon="4.16677">
        <ele>230.85</ele>
        <time>2014-03-30T09:31:31Z</time>
      </trkpt>
      <trkpt lat="50.11319" lon="4.16668">
        <ele>231.33</ele>
        <time>2014-03-30T09:31:45Z</time>
      </trkpt>
      <trkpt lat="50.11298" lon="4.16659">
        <ele>231.33</ele>
        <time>2014-03-30T09:31:59Z</time>
      </trkpt>
      <trkpt lat="50.11296" lon="4.16659">
        <ele>231.81</ele>
        <time>2014-03-30T09:32:00Z</time>
      </trkpt>
      <trkpt lat="50.11295" lon="4.16659">
        <ele>231.81</ele>
        <time>2014-03-30T09:32:01Z</time>
      </trkpt>
      <trkpt lat="50.11294" lon="4.16659">
        <ele>231.81</ele>
        <time>2014-03-30T09:32:02Z</time>
      </trkpt>
      <trkpt lat="50.11292" lon="4.16658">
        <ele>231.81</ele>
        <time>2014-03-30T09:32:03Z</time>
      </trkpt>
      <trkpt lat="50.11291" lon="4.16657">
        <ele>231.81</ele>
        <time>2014-03-30T09:32:04Z</time>
      </trkpt>
      <trkpt lat="50.11289" lon="4.16656">
        <ele>231.81</ele>
        <time>2014-03-30T09:32:05Z</time>
      </trkpt>
      <trkpt lat="50.11271" lon="4.1665">
        <ele>231.81</ele>
        <time>2014-03-30T09:32:19Z</time>
      </trkpt>
      <trkpt lat="50.11267" lon="4.16647">
        <ele>231.81</ele>
        <time>2014-03-30T09:32:22Z</time>
      </trkpt>
      <trkpt lat="50.11266" lon="4.16646">
        <ele>231.81</ele>
        <time>2014-03-30T09:32:23Z</time>
      </trkpt>
      <trkpt lat="50.11264" lon="4.16645">
        <ele>231.81</ele>
        <time>2014-03-30T09:32:24Z</time>
      </trkpt>
      <trkpt lat="50.11263" lon="4.16645">
        <ele>231.81</ele>
        <time>2014-03-30T09:32:25Z</time>
      </trkpt>
      <trkpt lat="50.11261" lon="4.16644">
        <ele>231.81</ele>
        <time>2014-03-30T09:32:26Z</time>
      </trkpt>
      <trkpt lat="50.11254" lon="4.1664">
        <ele>232.3</ele>
        <time>2014-03-30T09:32:31Z</time>
      </trkpt>
      <trkpt lat="50.11253" lon="4.16639">
        <ele>232.3</ele>
        <time>2014-03-30T09:32:32Z</time>
      </trkpt>
      <trkpt lat="50.11252" lon="4.16638">
        <ele>232.3</ele>
        <time>2014-03-30T09:32:33Z</time>
      </trkpt>
      <trkpt lat="50.11231" lon="4.16622">
        <ele>232.78</ele>
        <time>2014-03-30T09:32:48Z</time>
      </trkpt>
      <trkpt lat="50.11204" lon="4.16607">
        <ele>232.3</ele>
        <time>2014-03-30T09:33:05Z</time>
      </trkpt>
      <trkpt lat="50.11195" lon="4.166">
        <ele>232.78</ele>
        <time>2014-03-30T09:33:11Z</time>
      </trkpt>
      <trkpt lat="50.11194" lon="4.16599">
        <ele>232.78</ele>
        <time>2014-03-30T09:33:12Z</time>
      </trkpt>
      <trkpt lat="50.11192" lon="4.16598">
        <ele>232.78</ele>
        <time>2014-03-30T09:33:13Z</time>
      </trkpt>
      <trkpt lat="50.11191" lon="4.16598">
        <ele>232.78</ele>
        <time>2014-03-30T09:33:14Z</time>
      </trkpt>
      <trkpt lat="50.11189" lon="4.16597">
        <ele>232.78</ele>
        <time>2014-03-30T09:33:15Z</time>
      </trkpt>
      <trkpt lat="50.11188" lon="4.16596">
        <ele>232.78</ele>
        <time>2014-03-30T09:33:16Z</time>
      </trkpt>
      <trkpt lat="50.11186" lon="4.16595">
        <ele>232.78</ele>
        <time>2014-03-30T09:33:17Z</time>
      </trkpt>
      <trkpt lat="50.11183" lon="4.16591">
        <ele>232.78</ele>
        <time>2014-03-30T09:33:20Z</time>
      </trkpt>
      <trkpt lat="50.1116" lon="4.16577">
        <ele>232.78</ele>
        <time>2014-03-30T09:33:35Z</time>
      </trkpt>
      <trkpt lat="50.11158" lon="4.16574">
        <ele>232.78</ele>
        <time>2014-03-30T09:33:37Z</time>
      </trkpt>
      <trkpt lat="50.11156" lon="4.16573">
        <ele>232.78</ele>
        <time>2014-03-30T09:33:38Z</time>
      </trkpt>
      <trkpt lat="50.11155" lon="4.16573">
        <ele>232.78</ele>
        <time>2014-03-30T09:33:39Z</time>
      </trkpt>
      <trkpt lat="50.11154" lon="4.16572">
        <ele>232.78</ele>
        <time>2014-03-30T09:33:40Z</time>
      </trkpt>
      <trkpt lat="50.11149" lon="4.16569">
        <ele>232.78</ele>
        <time>2014-03-30T09:33:43Z</time>
      </trkpt>
      <trkpt lat="50.11148" lon="4.16568">
        <ele>232.78</ele>
        <time>2014-03-30T09:33:44Z</time>
      </trkpt>
      <trkpt lat="50.11147" lon="4.16567">
        <ele>232.78</ele>
        <time>2014-03-30T09:33:45Z</time>
      </trkpt>
      <trkpt lat="50.11145" lon="4.16567">
        <ele>232.78</ele>
        <time>2014-03-30T09:33:46Z</time>
      </trkpt>
      <trkpt lat="50.11143" lon="4.16566">
        <ele>232.78</ele>
        <time>2014-03-30T09:33:47Z</time>
      </trkpt>
      <trkpt lat="50.11142" lon="4.16565">
        <ele>232.78</ele>
        <time>2014-03-30T09:33:48Z</time>
      </trkpt>
      <trkpt lat="50.1114" lon="4.16564">
        <ele>232.78</ele>
        <time>2014-03-30T09:33:49Z</time>
      </trkpt>
      <trkpt lat="50.11125" lon="4.16553">
        <ele>232.78</ele>
        <time>2014-03-30T09:33:59Z</time>
      </trkpt>
      <trkpt lat="50.111" lon="4.16534">
        <ele>232.3</ele>
        <time>2014-03-30T09:34:15Z</time>
      </trkpt>
      <trkpt lat="50.11099" lon="4.1653">
        <ele>232.3</ele>
        <time>2014-03-30T09:34:17Z</time>
      </trkpt>
      <trkpt lat="50.11094" lon="4.16517">
        <ele>232.3</ele>
        <time>2014-03-30T09:34:27Z</time>
      </trkpt>
      <trkpt lat="50.11092" lon="4.16511">
        <ele>232.3</ele>
        <time>2014-03-30T09:34:30Z</time>
      </trkpt>
      <trkpt lat="50.11091" lon="4.16508">
        <ele>232.3</ele>
        <time>2014-03-30T09:34:31Z</time>
      </trkpt>
      <trkpt lat="50.11089" lon="4.16504">
        <ele>232.3</ele>
        <time>2014-03-30T09:34:32Z</time>
      </trkpt>
      <trkpt lat="50.11088" lon="4.16501">
        <ele>232.3</ele>
        <time>2014-03-30T09:34:33Z</time>
      </trkpt>
      <trkpt lat="50.11087" lon="4.16498">
        <ele>232.3</ele>
        <time>2014-03-30T09:34:34Z</time>
      </trkpt>
      <trkpt lat="50.11086" lon="4.16495">
        <ele>232.3</ele>
        <time>2014-03-30T09:34:35Z</time>
      </trkpt>
      <trkpt lat="50.11086" lon="4.16492">
        <ele>232.3</ele>
        <time>2014-03-30T09:34:36Z</time>
      </trkpt>
      <trkpt lat="50.11085" lon="4.16489">
        <ele>232.3</ele>
        <time>2014-03-30T09:34:37Z</time>
      </trkpt>
      <trkpt lat="50.11082" lon="4.16481">
        <ele>232.3</ele>
        <time>2014-03-30T09:34:40Z</time>
      </trkpt>
      <trkpt lat="50.11077" lon="4.16459">
        <ele>232.78</ele>
        <time>2014-03-30T09:34:49Z</time>
      </trkpt>
      <trkpt lat="50.11076" lon="4.16456">
        <ele>232.78</ele>
        <time>2014-03-30T09:34:50Z</time>
      </trkpt>
      <trkpt lat="50.11074" lon="4.16454">
        <ele>232.78</ele>
        <time>2014-03-30T09:34:51Z</time>
      </trkpt>
      <trkpt lat="50.11071" lon="4.16445">
        <ele>232.78</ele>
        <time>2014-03-30T09:34:54Z</time>
      </trkpt>
      <trkpt lat="50.11062" lon="4.16417">
        <ele>232.78</ele>
        <time>2014-03-30T09:35:06Z</time>
      </trkpt>
      <trkpt lat="50.1106" lon="4.1638">
        <ele>232.78</ele>
        <time>2014-03-30T09:35:17Z</time>
      </trkpt>
      <trkpt lat="50.1106" lon="4.16375">
        <ele>232.78</ele>
        <time>2014-03-30T09:35:19Z</time>
      </trkpt>
      <trkpt lat="50.11055" lon="4.16355">
        <ele>232.78</ele>
        <time>2014-03-30T09:35:28Z</time>
      </trkpt>
      <trkpt lat="50.11048" lon="4.16325">
        <ele>232.78</ele>
        <time>2014-03-30T09:35:42Z</time>
      </trkpt>
      <trkpt lat="50.11041" lon="4.16287">
        <ele>232.78</ele>
        <time>2014-03-30T09:35:57Z</time>
      </trkpt>
      <trkpt lat="50.11039" lon="4.16253">
        <ele>232.78</ele>
        <time>2014-03-30T09:36:09Z</time>
      </trkpt>
      <trkpt lat="50.1103" lon="4.16222">
        <ele>232.78</ele>
        <time>2014-03-30T09:36:21Z</time>
      </trkpt>
      <trkpt lat="50.11027" lon="4.16212">
        <ele>232.78</ele>
        <time>2014-03-30T09:36:25Z</time>
      </trkpt>
      <trkpt lat="50.11024" lon="4.16204">
        <ele>232.78</ele>
        <time>2014-03-30T09:36:28Z</time>
      </trkpt>
      <trkpt lat="50.11023" lon="4.16194">
        <ele>232.78</ele>
        <time>2014-03-30T09:36:32Z</time>
      </trkpt>
      <trkpt lat="50.11012" lon="4.16154">
        <ele>231.33</ele>
        <time>2014-03-30T09:36:48Z</time>
      </trkpt>
      <trkpt lat="50.11012" lon="4.16149">
        <ele>231.33</ele>
        <time>2014-03-30T09:36:50Z</time>
      </trkpt>
      <trkpt lat="50.11012" lon="4.1613">
        <ele>230.85</ele>
        <time>2014-03-30T09:36:57Z</time>
      </trkpt>
      <trkpt lat="50.11012" lon="4.16125">
        <ele>230.85</ele>
        <time>2014-03-30T09:36:59Z</time>
      </trkpt>
      <trkpt lat="50.11016" lon="4.16094">
        <ele>229.89</ele>
        <time>2014-03-30T09:37:12Z</time>
      </trkpt>
      <trkpt lat="50.11019" lon="4.16067">
        <ele>229.41</ele>
        <time>2014-03-30T09:37:22Z</time>
      </trkpt>
      <trkpt lat="50.11019" lon="4.16061">
        <ele>229.41</ele>
        <time>2014-03-30T09:37:24Z</time>
      </trkpt>
      <trkpt lat="50.11022" lon="4.16029">
        <ele>228.45</ele>
        <time>2014-03-30T09:37:38Z</time>
      </trkpt>
      <trkpt lat="50.11018" lon="4.16022">
        <ele>228.45</ele>
        <time>2014-03-30T09:37:42Z</time>
      </trkpt>
      <trkpt lat="50.11007" lon="4.16011">
        <ele>227.97</ele>
        <time>2014-03-30T09:37:51Z</time>
      </trkpt>
      <trkpt lat="50.11007" lon="4.16001">
        <ele>227.01</ele>
        <time>2014-03-30T09:37:56Z</time>
      </trkpt>
      <trkpt lat="50.11011" lon="4.15989">
        <ele>227.49</ele>
        <time>2014-03-30T09:38:02Z</time>
      </trkpt>
      <trkpt lat="50.1102" lon="4.1596">
        <ele>227.49</ele>
        <time>2014-03-30T09:38:15Z</time>
      </trkpt>
      <trkpt lat="50.11032" lon="4.15931">
        <ele>227.49</ele>
        <time>2014-03-30T09:38:32Z</time>
      </trkpt>
      <trkpt lat="50.11046" lon="4.15895">
        <ele>227.01</ele>
        <time>2014-03-30T09:38:50Z</time>
      </trkpt>
      <trkpt lat="50.11059" lon="4.15857">
        <ele>226.53</ele>
        <time>2014-03-30T09:39:07Z</time>
      </trkpt>
      <trkpt lat="50.1106" lon="4.15853">
        <ele>226.53</ele>
        <time>2014-03-30T09:39:08Z</time>
      </trkpt>
      <trkpt lat="50.11069" lon="4.15831">
        <ele>226.05</ele>
        <time>2014-03-30T09:39:15Z</time>
      </trkpt>
      <trkpt lat="50.11075" lon="4.15812">
        <ele>226.05</ele>
        <time>2014-03-30T09:39:23Z</time>
      </trkpt>
      <trkpt lat="50.11084" lon="4.1579">
        <ele>225.57</ele>
        <time>2014-03-30T09:39:32Z</time>
      </trkpt>
      <trkpt lat="50.11092" lon="4.15772">
        <ele>225.57</ele>
        <time>2014-03-30T09:39:40Z</time>
      </trkpt>
      <trkpt lat="50.11098" lon="4.15757">
        <ele>226.05</ele>
        <time>2014-03-30T09:39:47Z</time>
      </trkpt>
      <trkpt lat="50.11113" lon="4.15732">
        <ele>226.05</ele>
        <time>2014-03-30T09:40:01Z</time>
      </trkpt>
      <trkpt lat="50.11124" lon="4.15704">
        <ele>225.57</ele>
        <time>2014-03-30T09:40:13Z</time>
      </trkpt>
      <trkpt lat="50.11134" lon="4.1567">
        <ele>225.57</ele>
        <time>2014-03-30T09:40:26Z</time>
      </trkpt>
      <trkpt lat="50.1115" lon="4.15641">
        <ele>225.57</ele>
        <time>2014-03-30T09:40:42Z</time>
      </trkpt>
      <trkpt lat="50.11165" lon="4.15611">
        <ele>225.57</ele>
        <time>2014-03-30T09:40:57Z</time>
      </trkpt>
      <trkpt lat="50.11172" lon="4.15597">
        <ele>225.57</ele>
        <time>2014-03-30T09:41:06Z</time>
      </trkpt>
      <trkpt lat="50.11177" lon="4.15588">
        <ele>225.57</ele>
        <time>2014-03-30T09:41:11Z</time>
      </trkpt>
      <trkpt lat="50.11181" lon="4.15579">
        <ele>225.57</ele>
        <time>2014-03-30T09:41:16Z</time>
      </trkpt>
      <trkpt lat="50.11182" lon="4.15576">
        <ele>225.57</ele>
        <time>2014-03-30T09:41:17Z</time>
      </trkpt>
      <trkpt lat="50.11183" lon="4.15574">
        <ele>225.57</ele>
        <time>2014-03-30T09:41:18Z</time>
      </trkpt>
      <trkpt lat="50.11184" lon="4.15571">
        <ele>225.57</ele>
        <time>2014-03-30T09:41:19Z</time>
      </trkpt>
      <trkpt lat="50.11185" lon="4.15569">
        <ele>225.09</ele>
        <time>2014-03-30T09:41:20Z</time>
      </trkpt>
      <trkpt lat="50.11186" lon="4.15567">
        <ele>225.09</ele>
        <time>2014-03-30T09:41:21Z</time>
      </trkpt>
      <trkpt lat="50.11191" lon="4.15557">
        <ele>225.09</ele>
        <time>2014-03-30T09:41:26Z</time>
      </trkpt>
      <trkpt lat="50.11193" lon="4.15552">
        <ele>225.09</ele>
        <time>2014-03-30T09:41:28Z</time>
      </trkpt>
      <trkpt lat="50.11194" lon="4.15549">
        <ele>225.09</ele>
        <time>2014-03-30T09:41:29Z</time>
      </trkpt>
      <trkpt lat="50.11195" lon="4.15546">
        <ele>225.09</ele>
        <time>2014-03-30T09:41:30Z</time>
      </trkpt>
      <trkpt lat="50.11199" lon="4.15536">
        <ele>225.09</ele>
        <time>2014-03-30T09:41:34Z</time>
      </trkpt>
      <trkpt lat="50.112" lon="4.15534">
        <ele>225.09</ele>
        <time>2014-03-30T09:41:35Z</time>
      </trkpt>
      <trkpt lat="50.11209" lon="4.1551">
        <ele>225.09</ele>
        <time>2014-03-30T09:41:47Z</time>
      </trkpt>
      <trkpt lat="50.11216" lon="4.15497">
        <ele>224.61</ele>
        <time>2014-03-30T09:41:54Z</time>
      </trkpt>
      <trkpt lat="50.11218" lon="4.1549">
        <ele>224.12</ele>
        <time>2014-03-30T09:41:57Z</time>
      </trkpt>
      <trkpt lat="50.11228" lon="4.15464">
        <ele>224.12</ele>
        <time>2014-03-30T09:42:08Z</time>
      </trkpt>
      <trkpt lat="50.11244" lon="4.15435">
        <ele>222.68</ele>
        <time>2014-03-30T09:42:22Z</time>
      </trkpt>
      <trkpt lat="50.11247" lon="4.1543">
        <ele>222.68</ele>
        <time>2014-03-30T09:42:25Z</time>
      </trkpt>
      <trkpt lat="50.11252" lon="4.15424">
        <ele>222.68</ele>
        <time>2014-03-30T09:42:29Z</time>
      </trkpt>
      <trkpt lat="50.11272" lon="4.15399">
        <ele>220.76</ele>
        <time>2014-03-30T09:42:44Z</time>
      </trkpt>
      <trkpt lat="50.11291" lon="4.15377">
        <ele>219.32</ele>
        <time>2014-03-30T09:42:58Z</time>
      </trkpt>
      <trkpt lat="50.11303" lon="4.15366">
        <ele>218.36</ele>
        <time>2014-03-30T09:43:07Z</time>
      </trkpt>
      <trkpt lat="50.11303" lon="4.15364">
        <ele>218.36</ele>
        <time>2014-03-30T09:43:08Z</time>
      </trkpt>
      <trkpt lat="50.11304" lon="4.15362">
        <ele>218.36</ele>
        <time>2014-03-30T09:43:09Z</time>
      </trkpt>
      <trkpt lat="50.11306" lon="4.1536">
        <ele>218.36</ele>
        <time>2014-03-30T09:43:10Z</time>
      </trkpt>
      <trkpt lat="50.11307" lon="4.15359">
        <ele>218.36</ele>
        <time>2014-03-30T09:43:11Z</time>
      </trkpt>
      <trkpt lat="50.11312" lon="4.15352">
        <ele>218.36</ele>
        <time>2014-03-30T09:43:15Z</time>
      </trkpt>
      <trkpt lat="50.11314" lon="4.15346">
        <ele>217.88</ele>
        <time>2014-03-30T09:43:17Z</time>
      </trkpt>
      <trkpt lat="50.11315" lon="4.15342">
        <ele>217.88</ele>
        <time>2014-03-30T09:43:18Z</time>
      </trkpt>
      <trkpt lat="50.11315" lon="4.15339">
        <ele>217.88</ele>
        <time>2014-03-30T09:43:19Z</time>
      </trkpt>
      <trkpt lat="50.11315" lon="4.15336">
        <ele>217.88</ele>
        <time>2014-03-30T09:43:20Z</time>
      </trkpt>
      <trkpt lat="50.11315" lon="4.15333">
        <ele>217.88</ele>
        <time>2014-03-30T09:43:21Z</time>
      </trkpt>
      <trkpt lat="50.11315" lon="4.1533">
        <ele>217.88</ele>
        <time>2014-03-30T09:43:22Z</time>
      </trkpt>
      <trkpt lat="50.11315" lon="4.15319">
        <ele>217.88</ele>
        <time>2014-03-30T09:43:26Z</time>
      </trkpt>
      <trkpt lat="50.11314" lon="4.15316">
        <ele>217.88</ele>
        <time>2014-03-30T09:43:27Z</time>
      </trkpt>
      <trkpt lat="50.11315" lon="4.15313">
        <ele>217.4</ele>
        <time>2014-03-30T09:43:28Z</time>
      </trkpt>
      <trkpt lat="50.11315" lon="4.1531">
        <ele>217.4</ele>
        <time>2014-03-30T09:43:29Z</time>
      </trkpt>
      <trkpt lat="50.11315" lon="4.15307">
        <ele>217.4</ele>
        <time>2014-03-30T09:43:30Z</time>
      </trkpt>
      <trkpt lat="50.11316" lon="4.15304">
        <ele>217.4</ele>
        <time>2014-03-30T09:43:31Z</time>
      </trkpt>
      <trkpt lat="50.11316" lon="4.153">
        <ele>217.4</ele>
        <time>2014-03-30T09:43:32Z</time>
      </trkpt>
      <trkpt lat="50.11316" lon="4.15297">
        <ele>217.4</ele>
        <time>2014-03-30T09:43:33Z</time>
      </trkpt>
      <trkpt lat="50.11316" lon="4.15294">
        <ele>217.4</ele>
        <time>2014-03-30T09:43:34Z</time>
      </trkpt>
      <trkpt lat="50.11316" lon="4.1529">
        <ele>216.91</ele>
        <time>2014-03-30T09:43:35Z</time>
      </trkpt>
      <trkpt lat="50.11316" lon="4.15286">
        <ele>216.91</ele>
        <time>2014-03-30T09:43:36Z</time>
      </trkpt>
      <trkpt lat="50.11316" lon="4.15283">
        <ele>216.91</ele>
        <time>2014-03-30T09:43:37Z</time>
      </trkpt>
      <trkpt lat="50.11316" lon="4.15279">
        <ele>216.43</ele>
        <time>2014-03-30T09:43:38Z</time>
      </trkpt>
      <trkpt lat="50.11316" lon="4.15277">
        <ele>216.43</ele>
        <time>2014-03-30T09:43:39Z</time>
      </trkpt>
      <trkpt lat="50.11316" lon="4.15274">
        <ele>216.43</ele>
        <time>2014-03-30T09:43:40Z</time>
      </trkpt>
      <trkpt lat="50.11316" lon="4.15271">
        <ele>216.43</ele>
        <time>2014-03-30T09:43:41Z</time>
      </trkpt>
      <trkpt lat="50.11316" lon="4.15269">
        <ele>216.43</ele>
        <time>2014-03-30T09:43:42Z</time>
      </trkpt>
      <trkpt lat="50.11317" lon="4.15266">
        <ele>216.43</ele>
        <time>2014-03-30T09:43:43Z</time>
      </trkpt>
      <trkpt lat="50.11317" lon="4.15258">
        <ele>216.43</ele>
        <time>2014-03-30T09:43:47Z</time>
      </trkpt>
      <trkpt lat="50.11318" lon="4.15256">
        <ele>216.43</ele>
        <time>2014-03-30T09:43:48Z</time>
      </trkpt>
      <trkpt lat="50.11319" lon="4.15247">
        <ele>216.43</ele>
        <time>2014-03-30T09:43:52Z</time>
      </trkpt>
      <trkpt lat="50.11319" lon="4.15245">
        <ele>216.43</ele>
        <time>2014-03-30T09:43:53Z</time>
      </trkpt>
      <trkpt lat="50.11319" lon="4.15242">
        <ele>216.43</ele>
        <time>2014-03-30T09:43:54Z</time>
      </trkpt>
      <trkpt lat="50.1132" lon="4.1524">
        <ele>215.95</ele>
        <time>2014-03-30T09:43:55Z</time>
      </trkpt>
      <trkpt lat="50.1132" lon="4.15237">
        <ele>215.95</ele>
        <time>2014-03-30T09:43:56Z</time>
      </trkpt>
      <trkpt lat="50.1132" lon="4.15235">
        <ele>215.95</ele>
        <time>2014-03-30T09:43:57Z</time>
      </trkpt>
      <trkpt lat="50.11324" lon="4.152">
        <ele>214.51</ele>
        <time>2014-03-30T09:44:11Z</time>
      </trkpt>
      <trkpt lat="50.11327" lon="4.15176">
        <ele>214.03</ele>
        <time>2014-03-30T09:44:21Z</time>
      </trkpt>
      <trkpt lat="50.11327" lon="4.15174">
        <ele>213.55</ele>
        <time>2014-03-30T09:44:22Z</time>
      </trkpt>
      <trkpt lat="50.11327" lon="4.15171">
        <ele>213.55</ele>
        <time>2014-03-30T09:44:23Z</time>
      </trkpt>
      <trkpt lat="50.11331" lon="4.15136">
        <ele>212.11</ele>
        <time>2014-03-30T09:44:36Z</time>
      </trkpt>
      <trkpt lat="50.11333" lon="4.15118">
        <ele>211.63</ele>
        <time>2014-03-30T09:44:42Z</time>
      </trkpt>
      <trkpt lat="50.11333" lon="4.15115">
        <ele>211.63</ele>
        <time>2014-03-30T09:44:43Z</time>
      </trkpt>
      <trkpt lat="50.11333" lon="4.15112">
        <ele>211.63</ele>
        <time>2014-03-30T09:44:44Z</time>
      </trkpt>
      <trkpt lat="50.11333" lon="4.1511">
        <ele>211.63</ele>
        <time>2014-03-30T09:44:45Z</time>
      </trkpt>
      <trkpt lat="50.11333" lon="4.15107">
        <ele>211.63</ele>
        <time>2014-03-30T09:44:46Z</time>
      </trkpt>
      <trkpt lat="50.11333" lon="4.15103">
        <ele>211.63</ele>
        <time>2014-03-30T09:44:47Z</time>
      </trkpt>
      <trkpt lat="50.11333" lon="4.15101">
        <ele>211.15</ele>
        <time>2014-03-30T09:44:48Z</time>
      </trkpt>
      <trkpt lat="50.11334" lon="4.15098">
        <ele>211.15</ele>
        <time>2014-03-30T09:44:49Z</time>
      </trkpt>
      <trkpt lat="50.11334" lon="4.15095">
        <ele>211.15</ele>
        <time>2014-03-30T09:44:50Z</time>
      </trkpt>
      <trkpt lat="50.11334" lon="4.15092">
        <ele>211.15</ele>
        <time>2014-03-30T09:44:51Z</time>
      </trkpt>
      <trkpt lat="50.11334" lon="4.1509">
        <ele>211.15</ele>
        <time>2014-03-30T09:44:52Z</time>
      </trkpt>
      <trkpt lat="50.11337" lon="4.15043">
        <ele>210.19</ele>
        <time>2014-03-30T09:45:09Z</time>
      </trkpt>
      <trkpt lat="50.11337" lon="4.15009">
        <ele>208.26</ele>
        <time>2014-03-30T09:45:22Z</time>
      </trkpt>
      <trkpt lat="50.11337" lon="4.14999">
        <ele>206.82</ele>
        <time>2014-03-30T09:45:26Z</time>
      </trkpt>
      <trkpt lat="50.11337" lon="4.14996">
        <ele>206.82</ele>
        <time>2014-03-30T09:45:27Z</time>
      </trkpt>
      <trkpt lat="50.11337" lon="4.14994">
        <ele>206.34</ele>
        <time>2014-03-30T09:45:28Z</time>
      </trkpt>
      <trkpt lat="50.11337" lon="4.14991">
        <ele>206.34</ele>
        <time>2014-03-30T09:45:29Z</time>
      </trkpt>
      <trkpt lat="50.11337" lon="4.14988">
        <ele>206.34</ele>
        <time>2014-03-30T09:45:30Z</time>
      </trkpt>
      <trkpt lat="50.11337" lon="4.14985">
        <ele>206.34</ele>
        <time>2014-03-30T09:45:31Z</time>
      </trkpt>
      <trkpt lat="50.11336" lon="4.14964">
        <ele>205.38</ele>
        <time>2014-03-30T09:45:39Z</time>
      </trkpt>
      <trkpt lat="50.11336" lon="4.14962">
        <ele>204.9</ele>
        <time>2014-03-30T09:45:40Z</time>
      </trkpt>
      <trkpt lat="50.11337" lon="4.14959">
        <ele>204.9</ele>
        <time>2014-03-30T09:45:41Z</time>
      </trkpt>
      <trkpt lat="50.11336" lon="4.14944">
        <ele>203.46</ele>
        <time>2014-03-30T09:45:47Z</time>
      </trkpt>
      <trkpt lat="50.11336" lon="4.14942">
        <ele>202.98</ele>
        <time>2014-03-30T09:45:48Z</time>
      </trkpt>
      <trkpt lat="50.11336" lon="4.14939">
        <ele>202.98</ele>
        <time>2014-03-30T09:45:49Z</time>
      </trkpt>
      <trkpt lat="50.11336" lon="4.14936">
        <ele>202.49</ele>
        <time>2014-03-30T09:45:50Z</time>
      </trkpt>
      <trkpt lat="50.11336" lon="4.14933">
        <ele>202.49</ele>
        <time>2014-03-30T09:45:51Z</time>
      </trkpt>
      <trkpt lat="50.11336" lon="4.14899">
        <ele>199.61</ele>
        <time>2014-03-30T09:46:05Z</time>
      </trkpt>
      <trkpt lat="50.11336" lon="4.14866">
        <ele>198.17</ele>
        <time>2014-03-30T09:46:19Z</time>
      </trkpt>
      <trkpt lat="50.11331" lon="4.14828">
        <ele>195.77</ele>
        <time>2014-03-30T09:46:34Z</time>
      </trkpt>
      <trkpt lat="50.11322" lon="4.14804">
        <ele>193.36</ele>
        <time>2014-03-30T09:46:46Z</time>
      </trkpt>
      <trkpt lat="50.11319" lon="4.14796">
        <ele>191.44</ele>
        <time>2014-03-30T09:46:51Z</time>
      </trkpt>
      <trkpt lat="50.11318" lon="4.14794">
        <ele>190.48</ele>
        <time>2014-03-30T09:46:52Z</time>
      </trkpt>
      <trkpt lat="50.11318" lon="4.14791">
        <ele>190</ele>
        <time>2014-03-30T09:46:53Z</time>
      </trkpt>
      <trkpt lat="50.11317" lon="4.14787">
        <ele>189.04</ele>
        <time>2014-03-30T09:46:55Z</time>
      </trkpt>
      <trkpt lat="50.11319" lon="4.14773">
        <ele>185.67</ele>
        <time>2014-03-30T09:47:03Z</time>
      </trkpt>
      <trkpt lat="50.11324" lon="4.14762">
        <ele>182.79</ele>
        <time>2014-03-30T09:47:11Z</time>
      </trkpt>
      <trkpt lat="50.1133" lon="4.14752">
        <ele>179.9</ele>
        <time>2014-03-30T09:47:19Z</time>
      </trkpt>
      <trkpt lat="50.11334" lon="4.14745">
        <ele>178.46</ele>
        <time>2014-03-30T09:47:23Z</time>
      </trkpt>
      <trkpt lat="50.11335" lon="4.14743">
        <ele>177.98</ele>
        <time>2014-03-30T09:47:24Z</time>
      </trkpt>
      <trkpt lat="50.11346" lon="4.14729">
        <ele>174.62</ele>
        <time>2014-03-30T09:47:34Z</time>
      </trkpt>
      <trkpt lat="50.11349" lon="4.14723">
        <ele>173.66</ele>
        <time>2014-03-30T09:47:37Z</time>
      </trkpt>
      <trkpt lat="50.11351" lon="4.14721">
        <ele>173.66</ele>
        <time>2014-03-30T09:47:38Z</time>
      </trkpt>
      <trkpt lat="50.11352" lon="4.14718">
        <ele>173.17</ele>
        <time>2014-03-30T09:47:39Z</time>
      </trkpt>
      <trkpt lat="50.11354" lon="4.14716">
        <ele>173.17</ele>
        <time>2014-03-30T09:47:40Z</time>
      </trkpt>
      <trkpt lat="50.11358" lon="4.14706">
        <ele>172.21</ele>
        <time>2014-03-30T09:47:44Z</time>
      </trkpt>
      <trkpt lat="50.11358" lon="4.1468">
        <ele>171.25</ele>
        <time>2014-03-30T09:47:57Z</time>
      </trkpt>
      <trkpt lat="50.11358" lon="4.14655">
        <ele>172.21</ele>
        <time>2014-03-30T09:48:10Z</time>
      </trkpt>
      <trkpt lat="50.11354" lon="4.14618">
        <ele>173.66</ele>
        <time>2014-03-30T09:48:26Z</time>
      </trkpt>
      <trkpt lat="50.11351" lon="4.14605">
        <ele>173.66</ele>
        <time>2014-03-30T09:48:32Z</time>
      </trkpt>
      <trkpt lat="50.11345" lon="4.14587">
        <ele>174.14</ele>
        <time>2014-03-30T09:48:40Z</time>
      </trkpt>
      <trkpt lat="50.11341" lon="4.14561">
        <ele>174.62</ele>
        <time>2014-03-30T09:48:54Z</time>
      </trkpt>
      <trkpt lat="50.11336" lon="4.14537">
        <ele>175.58</ele>
        <time>2014-03-30T09:49:06Z</time>
      </trkpt>
      <trkpt lat="50.11327" lon="4.14506">
        <ele>177.02</ele>
        <time>2014-03-30T09:49:22Z</time>
      </trkpt>
      <trkpt lat="50.11323" lon="4.14493">
        <ele>178.46</ele>
        <time>2014-03-30T09:49:34Z</time>
      </trkpt>
      <trkpt lat="50.11323" lon="4.14476">
        <ele>178.46</ele>
        <time>2014-03-30T09:49:46Z</time>
      </trkpt>
      <trkpt lat="50.11319" lon="4.1445">
        <ele>178.46</ele>
        <time>2014-03-30T09:49:59Z</time>
      </trkpt>
      <trkpt lat="50.11313" lon="4.14424">
        <ele>178.94</ele>
        <time>2014-03-30T09:50:11Z</time>
      </trkpt>
      <trkpt lat="50.11312" lon="4.14413">
        <ele>179.42</ele>
        <time>2014-03-30T09:50:15Z</time>
      </trkpt>
      <trkpt lat="50.11311" lon="4.14402">
        <ele>177.98</ele>
        <time>2014-03-30T09:50:20Z</time>
      </trkpt>
      <trkpt lat="50.11306" lon="4.14383">
        <ele>177.98</ele>
        <time>2014-03-30T09:50:30Z</time>
      </trkpt>
      <trkpt lat="50.11303" lon="4.14377">
        <ele>179.42</ele>
        <time>2014-03-30T09:50:33Z</time>
      </trkpt>
      <trkpt lat="50.11297" lon="4.1434">
        <ele>180.38</ele>
        <time>2014-03-30T09:50:48Z</time>
      </trkpt>
      <trkpt lat="50.11296" lon="4.14302">
        <ele>180.38</ele>
        <time>2014-03-30T09:51:03Z</time>
      </trkpt>
      <trkpt lat="50.11296" lon="4.14281">
        <ele>180.38</ele>
        <time>2014-03-30T09:51:09Z</time>
      </trkpt>
      <trkpt lat="50.11296" lon="4.14268">
        <ele>180.38</ele>
        <time>2014-03-30T09:51:14Z</time>
      </trkpt>
      <trkpt lat="50.11295" lon="4.14222">
        <ele>180.87</ele>
        <time>2014-03-30T09:51:29Z</time>
      </trkpt>
      <trkpt lat="50.11295" lon="4.14192">
        <ele>180.87</ele>
        <time>2014-03-30T09:51:42Z</time>
      </trkpt>
      <trkpt lat="50.11295" lon="4.14158">
        <ele>182.31</ele>
        <time>2014-03-30T09:51:55Z</time>
      </trkpt>
      <trkpt lat="50.11295" lon="4.14125">
        <ele>182.79</ele>
        <time>2014-03-30T09:52:11Z</time>
      </trkpt>
      <trkpt lat="50.11295" lon="4.14102">
        <ele>183.75</ele>
        <time>2014-03-30T09:52:23Z</time>
      </trkpt>
      <trkpt lat="50.11291" lon="4.14089">
        <ele>187.11</ele>
        <time>2014-03-30T09:52:32Z</time>
      </trkpt>
      <trkpt lat="50.11275" lon="4.14069">
        <ele>190</ele>
        <time>2014-03-30T09:52:47Z</time>
      </trkpt>
      <trkpt lat="50.11268" lon="4.14062">
        <ele>191.92</ele>
        <time>2014-03-30T09:52:54Z</time>
      </trkpt>
      <trkpt lat="50.11261" lon="4.14051">
        <ele>191.92</ele>
        <time>2014-03-30T09:53:02Z</time>
      </trkpt>
      <trkpt lat="50.11249" lon="4.14026">
        <ele>192.4</ele>
        <time>2014-03-30T09:53:17Z</time>
      </trkpt>
      <trkpt lat="50.11246" lon="4.13998">
        <ele>193.84</ele>
        <time>2014-03-30T09:53:31Z</time>
      </trkpt>
      <trkpt lat="50.11247" lon="4.13971">
        <ele>194.32</ele>
        <time>2014-03-30T09:53:43Z</time>
      </trkpt>
      <trkpt lat="50.11247" lon="4.13969">
        <ele>194.32</ele>
        <time>2014-03-30T09:53:44Z</time>
      </trkpt>
      <trkpt lat="50.11248" lon="4.13929">
        <ele>192.4</ele>
        <time>2014-03-30T09:53:58Z</time>
      </trkpt>
      <trkpt lat="50.11248" lon="4.13924">
        <ele>191.92</ele>
        <time>2014-03-30T09:54:00Z</time>
      </trkpt>
      <trkpt lat="50.11246" lon="4.13903">
        <ele>191.92</ele>
        <time>2014-03-30T09:54:09Z</time>
      </trkpt>
      <trkpt lat="50.11246" lon="4.13901">
        <ele>191.92</ele>
        <time>2014-03-30T09:54:10Z</time>
      </trkpt>
      <trkpt lat="50.11246" lon="4.13899">
        <ele>191.92</ele>
        <time>2014-03-30T09:54:11Z</time>
      </trkpt>
      <trkpt lat="50.11246" lon="4.13896">
        <ele>191.92</ele>
        <time>2014-03-30T09:54:12Z</time>
      </trkpt>
      <trkpt lat="50.11247" lon="4.13889">
        <ele>191.92</ele>
        <time>2014-03-30T09:54:15Z</time>
      </trkpt>
      <trkpt lat="50.11247" lon="4.13886">
        <ele>191.44</ele>
        <time>2014-03-30T09:54:16Z</time>
      </trkpt>
      <trkpt lat="50.11247" lon="4.13882">
        <ele>191.44</ele>
        <time>2014-03-30T09:54:17Z</time>
      </trkpt>
      <trkpt lat="50.11247" lon="4.13879">
        <ele>191.44</ele>
        <time>2014-03-30T09:54:18Z</time>
      </trkpt>
      <trkpt lat="50.11247" lon="4.13876">
        <ele>191.44</ele>
        <time>2014-03-30T09:54:19Z</time>
      </trkpt>
      <trkpt lat="50.11248" lon="4.13873">
        <ele>191.44</ele>
        <time>2014-03-30T09:54:20Z</time>
      </trkpt>
      <trkpt lat="50.11248" lon="4.1387">
        <ele>190.96</ele>
        <time>2014-03-30T09:54:21Z</time>
      </trkpt>
      <trkpt lat="50.11251" lon="4.13849">
        <ele>188.08</ele>
        <time>2014-03-30T09:54:29Z</time>
      </trkpt>
      <trkpt lat="50.11257" lon="4.13825">
        <ele>184.71</ele>
        <time>2014-03-30T09:54:36Z</time>
      </trkpt>
      <trkpt lat="50.11258" lon="4.1382">
        <ele>184.71</ele>
        <time>2014-03-30T09:54:37Z</time>
      </trkpt>
      <trkpt lat="50.11259" lon="4.13817">
        <ele>183.75</ele>
        <time>2014-03-30T09:54:38Z</time>
      </trkpt>
      <trkpt lat="50.1126" lon="4.13813">
        <ele>183.75</ele>
        <time>2014-03-30T09:54:39Z</time>
      </trkpt>
      <trkpt lat="50.11261" lon="4.1381">
        <ele>183.75</ele>
        <time>2014-03-30T09:54:40Z</time>
      </trkpt>
      <trkpt lat="50.11262" lon="4.13809">
        <ele>183.75</ele>
        <time>2014-03-30T09:54:41Z</time>
      </trkpt>
      <trkpt lat="50.11265" lon="4.13799">
        <ele>182.79</ele>
        <time>2014-03-30T09:54:50Z</time>
      </trkpt>
      <trkpt lat="50.11273" lon="4.13832">
        <ele>179.9</ele>
        <time>2014-03-30T09:55:04Z</time>
      </trkpt>
      <trkpt lat="50.1128" lon="4.13866">
        <ele>178.46</ele>
        <time>2014-03-30T09:55:18Z</time>
      </trkpt>
      <trkpt lat="50.11282" lon="4.1387">
        <ele>178.46</ele>
        <time>2014-03-30T09:55:21Z</time>
      </trkpt>
      <trkpt lat="50.11285" lon="4.13869">
        <ele>177.02</ele>
        <time>2014-03-30T09:55:23Z</time>
      </trkpt>
      <trkpt lat="50.11287" lon="4.13867">
        <ele>177.02</ele>
        <time>2014-03-30T09:55:24Z</time>
      </trkpt>
      <trkpt lat="50.11291" lon="4.1386">
        <ele>177.02</ele>
        <time>2014-03-30T09:55:29Z</time>
      </trkpt>
      <trkpt lat="50.11291" lon="4.13858">
        <ele>177.02</ele>
        <time>2014-03-30T09:55:30Z</time>
      </trkpt>
      <trkpt lat="50.11293" lon="4.13821">
        <ele>177.02</ele>
        <time>2014-03-30T09:55:46Z</time>
      </trkpt>
      <trkpt lat="50.11293" lon="4.13808">
        <ele>176.54</ele>
        <time>2014-03-30T09:55:52Z</time>
      </trkpt>
      <trkpt lat="50.11293" lon="4.13805">
        <ele>176.54</ele>
        <time>2014-03-30T09:55:53Z</time>
      </trkpt>
      <trkpt lat="50.11295" lon="4.13787">
        <ele>176.06</ele>
        <time>2014-03-30T09:56:01Z</time>
      </trkpt>
      <trkpt lat="50.11295" lon="4.13784">
        <ele>175.58</ele>
        <time>2014-03-30T09:56:02Z</time>
      </trkpt>
      <trkpt lat="50.11296" lon="4.13782">
        <ele>176.06</ele>
        <time>2014-03-30T09:56:03Z</time>
      </trkpt>
      <trkpt lat="50.11305" lon="4.13756">
        <ele>174.62</ele>
        <time>2014-03-30T09:56:13Z</time>
      </trkpt>
      <trkpt lat="50.11306" lon="4.13724">
        <ele>174.14</ele>
        <time>2014-03-30T09:56:26Z</time>
      </trkpt>
      <trkpt lat="50.11306" lon="4.13718">
        <ele>174.14</ele>
        <time>2014-03-30T09:56:29Z</time>
      </trkpt>
      <trkpt lat="50.11306" lon="4.13714">
        <ele>174.14</ele>
        <time>2014-03-30T09:56:30Z</time>
      </trkpt>
      <trkpt lat="50.11307" lon="4.1371">
        <ele>174.14</ele>
        <time>2014-03-30T09:56:31Z</time>
      </trkpt>
      <trkpt lat="50.11308" lon="4.13706">
        <ele>174.14</ele>
        <time>2014-03-30T09:56:32Z</time>
      </trkpt>
      <trkpt lat="50.11308" lon="4.13702">
        <ele>173.66</ele>
        <time>2014-03-30T09:56:33Z</time>
      </trkpt>
      <trkpt lat="50.11308" lon="4.13698">
        <ele>173.66</ele>
        <time>2014-03-30T09:56:34Z</time>
      </trkpt>
      <trkpt lat="50.11308" lon="4.13694">
        <ele>173.66</ele>
        <time>2014-03-30T09:56:35Z</time>
      </trkpt>
      <trkpt lat="50.11308" lon="4.13691">
        <ele>173.66</ele>
        <time>2014-03-30T09:56:36Z</time>
      </trkpt>
      <trkpt lat="50.11308" lon="4.13688">
        <ele>173.66</ele>
        <time>2014-03-30T09:56:37Z</time>
      </trkpt>
      <trkpt lat="50.11308" lon="4.13647">
        <ele>172.69</ele>
        <time>2014-03-30T09:56:51Z</time>
      </trkpt>
      <trkpt lat="50.11311" lon="4.13607">
        <ele>171.25</ele>
        <time>2014-03-30T09:57:07Z</time>
      </trkpt>
      <trkpt lat="50.11312" lon="4.13571">
        <ele>170.77</ele>
        <time>2014-03-30T09:57:18Z</time>
      </trkpt>
      <trkpt lat="50.11308" lon="4.13528">
        <ele>170.77</ele>
        <time>2014-03-30T09:57:34Z</time>
      </trkpt>
      <trkpt lat="50.11299" lon="4.13501">
        <ele>170.77</ele>
        <time>2014-03-30T09:57:46Z</time>
      </trkpt>
      <trkpt lat="50.11298" lon="4.13498">
        <ele>170.77</ele>
        <time>2014-03-30T09:57:47Z</time>
      </trkpt>
      <trkpt lat="50.11296" lon="4.13495">
        <ele>170.77</ele>
        <time>2014-03-30T09:57:48Z</time>
      </trkpt>
      <trkpt lat="50.11283" lon="4.13466">
        <ele>170.29</ele>
        <time>2014-03-30T09:58:02Z</time>
      </trkpt>
      <trkpt lat="50.11272" lon="4.13431">
        <ele>170.29</ele>
        <time>2014-03-30T09:58:17Z</time>
      </trkpt>
      <trkpt lat="50.11258" lon="4.13391">
        <ele>169.81</ele>
        <time>2014-03-30T09:58:32Z</time>
      </trkpt>
      <trkpt lat="50.11248" lon="4.13356">
        <ele>169.81</ele>
        <time>2014-03-30T09:58:47Z</time>
      </trkpt>
      <trkpt lat="50.11246" lon="4.13343">
        <ele>169.81</ele>
        <time>2014-03-30T09:58:53Z</time>
      </trkpt>
      <trkpt lat="50.11246" lon="4.13341">
        <ele>169.81</ele>
        <time>2014-03-30T09:58:54Z</time>
      </trkpt>
      <trkpt lat="50.11245" lon="4.13338">
        <ele>169.81</ele>
        <time>2014-03-30T09:58:55Z</time>
      </trkpt>
      <trkpt lat="50.11245" lon="4.13336">
        <ele>169.81</ele>
        <time>2014-03-30T09:58:56Z</time>
      </trkpt>
      <trkpt lat="50.11245" lon="4.13334">
        <ele>169.81</ele>
        <time>2014-03-30T09:58:57Z</time>
      </trkpt>
      <trkpt lat="50.11245" lon="4.13331">
        <ele>169.81</ele>
        <time>2014-03-30T09:58:58Z</time>
      </trkpt>
      <trkpt lat="50.11245" lon="4.13329">
        <ele>169.81</ele>
        <time>2014-03-30T09:58:59Z</time>
      </trkpt>
      <trkpt lat="50.11246" lon="4.13323">
        <ele>170.77</ele>
        <time>2014-03-30T09:59:02Z</time>
      </trkpt>
      <trkpt lat="50.11247" lon="4.13321">
        <ele>170.77</ele>
        <time>2014-03-30T09:59:03Z</time>
      </trkpt>
      <trkpt lat="50.11249" lon="4.13316">
        <ele>170.77</ele>
        <time>2014-03-30T09:59:06Z</time>
      </trkpt>
      <trkpt lat="50.11267" lon="4.13289">
        <ele>171.25</ele>
        <time>2014-03-30T09:59:24Z</time>
      </trkpt>
      <trkpt lat="50.11275" lon="4.13272">
        <ele>171.73</ele>
        <time>2014-03-30T09:59:33Z</time>
      </trkpt>
      <trkpt lat="50.11276" lon="4.13269">
        <ele>172.21</ele>
        <time>2014-03-30T09:59:34Z</time>
      </trkpt>
      <trkpt lat="50.11278" lon="4.13262">
        <ele>172.21</ele>
        <time>2014-03-30T09:59:37Z</time>
      </trkpt>
      <trkpt lat="50.11279" lon="4.13248">
        <ele>172.21</ele>
        <time>2014-03-30T09:59:43Z</time>
      </trkpt>
      <trkpt lat="50.11275" lon="4.1322">
        <ele>172.69</ele>
        <time>2014-03-30T09:59:57Z</time>
      </trkpt>
      <trkpt lat="50.11268" lon="4.13203">
        <ele>173.17</ele>
        <time>2014-03-30T10:00:06Z</time>
      </trkpt>
      <trkpt lat="50.11267" lon="4.13201">
        <ele>173.17</ele>
        <time>2014-03-30T10:00:07Z</time>
      </trkpt>
      <trkpt lat="50.11249" lon="4.13182">
        <ele>176.06</ele>
        <time>2014-03-30T10:00:21Z</time>
      </trkpt>
      <trkpt lat="50.11246" lon="4.13171">
        <ele>176.06</ele>
        <time>2014-03-30T10:00:26Z</time>
      </trkpt>
      <trkpt lat="50.11244" lon="4.13159">
        <ele>176.06</ele>
        <time>2014-03-30T10:00:31Z</time>
      </trkpt>
      <trkpt lat="50.11245" lon="4.13123">
        <ele>176.06</ele>
        <time>2014-03-30T10:00:46Z</time>
      </trkpt>
      <trkpt lat="50.11248" lon="4.13112">
        <ele>174.62</ele>
        <time>2014-03-30T10:00:51Z</time>
      </trkpt>
      <trkpt lat="50.11248" lon="4.1311">
        <ele>174.62</ele>
        <time>2014-03-30T10:00:52Z</time>
      </trkpt>
      <trkpt lat="50.11255" lon="4.13082">
        <ele>172.69</ele>
        <time>2014-03-30T10:01:04Z</time>
      </trkpt>
      <trkpt lat="50.1126" lon="4.13073">
        <ele>171.73</ele>
        <time>2014-03-30T10:01:13Z</time>
      </trkpt>
      <trkpt lat="50.11266" lon="4.13091">
        <ele>171.73</ele>
        <time>2014-03-30T10:01:26Z</time>
      </trkpt>
      <trkpt lat="50.11274" lon="4.13111">
        <ele>170.77</ele>
        <time>2014-03-30T10:01:37Z</time>
      </trkpt>
      <trkpt lat="50.11281" lon="4.13126">
        <ele>170.29</ele>
        <time>2014-03-30T10:01:46Z</time>
      </trkpt>
      <trkpt lat="50.11284" lon="4.13132">
        <ele>169.81</ele>
        <time>2014-03-30T10:01:49Z</time>
      </trkpt>
      <trkpt lat="50.11285" lon="4.13135">
        <ele>169.81</ele>
        <time>2014-03-30T10:01:50Z</time>
      </trkpt>
      <trkpt lat="50.11295" lon="4.13162">
        <ele>169.81</ele>
        <time>2014-03-30T10:02:03Z</time>
      </trkpt>
      <trkpt lat="50.11313" lon="4.13183">
        <ele>172.21</ele>
        <time>2014-03-30T10:02:18Z</time>
      </trkpt>
      <trkpt lat="50.11316" lon="4.13186">
        <ele>172.69</ele>
        <time>2014-03-30T10:02:20Z</time>
      </trkpt>
      <trkpt lat="50.11318" lon="4.13187">
        <ele>172.69</ele>
        <time>2014-03-30T10:02:21Z</time>
      </trkpt>
      <trkpt lat="50.1133" lon="4.13192">
        <ele>172.69</ele>
        <time>2014-03-30T10:02:29Z</time>
      </trkpt>
      <trkpt lat="50.11339" lon="4.13187">
        <ele>171.25</ele>
        <time>2014-03-30T10:02:35Z</time>
      </trkpt>
      <trkpt lat="50.11355" lon="4.13172">
        <ele>169.81</ele>
        <time>2014-03-30T10:02:49Z</time>
      </trkpt>
      <trkpt lat="50.11367" lon="4.13163">
        <ele>169.81</ele>
        <time>2014-03-30T10:02:57Z</time>
      </trkpt>
      <trkpt lat="50.11379" lon="4.13146">
        <ele>169.81</ele>
        <time>2014-03-30T10:03:06Z</time>
      </trkpt>
      <trkpt lat="50.11395" lon="4.13128">
        <ele>169.81</ele>
        <time>2014-03-30T10:03:18Z</time>
      </trkpt>
      <trkpt lat="50.11413" lon="4.13105">
        <ele>169.33</ele>
        <time>2014-03-30T10:03:33Z</time>
      </trkpt>
      <trkpt lat="50.1143" lon="4.13083">
        <ele>168.85</ele>
        <time>2014-03-30T10:03:47Z</time>
      </trkpt>
      <trkpt lat="50.11444" lon="4.1306">
        <ele>168.85</ele>
        <time>2014-03-30T10:04:01Z</time>
      </trkpt>
      <trkpt lat="50.1146" lon="4.13035">
        <ele>168.37</ele>
        <time>2014-03-30T10:04:14Z</time>
      </trkpt>
      <trkpt lat="50.11466" lon="4.13025">
        <ele>169.81</ele>
        <time>2014-03-30T10:04:19Z</time>
      </trkpt>
      <trkpt lat="50.11476" lon="4.12996">
        <ele>170.29</ele>
        <time>2014-03-30T10:04:34Z</time>
      </trkpt>
      <trkpt lat="50.11491" lon="4.12962">
        <ele>170.29</ele>
        <time>2014-03-30T10:04:50Z</time>
      </trkpt>
      <trkpt lat="50.11502" lon="4.12939">
        <ele>173.66</ele>
        <time>2014-03-30T10:05:01Z</time>
      </trkpt>
      <trkpt lat="50.11507" lon="4.1292">
        <ele>177.5</ele>
        <time>2014-03-30T10:05:11Z</time>
      </trkpt>
      <trkpt lat="50.11512" lon="4.12904">
        <ele>180.87</ele>
        <time>2014-03-30T10:05:23Z</time>
      </trkpt>
      <trkpt lat="50.11522" lon="4.12885">
        <ele>183.75</ele>
        <time>2014-03-30T10:05:38Z</time>
      </trkpt>
      <trkpt lat="50.11531" lon="4.12864">
        <ele>185.19</ele>
        <time>2014-03-30T10:05:52Z</time>
      </trkpt>
      <trkpt lat="50.11546" lon="4.12843">
        <ele>187.11</ele>
        <time>2014-03-30T10:06:10Z</time>
      </trkpt>
      <trkpt lat="50.11563" lon="4.12836">
        <ele>187.11</ele>
        <time>2014-03-30T10:06:25Z</time>
      </trkpt>
      <trkpt lat="50.11579" lon="4.12834">
        <ele>184.71</ele>
        <time>2014-03-30T10:06:38Z</time>
      </trkpt>
      <trkpt lat="50.11597" lon="4.12831">
        <ele>181.35</ele>
        <time>2014-03-30T10:06:50Z</time>
      </trkpt>
      <trkpt lat="50.11617" lon="4.12824">
        <ele>177.5</ele>
        <time>2014-03-30T10:07:00Z</time>
      </trkpt>
      <trkpt lat="50.11624" lon="4.12821">
        <ele>176.06</ele>
        <time>2014-03-30T10:07:03Z</time>
      </trkpt>
      <trkpt lat="50.11635" lon="4.12817">
        <ele>174.62</ele>
        <time>2014-03-30T10:07:08Z</time>
      </trkpt>
      <trkpt lat="50.11651" lon="4.12808">
        <ele>171.25</ele>
        <time>2014-03-30T10:07:17Z</time>
      </trkpt>
      <trkpt lat="50.11655" lon="4.12804">
        <ele>170.29</ele>
        <time>2014-03-30T10:07:19Z</time>
      </trkpt>
      <trkpt lat="50.11662" lon="4.12791">
        <ele>166.45</ele>
        <time>2014-03-30T10:07:25Z</time>
      </trkpt>
      <trkpt lat="50.11664" lon="4.12788">
        <ele>165.96</ele>
        <time>2014-03-30T10:07:27Z</time>
      </trkpt>
      <trkpt lat="50.11667" lon="4.12781">
        <ele>164.52</ele>
        <time>2014-03-30T10:07:29Z</time>
      </trkpt>
      <trkpt lat="50.1167" lon="4.12771">
        <ele>165.96</ele>
        <time>2014-03-30T10:07:33Z</time>
      </trkpt>
      <trkpt lat="50.11687" lon="4.12754">
        <ele>166.45</ele>
        <time>2014-03-30T10:07:47Z</time>
      </trkpt>
      <trkpt lat="50.11698" lon="4.12755">
        <ele>168.37</ele>
        <time>2014-03-30T10:07:53Z</time>
      </trkpt>
      <trkpt lat="50.11705" lon="4.12756">
        <ele>169.81</ele>
        <time>2014-03-30T10:07:57Z</time>
      </trkpt>
      <trkpt lat="50.11733" lon="4.12757">
        <ele>172.21</ele>
        <time>2014-03-30T10:08:14Z</time>
      </trkpt>
      <trkpt lat="50.1175" lon="4.12747">
        <ele>173.17</ele>
        <time>2014-03-30T10:08:29Z</time>
      </trkpt>
      <trkpt lat="50.11767" lon="4.12725">
        <ele>174.14</ele>
        <time>2014-03-30T10:08:45Z</time>
      </trkpt>
      <trkpt lat="50.11777" lon="4.12705">
        <ele>175.1</ele>
        <time>2014-03-30T10:08:56Z</time>
      </trkpt>
      <trkpt lat="50.1178" lon="4.12689">
        <ele>174.62</ele>
        <time>2014-03-30T10:09:05Z</time>
      </trkpt>
      <trkpt lat="50.11789" lon="4.12662">
        <ele>174.62</ele>
        <time>2014-03-30T10:09:16Z</time>
      </trkpt>
      <trkpt lat="50.11794" lon="4.12638">
        <ele>174.62</ele>
        <time>2014-03-30T10:09:27Z</time>
      </trkpt>
      <trkpt lat="50.11802" lon="4.12606">
        <ele>173.17</ele>
        <time>2014-03-30T10:09:41Z</time>
      </trkpt>
      <trkpt lat="50.11807" lon="4.12577">
        <ele>172.21</ele>
        <time>2014-03-30T10:09:55Z</time>
      </trkpt>
      <trkpt lat="50.11813" lon="4.12544">
        <ele>171.25</ele>
        <time>2014-03-30T10:10:09Z</time>
      </trkpt>
      <trkpt lat="50.11819" lon="4.1251">
        <ele>168.85</ele>
        <time>2014-03-30T10:10:21Z</time>
      </trkpt>
      <trkpt lat="50.11818" lon="4.12478">
        <ele>170.29</ele>
        <time>2014-03-30T10:10:33Z</time>
      </trkpt>
      <trkpt lat="50.1181" lon="4.12436">
        <ele>172.21</ele>
        <time>2014-03-30T10:10:51Z</time>
      </trkpt>
      <trkpt lat="50.11799" lon="4.12406">
        <ele>175.1</ele>
        <time>2014-03-30T10:11:06Z</time>
      </trkpt>
      <trkpt lat="50.11789" lon="4.1239">
        <ele>177.5</ele>
        <time>2014-03-30T10:11:20Z</time>
      </trkpt>
      <trkpt lat="50.11787" lon="4.12385">
        <ele>178.46</ele>
        <time>2014-03-30T10:11:23Z</time>
      </trkpt>
      <trkpt lat="50.11776" lon="4.12351">
        <ele>180.38</ele>
        <time>2014-03-30T10:11:38Z</time>
      </trkpt>
      <trkpt lat="50.11769" lon="4.12323">
        <ele>181.83</ele>
        <time>2014-03-30T10:11:51Z</time>
      </trkpt>
      <trkpt lat="50.11763" lon="4.12294">
        <ele>182.31</ele>
        <time>2014-03-30T10:12:05Z</time>
      </trkpt>
      <trkpt lat="50.11757" lon="4.12265">
        <ele>183.27</ele>
        <time>2014-03-30T10:12:20Z</time>
      </trkpt>
      <trkpt lat="50.11747" lon="4.1223">
        <ele>184.71</ele>
        <time>2014-03-30T10:12:36Z</time>
      </trkpt>
      <trkpt lat="50.11737" lon="4.12198">
        <ele>186.63</ele>
        <time>2014-03-30T10:12:51Z</time>
      </trkpt>
      <trkpt lat="50.11732" lon="4.12168">
        <ele>187.59</ele>
        <time>2014-03-30T10:13:05Z</time>
      </trkpt>
      <trkpt lat="50.11729" lon="4.12141">
        <ele>186.63</ele>
        <time>2014-03-30T10:13:18Z</time>
      </trkpt>
      <trkpt lat="50.11726" lon="4.12108">
        <ele>184.23</ele>
        <time>2014-03-30T10:13:34Z</time>
      </trkpt>
      <trkpt lat="50.11726" lon="4.12103">
        <ele>184.23</ele>
        <time>2014-03-30T10:13:36Z</time>
      </trkpt>
      <trkpt lat="50.11721" lon="4.12064">
        <ele>182.79</ele>
        <time>2014-03-30T10:13:52Z</time>
      </trkpt>
      <trkpt lat="50.11719" lon="4.12029">
        <ele>182.31</ele>
        <time>2014-03-30T10:14:07Z</time>
      </trkpt>
      <trkpt lat="50.11719" lon="4.12023">
        <ele>182.31</ele>
        <time>2014-03-30T10:14:10Z</time>
      </trkpt>
      <trkpt lat="50.11722" lon="4.11994">
        <ele>180.38</ele>
        <time>2014-03-30T10:14:22Z</time>
      </trkpt>
      <trkpt lat="50.11725" lon="4.11957">
        <ele>177.5</ele>
        <time>2014-03-30T10:14:33Z</time>
      </trkpt>
      <trkpt lat="50.11729" lon="4.11924">
        <ele>174.62</ele>
        <time>2014-03-30T10:14:45Z</time>
      </trkpt>
      <trkpt lat="50.11733" lon="4.11884">
        <ele>171.73</ele>
        <time>2014-03-30T10:15:00Z</time>
      </trkpt>
      <trkpt lat="50.11736" lon="4.11866">
        <ele>169.81</ele>
        <time>2014-03-30T10:15:06Z</time>
      </trkpt>
      <trkpt lat="50.11738" lon="4.1186">
        <ele>168.85</ele>
        <time>2014-03-30T10:15:08Z</time>
      </trkpt>
      <trkpt lat="50.1174" lon="4.11851">
        <ele>167.89</ele>
        <time>2014-03-30T10:15:10Z</time>
      </trkpt>
      <trkpt lat="50.1174" lon="4.11845">
        <ele>167.41</ele>
        <time>2014-03-30T10:15:11Z</time>
      </trkpt>
      <trkpt lat="50.11741" lon="4.1184">
        <ele>167.41</ele>
        <time>2014-03-30T10:15:12Z</time>
      </trkpt>
      <trkpt lat="50.11741" lon="4.11836">
        <ele>166.93</ele>
        <time>2014-03-30T10:15:13Z</time>
      </trkpt>
      <trkpt lat="50.1174" lon="4.11832">
        <ele>166.45</ele>
        <time>2014-03-30T10:15:14Z</time>
      </trkpt>
      <trkpt lat="50.1174" lon="4.1183">
        <ele>166.45</ele>
        <time>2014-03-30T10:15:15Z</time>
      </trkpt>
      <trkpt lat="50.11731" lon="4.11825">
        <ele>165.48</ele>
        <time>2014-03-30T10:15:27Z</time>
      </trkpt>
      <trkpt lat="50.11727" lon="4.11823">
        <ele>165</ele>
        <time>2014-03-30T10:15:31Z</time>
      </trkpt>
      <trkpt lat="50.11713" lon="4.11831">
        <ele>165</ele>
        <time>2014-03-30T10:15:44Z</time>
      </trkpt>
      <trkpt lat="50.11697" lon="4.11843">
        <ele>166.45</ele>
        <time>2014-03-30T10:15:59Z</time>
      </trkpt>
      <trkpt lat="50.11681" lon="4.11855">
        <ele>166.45</ele>
        <time>2014-03-30T10:16:11Z</time>
      </trkpt>
      <trkpt lat="50.11666" lon="4.11869">
        <ele>166.45</ele>
        <time>2014-03-30T10:16:25Z</time>
      </trkpt>
      <trkpt lat="50.11649" lon="4.11881">
        <ele>167.41</ele>
        <time>2014-03-30T10:16:36Z</time>
      </trkpt>
      <trkpt lat="50.11641" lon="4.11885">
        <ele>167.41</ele>
        <time>2014-03-30T10:16:40Z</time>
      </trkpt>
      <trkpt lat="50.11626" lon="4.11896">
        <ele>167.41</ele>
        <time>2014-03-30T10:16:52Z</time>
      </trkpt>
      <trkpt lat="50.1161" lon="4.11907">
        <ele>167.89</ele>
        <time>2014-03-30T10:17:07Z</time>
      </trkpt>
      <trkpt lat="50.11603" lon="4.1191">
        <ele>164.52</ele>
        <time>2014-03-30T10:17:12Z</time>
      </trkpt>
      <trkpt lat="50.116" lon="4.11909">
        <ele>163.08</ele>
        <time>2014-03-30T10:17:13Z</time>
      </trkpt>
      <trkpt lat="50.11598" lon="4.1191">
        <ele>163.08</ele>
        <time>2014-03-30T10:17:14Z</time>
      </trkpt>
      <trkpt lat="50.11593" lon="4.11914">
        <ele>165.96</ele>
        <time>2014-03-30T10:17:17Z</time>
      </trkpt>
      <trkpt lat="50.11591" lon="4.11915">
        <ele>165.96</ele>
        <time>2014-03-30T10:17:18Z</time>
      </trkpt>
      <trkpt lat="50.11565" lon="4.11924">
        <ele>168.85</ele>
        <time>2014-03-30T10:17:32Z</time>
      </trkpt>
      <trkpt lat="50.11547" lon="4.11931">
        <ele>169.33</ele>
        <time>2014-03-30T10:17:43Z</time>
      </trkpt>
      <trkpt lat="50.11527" lon="4.11932">
        <ele>169.81</ele>
        <time>2014-03-30T10:17:56Z</time>
      </trkpt>
      <trkpt lat="50.1151" lon="4.1193">
        <ele>171.25</ele>
        <time>2014-03-30T10:18:08Z</time>
      </trkpt>
      <trkpt lat="50.11499" lon="4.11928">
        <ele>169.81</ele>
        <time>2014-03-30T10:18:17Z</time>
      </trkpt>
      <trkpt lat="50.11481" lon="4.11924">
        <ele>169.33</ele>
        <time>2014-03-30T10:18:30Z</time>
      </trkpt>
      <trkpt lat="50.11475" lon="4.11922">
        <ele>169.33</ele>
        <time>2014-03-30T10:18:34Z</time>
      </trkpt>
      <trkpt lat="50.11472" lon="4.11921">
        <ele>169.33</ele>
        <time>2014-03-30T10:18:36Z</time>
      </trkpt>
      <trkpt lat="50.11462" lon="4.11919">
        <ele>169.33</ele>
        <time>2014-03-30T10:18:43Z</time>
      </trkpt>
      <trkpt lat="50.11457" lon="4.11916">
        <ele>165.96</ele>
        <time>2014-03-30T10:18:47Z</time>
      </trkpt>
      <trkpt lat="50.11454" lon="4.11914">
        <ele>165.48</ele>
        <time>2014-03-30T10:18:49Z</time>
      </trkpt>
      <trkpt lat="50.11451" lon="4.11889">
        <ele>164.52</ele>
        <time>2014-03-30T10:18:58Z</time>
      </trkpt>
      <trkpt lat="50.11446" lon="4.11865">
        <ele>167.89</ele>
        <time>2014-03-30T10:19:08Z</time>
      </trkpt>
      <trkpt lat="50.11441" lon="4.11852">
        <ele>168.85</ele>
        <time>2014-03-30T10:19:20Z</time>
      </trkpt>
      <trkpt lat="50.11431" lon="4.11847">
        <ele>169.81</ele>
        <time>2014-03-30T10:19:29Z</time>
      </trkpt>
      <trkpt lat="50.11424" lon="4.11842">
        <ele>169.81</ele>
        <time>2014-03-30T10:19:35Z</time>
      </trkpt>
      <trkpt lat="50.11407" lon="4.11831">
        <ele>169.33</ele>
        <time>2014-03-30T10:19:48Z</time>
      </trkpt>
      <trkpt lat="50.1139" lon="4.11818">
        <ele>169.33</ele>
        <time>2014-03-30T10:20:01Z</time>
      </trkpt>
      <trkpt lat="50.11387" lon="4.11816">
        <ele>169.33</ele>
        <time>2014-03-30T10:20:03Z</time>
      </trkpt>
      <trkpt lat="50.11373" lon="4.11806">
        <ele>170.29</ele>
        <time>2014-03-30T10:20:15Z</time>
      </trkpt>
      <trkpt lat="50.11362" lon="4.11794">
        <ele>173.66</ele>
        <time>2014-03-30T10:20:23Z</time>
      </trkpt>
      <trkpt lat="50.11354" lon="4.11783">
        <ele>176.54</ele>
        <time>2014-03-30T10:20:31Z</time>
      </trkpt>
      <trkpt lat="50.11339" lon="4.11761">
        <ele>178.94</ele>
        <time>2014-03-30T10:20:45Z</time>
      </trkpt>
      <trkpt lat="50.11327" lon="4.11748">
        <ele>180.38</ele>
        <time>2014-03-30T10:20:58Z</time>
      </trkpt>
      <trkpt lat="50.11313" lon="4.11727">
        <ele>181.83</ele>
        <time>2014-03-30T10:21:12Z</time>
      </trkpt>
      <trkpt lat="50.113" lon="4.1171">
        <ele>183.27</ele>
        <time>2014-03-30T10:21:25Z</time>
      </trkpt>
      <trkpt lat="50.11286" lon="4.11683">
        <ele>184.23</ele>
        <time>2014-03-30T10:21:41Z</time>
      </trkpt>
      <trkpt lat="50.11274" lon="4.11655">
        <ele>185.67</ele>
        <time>2014-03-30T10:21:56Z</time>
      </trkpt>
      <trkpt lat="50.11263" lon="4.1163">
        <ele>186.63</ele>
        <time>2014-03-30T10:22:11Z</time>
      </trkpt>
      <trkpt lat="50.11254" lon="4.11608">
        <ele>188.08</ele>
        <time>2014-03-30T10:22:24Z</time>
      </trkpt>
      <trkpt lat="50.11242" lon="4.11582">
        <ele>189.04</ele>
        <time>2014-03-30T10:22:39Z</time>
      </trkpt>
      <trkpt lat="50.11234" lon="4.1156">
        <ele>190.48</ele>
        <time>2014-03-30T10:22:51Z</time>
      </trkpt>
      <trkpt lat="50.11224" lon="4.11541">
        <ele>190.96</ele>
        <time>2014-03-30T10:23:04Z</time>
      </trkpt>
      <trkpt lat="50.11212" lon="4.11509">
        <ele>191.92</ele>
        <time>2014-03-30T10:23:19Z</time>
      </trkpt>
      <trkpt lat="50.11205" lon="4.11493">
        <ele>192.88</ele>
        <time>2014-03-30T10:23:32Z</time>
      </trkpt>
      <trkpt lat="50.11195" lon="4.11478">
        <ele>193.36</ele>
        <time>2014-03-30T10:23:44Z</time>
      </trkpt>
      <trkpt lat="50.11184" lon="4.11454">
        <ele>193.84</ele>
        <time>2014-03-30T10:23:58Z</time>
      </trkpt>
      <trkpt lat="50.11172" lon="4.1143">
        <ele>194.8</ele>
        <time>2014-03-30T10:24:13Z</time>
      </trkpt>
      <trkpt lat="50.11159" lon="4.11404">
        <ele>195.77</ele>
        <time>2014-03-30T10:24:27Z</time>
      </trkpt>
      <trkpt lat="50.11148" lon="4.11382">
        <ele>195.28</ele>
        <time>2014-03-30T10:24:42Z</time>
      </trkpt>
      <trkpt lat="50.1114" lon="4.11355">
        <ele>196.25</ele>
        <time>2014-03-30T10:24:55Z</time>
      </trkpt>
      <trkpt lat="50.11135" lon="4.1133">
        <ele>196.25</ele>
        <time>2014-03-30T10:25:07Z</time>
      </trkpt>
      <trkpt lat="50.11135" lon="4.11321">
        <ele>195.77</ele>
        <time>2014-03-30T10:25:12Z</time>
      </trkpt>
      <trkpt lat="50.11139" lon="4.11314">
        <ele>195.77</ele>
        <time>2014-03-30T10:25:24Z</time>
      </trkpt>
      <trkpt lat="50.11147" lon="4.11296">
        <ele>195.77</ele>
        <time>2014-03-30T10:25:38Z</time>
      </trkpt>
      <trkpt lat="50.11161" lon="4.11281">
        <ele>194.32</ele>
        <time>2014-03-30T10:25:51Z</time>
      </trkpt>
      <trkpt lat="50.11163" lon="4.1128">
        <ele>194.32</ele>
        <time>2014-03-30T10:25:52Z</time>
      </trkpt>
      <trkpt lat="50.11182" lon="4.11274">
        <ele>192.88</ele>
        <time>2014-03-30T10:26:07Z</time>
      </trkpt>
      <trkpt lat="50.11197" lon="4.1127">
        <ele>192.4</ele>
        <time>2014-03-30T10:26:19Z</time>
      </trkpt>
      <trkpt lat="50.11217" lon="4.11265">
        <ele>192.4</ele>
        <time>2014-03-30T10:26:33Z</time>
      </trkpt>
      <trkpt lat="50.11232" lon="4.1126">
        <ele>190.48</ele>
        <time>2014-03-30T10:26:47Z</time>
      </trkpt>
      <trkpt lat="50.11256" lon="4.1127">
        <ele>191.92</ele>
        <time>2014-03-30T10:27:00Z</time>
      </trkpt>
      <trkpt lat="50.1127" lon="4.11289">
        <ele>192.88</ele>
        <time>2014-03-30T10:27:15Z</time>
      </trkpt>
      <trkpt lat="50.11277" lon="4.11304">
        <ele>191.44</ele>
        <time>2014-03-30T10:27:25Z</time>
      </trkpt>
      <trkpt lat="50.11284" lon="4.11327">
        <ele>190.48</ele>
        <time>2014-03-30T10:27:35Z</time>
      </trkpt>
      <trkpt lat="50.11295" lon="4.11356">
        <ele>189.04</ele>
        <time>2014-03-30T10:27:47Z</time>
      </trkpt>
      <trkpt lat="50.11296" lon="4.11357">
        <ele>189.04</ele>
        <time>2014-03-30T10:27:48Z</time>
      </trkpt>
      <trkpt lat="50.11304" lon="4.1138">
        <ele>187.59</ele>
        <time>2014-03-30T10:28:01Z</time>
      </trkpt>
      <trkpt lat="50.11304" lon="4.11382">
        <ele>187.59</ele>
        <time>2014-03-30T10:28:02Z</time>
      </trkpt>
      <trkpt lat="50.11308" lon="4.11402">
        <ele>187.11</ele>
        <time>2014-03-30T10:28:15Z</time>
      </trkpt>
      <trkpt lat="50.11308" lon="4.11405">
        <ele>187.11</ele>
        <time>2014-03-30T10:28:16Z</time>
      </trkpt>
      <trkpt lat="50.11314" lon="4.11428">
        <ele>187.11</ele>
        <time>2014-03-30T10:28:27Z</time>
      </trkpt>
      <trkpt lat="50.11319" lon="4.11441">
        <ele>187.11</ele>
        <time>2014-03-30T10:28:35Z</time>
      </trkpt>
      <trkpt lat="50.11325" lon="4.11458">
        <ele>186.63</ele>
        <time>2014-03-30T10:28:47Z</time>
      </trkpt>
      <trkpt lat="50.11331" lon="4.11473">
        <ele>186.63</ele>
        <time>2014-03-30T10:28:59Z</time>
      </trkpt>
      <trkpt lat="50.11343" lon="4.11503">
        <ele>185.67</ele>
        <time>2014-03-30T10:29:10Z</time>
      </trkpt>
      <trkpt lat="50.11359" lon="4.11548">
        <ele>184.23</ele>
        <time>2014-03-30T10:29:24Z</time>
      </trkpt>
      <trkpt lat="50.11367" lon="4.11574">
        <ele>183.27</ele>
        <time>2014-03-30T10:29:37Z</time>
      </trkpt>
      <trkpt lat="50.11372" lon="4.116">
        <ele>182.31</ele>
        <time>2014-03-30T10:29:50Z</time>
      </trkpt>
      <trkpt lat="50.11381" lon="4.11628">
        <ele>180.87</ele>
        <time>2014-03-30T10:30:05Z</time>
      </trkpt>
      <trkpt lat="50.11386" lon="4.11657">
        <ele>179.42</ele>
        <time>2014-03-30T10:30:17Z</time>
      </trkpt>
      <trkpt lat="50.11398" lon="4.1169">
        <ele>176.54</ele>
        <time>2014-03-30T10:30:29Z</time>
      </trkpt>
      <trkpt lat="50.11399" lon="4.11695">
        <ele>175.58</ele>
        <time>2014-03-30T10:30:31Z</time>
      </trkpt>
      <trkpt lat="50.11404" lon="4.11704">
        <ele>173.66</ele>
        <time>2014-03-30T10:30:35Z</time>
      </trkpt>
      <trkpt lat="50.11416" lon="4.11734">
        <ele>170.29</ele>
        <time>2014-03-30T10:30:47Z</time>
      </trkpt>
      <trkpt lat="50.11431" lon="4.11778">
        <ele>166.93</ele>
        <time>2014-03-30T10:30:59Z</time>
      </trkpt>
      <trkpt lat="50.11431" lon="4.11781">
        <ele>166.93</ele>
        <time>2014-03-30T10:31:00Z</time>
      </trkpt>
      <trkpt lat="50.11434" lon="4.11811">
        <ele>163.56</ele>
        <time>2014-03-30T10:31:07Z</time>
      </trkpt>
      <trkpt lat="50.11435" lon="4.11819">
        <ele>162.12</ele>
        <time>2014-03-30T10:31:09Z</time>
      </trkpt>
      <trkpt lat="50.11453" lon="4.1183">
        <ele>162.12</ele>
        <time>2014-03-30T10:31:23Z</time>
      </trkpt>
      <trkpt lat="50.11457" lon="4.11829">
        <ele>162.12</ele>
        <time>2014-03-30T10:31:26Z</time>
      </trkpt>
      <trkpt lat="50.11481" lon="4.11832">
        <ele>161.64</ele>
        <time>2014-03-30T10:31:34Z</time>
      </trkpt>
      <trkpt lat="50.11489" lon="4.1183">
        <ele>161.64</ele>
        <time>2014-03-30T10:31:38Z</time>
      </trkpt>
      <trkpt lat="50.11501" lon="4.11822">
        <ele>161.64</ele>
        <time>2014-03-30T10:31:52Z</time>
      </trkpt>
      <trkpt lat="50.11509" lon="4.11817">
        <ele>161.64</ele>
        <time>2014-03-30T10:32:00Z</time>
      </trkpt>
      <trkpt lat="50.11511" lon="4.11815">
        <ele>161.64</ele>
        <time>2014-03-30T10:32:01Z</time>
      </trkpt>
      <trkpt lat="50.11514" lon="4.11812">
        <ele>161.64</ele>
        <time>2014-03-30T10:32:02Z</time>
      </trkpt>
      <trkpt lat="50.11535" lon="4.11786">
        <ele>162.6</ele>
        <time>2014-03-30T10:32:11Z</time>
      </trkpt>
      <trkpt lat="50.11543" lon="4.11776">
        <ele>163.56</ele>
        <time>2014-03-30T10:32:22Z</time>
      </trkpt>
      <trkpt lat="50.11551" lon="4.11769">
        <ele>164.52</ele>
        <time>2014-03-30T10:32:35Z</time>
      </trkpt>
      <trkpt lat="50.11552" lon="4.11765">
        <ele>164.52</ele>
        <time>2014-03-30T10:32:38Z</time>
      </trkpt>
      <trkpt lat="50.11559" lon="4.11758">
        <ele>165</ele>
        <time>2014-03-30T10:32:47Z</time>
      </trkpt>
      <trkpt lat="50.1156" lon="4.11755">
        <ele>165</ele>
        <time>2014-03-30T10:32:48Z</time>
      </trkpt>
      <trkpt lat="50.11561" lon="4.11753">
        <ele>165</ele>
        <time>2014-03-30T10:32:49Z</time>
      </trkpt>
      <trkpt lat="50.1158" lon="4.11725">
        <ele>165.96</ele>
        <time>2014-03-30T10:33:00Z</time>
      </trkpt>
      <trkpt lat="50.11593" lon="4.1171">
        <ele>167.41</ele>
        <time>2014-03-30T10:33:11Z</time>
      </trkpt>
      <trkpt lat="50.11609" lon="4.11693">
        <ele>167.89</ele>
        <time>2014-03-30T10:33:23Z</time>
      </trkpt>
      <trkpt lat="50.11615" lon="4.11687">
        <ele>168.37</ele>
        <time>2014-03-30T10:33:33Z</time>
      </trkpt>
      <trkpt lat="50.11615" lon="4.11684">
        <ele>168.37</ele>
        <time>2014-03-30T10:33:34Z</time>
      </trkpt>
      <trkpt lat="50.11624" lon="4.11665">
        <ele>168.85</ele>
        <time>2014-03-30T10:33:46Z</time>
      </trkpt>
      <trkpt lat="50.11629" lon="4.11655">
        <ele>169.81</ele>
        <time>2014-03-30T10:33:55Z</time>
      </trkpt>
      <trkpt lat="50.11629" lon="4.11652">
        <ele>169.81</ele>
        <time>2014-03-30T10:33:57Z</time>
      </trkpt>
      <trkpt lat="50.11635" lon="4.11629">
        <ele>170.29</ele>
        <time>2014-03-30T10:34:10Z</time>
      </trkpt>
      <trkpt lat="50.11637" lon="4.11622">
        <ele>170.29</ele>
        <time>2014-03-30T10:34:17Z</time>
      </trkpt>
      <trkpt lat="50.11639" lon="4.1162">
        <ele>170.29</ele>
        <time>2014-03-30T10:34:18Z</time>
      </trkpt>
      <trkpt lat="50.11643" lon="4.1161">
        <ele>169.33</ele>
        <time>2014-03-30T10:34:28Z</time>
      </trkpt>
      <trkpt lat="50.11641" lon="4.11584">
        <ele>167.89</ele>
        <time>2014-03-30T10:34:45Z</time>
      </trkpt>
      <trkpt lat="50.11634" lon="4.1155">
        <ele>167.89</ele>
        <time>2014-03-30T10:35:03Z</time>
      </trkpt>
      <trkpt lat="50.11636" lon="4.11539">
        <ele>166.93</ele>
        <time>2014-03-30T10:35:08Z</time>
      </trkpt>
      <trkpt lat="50.11641" lon="4.11507">
        <ele>166.93</ele>
        <time>2014-03-30T10:35:21Z</time>
      </trkpt>
      <trkpt lat="50.11642" lon="4.11482">
        <ele>165.96</ele>
        <time>2014-03-30T10:35:33Z</time>
      </trkpt>
      <trkpt lat="50.11645" lon="4.11457">
        <ele>165.48</ele>
        <time>2014-03-30T10:35:46Z</time>
      </trkpt>
      <trkpt lat="50.11648" lon="4.11423">
        <ele>165.48</ele>
        <time>2014-03-30T10:36:01Z</time>
      </trkpt>
      <trkpt lat="50.1165" lon="4.11393">
        <ele>165.48</ele>
        <time>2014-03-30T10:36:15Z</time>
      </trkpt>
      <trkpt lat="50.11654" lon="4.11366">
        <ele>164.52</ele>
        <time>2014-03-30T10:36:29Z</time>
      </trkpt>
      <trkpt lat="50.11657" lon="4.11338">
        <ele>164.52</ele>
        <time>2014-03-30T10:36:43Z</time>
      </trkpt>
      <trkpt lat="50.11661" lon="4.11306">
        <ele>163.08</ele>
        <time>2014-03-30T10:36:57Z</time>
      </trkpt>
      <trkpt lat="50.11672" lon="4.11283">
        <ele>162.12</ele>
        <time>2014-03-30T10:37:11Z</time>
      </trkpt>
      <trkpt lat="50.11676" lon="4.11269">
        <ele>162.12</ele>
        <time>2014-03-30T10:37:18Z</time>
      </trkpt>
      <trkpt lat="50.11683" lon="4.11246">
        <ele>161.64</ele>
        <time>2014-03-30T10:37:30Z</time>
      </trkpt>
      <trkpt lat="50.11684" lon="4.11242">
        <ele>161.64</ele>
        <time>2014-03-30T10:37:32Z</time>
      </trkpt>
      <trkpt lat="50.11687" lon="4.11239">
        <ele>160.68</ele>
        <time>2014-03-30T10:37:34Z</time>
      </trkpt>
      <trkpt lat="50.1169" lon="4.11235">
        <ele>160.68</ele>
        <time>2014-03-30T10:37:36Z</time>
      </trkpt>
      <trkpt lat="50.11691" lon="4.11232">
        <ele>160.2</ele>
        <time>2014-03-30T10:37:37Z</time>
      </trkpt>
      <trkpt lat="50.11692" lon="4.11229">
        <ele>160.2</ele>
        <time>2014-03-30T10:37:38Z</time>
      </trkpt>
      <trkpt lat="50.11693" lon="4.11226">
        <ele>160.2</ele>
        <time>2014-03-30T10:37:39Z</time>
      </trkpt>
      <trkpt lat="50.11694" lon="4.11223">
        <ele>160.2</ele>
        <time>2014-03-30T10:37:40Z</time>
      </trkpt>
      <trkpt lat="50.11695" lon="4.1122">
        <ele>160.2</ele>
        <time>2014-03-30T10:37:41Z</time>
      </trkpt>
      <trkpt lat="50.11699" lon="4.11208">
        <ele>161.64</ele>
        <time>2014-03-30T10:37:46Z</time>
      </trkpt>
      <trkpt lat="50.11699" lon="4.11205">
        <ele>161.64</ele>
        <time>2014-03-30T10:37:47Z</time>
      </trkpt>
      <trkpt lat="50.11699" lon="4.11176">
        <ele>162.6</ele>
        <time>2014-03-30T10:37:59Z</time>
      </trkpt>
      <trkpt lat="50.11698" lon="4.11172">
        <ele>162.6</ele>
        <time>2014-03-30T10:38:02Z</time>
      </trkpt>
      <trkpt lat="50.11698" lon="4.11169">
        <ele>162.6</ele>
        <time>2014-03-30T10:38:03Z</time>
      </trkpt>
      <trkpt lat="50.11703" lon="4.11152">
        <ele>163.08</ele>
        <time>2014-03-30T10:38:15Z</time>
      </trkpt>
      <trkpt lat="50.11704" lon="4.11148">
        <ele>161.64</ele>
        <time>2014-03-30T10:38:17Z</time>
      </trkpt>
      <trkpt lat="50.11705" lon="4.11145">
        <ele>161.16</ele>
        <time>2014-03-30T10:38:19Z</time>
      </trkpt>
      <trkpt lat="50.1171" lon="4.11129">
        <ele>158.27</ele>
        <time>2014-03-30T10:38:27Z</time>
      </trkpt>
      <trkpt lat="50.11715" lon="4.11116">
        <ele>157.31</ele>
        <time>2014-03-30T10:38:38Z</time>
      </trkpt>
      <trkpt lat="50.1172" lon="4.11104">
        <ele>157.31</ele>
        <time>2014-03-30T10:38:49Z</time>
      </trkpt>
      <trkpt lat="50.11718" lon="4.11094">
        <ele>153.95</ele>
        <time>2014-03-30T10:38:56Z</time>
      </trkpt>
      <trkpt lat="50.1172" lon="4.11086">
        <ele>150.58</ele>
        <time>2014-03-30T10:39:03Z</time>
      </trkpt>
      <trkpt lat="50.11721" lon="4.11085">
        <ele>150.58</ele>
        <time>2014-03-30T10:39:04Z</time>
      </trkpt>
      <trkpt lat="50.1173" lon="4.11077">
        <ele>147.22</ele>
        <time>2014-03-30T10:39:16Z</time>
      </trkpt>
      <trkpt lat="50.11746" lon="4.11075">
        <ele>146.26</ele>
        <time>2014-03-30T10:39:30Z</time>
      </trkpt>
      <trkpt lat="50.11748" lon="4.11075">
        <ele>146.26</ele>
        <time>2014-03-30T10:39:31Z</time>
      </trkpt>
      <trkpt lat="50.11762" lon="4.11074">
        <ele>145.3</ele>
        <time>2014-03-30T10:39:47Z</time>
      </trkpt>
      <trkpt lat="50.1176" lon="4.11074">
        <ele>146.26</ele>
        <time>2014-03-30T10:39:55Z</time>
      </trkpt>
      <trkpt lat="50.1176" lon="4.11074">
        <ele>146.26</ele>
        <time>2014-03-30T10:39:57Z</time>
      </trkpt>
      <trkpt lat="50.11804" lon="4.1109">
        <ele>146.26</ele>
        <time>2014-03-30T10:40:16Z</time>
      </trkpt>
      <trkpt lat="50.11842" lon="4.1109">
        <ele>144.82</ele>
        <time>2014-03-30T10:40:36Z</time>
      </trkpt>
      <trkpt lat="50.11875" lon="4.11091">
        <ele>145.3</ele>
        <time>2014-03-30T10:40:55Z</time>
      </trkpt>
      <trkpt lat="50.11901" lon="4.11093">
        <ele>146.74</ele>
        <time>2014-03-30T10:41:14Z</time>
      </trkpt>
      <trkpt lat="50.11903" lon="4.11093">
        <ele>146.74</ele>
        <time>2014-03-30T10:41:15Z</time>
      </trkpt>
      <trkpt lat="50.11931" lon="4.11098">
        <ele>147.22</ele>
        <time>2014-03-30T10:41:32Z</time>
      </trkpt>
      <trkpt lat="50.11951" lon="4.11113">
        <ele>150.58</ele>
        <time>2014-03-30T10:41:43Z</time>
      </trkpt>
      <trkpt lat="50.11952" lon="4.11114">
        <ele>150.58</ele>
        <time>2014-03-30T10:41:44Z</time>
      </trkpt>
      <trkpt lat="50.1197" lon="4.11133">
        <ele>154.43</ele>
        <time>2014-03-30T10:41:55Z</time>
      </trkpt>
      <trkpt lat="50.11981" lon="4.11143">
        <ele>155.87</ele>
        <time>2014-03-30T10:42:05Z</time>
      </trkpt>
      <trkpt lat="50.11996" lon="4.11157">
        <ele>157.31</ele>
        <time>2014-03-30T10:42:19Z</time>
      </trkpt>
      <trkpt lat="50.11997" lon="4.11158">
        <ele>157.31</ele>
        <time>2014-03-30T10:42:20Z</time>
      </trkpt>
      <trkpt lat="50.11998" lon="4.11158">
        <ele>157.79</ele>
        <time>2014-03-30T10:42:21Z</time>
      </trkpt>
      <trkpt lat="50.12002" lon="4.1116">
        <ele>157.79</ele>
        <time>2014-03-30T10:42:37Z</time>
      </trkpt>
      <trkpt lat="50.12014" lon="4.11173">
        <ele>159.24</ele>
        <time>2014-03-30T10:42:53Z</time>
      </trkpt>
      <trkpt lat="50.12021" lon="4.1118">
        <ele>160.2</ele>
        <time>2014-03-30T10:43:06Z</time>
      </trkpt>
      <trkpt lat="50.12024" lon="4.112">
        <ele>162.12</ele>
        <time>2014-03-30T10:43:20Z</time>
      </trkpt>
      <trkpt lat="50.12023" lon="4.11223">
        <ele>163.08</ele>
        <time>2014-03-30T10:43:35Z</time>
      </trkpt>
      <trkpt lat="50.12023" lon="4.11241">
        <ele>164.04</ele>
        <time>2014-03-30T10:43:45Z</time>
      </trkpt>
      <trkpt lat="50.12025" lon="4.1125">
        <ele>164.04</ele>
        <time>2014-03-30T10:43:49Z</time>
      </trkpt>
      <trkpt lat="50.12029" lon="4.11287">
        <ele>164.52</ele>
        <time>2014-03-30T10:44:06Z</time>
      </trkpt>
      <trkpt lat="50.12029" lon="4.11289">
        <ele>164.52</ele>
        <time>2014-03-30T10:44:07Z</time>
      </trkpt>
      <trkpt lat="50.12031" lon="4.11306">
        <ele>163.08</ele>
        <time>2014-03-30T10:44:15Z</time>
      </trkpt>
      <trkpt lat="50.12031" lon="4.11308">
        <ele>163.08</ele>
        <time>2014-03-30T10:44:16Z</time>
      </trkpt>
      <trkpt lat="50.12037" lon="4.11342">
        <ele>163.08</ele>
        <time>2014-03-30T10:44:32Z</time>
      </trkpt>
      <trkpt lat="50.12042" lon="4.11378">
        <ele>164.52</ele>
        <time>2014-03-30T10:44:49Z</time>
      </trkpt>
      <trkpt lat="50.12043" lon="4.11392">
        <ele>164.04</ele>
        <time>2014-03-30T10:45:03Z</time>
      </trkpt>
      <trkpt lat="50.1205" lon="4.1142">
        <ele>161.64</ele>
        <time>2014-03-30T10:45:16Z</time>
      </trkpt>
      <trkpt lat="50.12058" lon="4.11453">
        <ele>161.16</ele>
        <time>2014-03-30T10:45:33Z</time>
      </trkpt>
      <trkpt lat="50.12068" lon="4.11485">
        <ele>161.16</ele>
        <time>2014-03-30T10:45:49Z</time>
      </trkpt>
      <trkpt lat="50.12077" lon="4.11517">
        <ele>160.2</ele>
        <time>2014-03-30T10:46:07Z</time>
      </trkpt>
      <trkpt lat="50.12088" lon="4.11554">
        <ele>160.2</ele>
        <time>2014-03-30T10:46:27Z</time>
      </trkpt>
      <trkpt lat="50.12097" lon="4.11587">
        <ele>159.72</ele>
        <time>2014-03-30T10:46:46Z</time>
      </trkpt>
      <trkpt lat="50.12104" lon="4.11621">
        <ele>159.24</ele>
        <time>2014-03-30T10:47:04Z</time>
      </trkpt>
      <trkpt lat="50.12109" lon="4.11654">
        <ele>158.27</ele>
        <time>2014-03-30T10:47:23Z</time>
      </trkpt>
      <trkpt lat="50.12119" lon="4.11685">
        <ele>157.79</ele>
        <time>2014-03-30T10:47:41Z</time>
      </trkpt>
      <trkpt lat="50.12131" lon="4.11696">
        <ele>158.27</ele>
        <time>2014-03-30T10:47:58Z</time>
      </trkpt>
      <trkpt lat="50.12146" lon="4.11696">
        <ele>159.24</ele>
        <time>2014-03-30T10:48:15Z</time>
      </trkpt>
      <trkpt lat="50.1215" lon="4.11719">
        <ele>159.24</ele>
        <time>2014-03-30T10:48:32Z</time>
      </trkpt>
      <trkpt lat="50.12153" lon="4.11745">
        <ele>159.72</ele>
        <time>2014-03-30T10:48:47Z</time>
      </trkpt>
      <trkpt lat="50.12158" lon="4.11773">
        <ele>160.2</ele>
        <time>2014-03-30T10:49:04Z</time>
      </trkpt>
      <trkpt lat="50.12168" lon="4.1181">
        <ele>160.2</ele>
        <time>2014-03-30T10:49:24Z</time>
      </trkpt>
      <trkpt lat="50.12176" lon="4.1184">
        <ele>160.68</ele>
        <time>2014-03-30T10:49:41Z</time>
      </trkpt>
      <trkpt lat="50.12187" lon="4.11874">
        <ele>160.68</ele>
        <time>2014-03-30T10:50:01Z</time>
      </trkpt>
      <trkpt lat="50.12194" lon="4.11908">
        <ele>160.68</ele>
        <time>2014-03-30T10:50:19Z</time>
      </trkpt>
      <trkpt lat="50.12202" lon="4.11947">
        <ele>161.16</ele>
        <time>2014-03-30T10:50:40Z</time>
      </trkpt>
      <trkpt lat="50.12205" lon="4.11981">
        <ele>161.16</ele>
        <time>2014-03-30T10:50:58Z</time>
      </trkpt>
      <trkpt lat="50.12205" lon="4.12009">
        <ele>161.64</ele>
        <time>2014-03-30T10:51:15Z</time>
      </trkpt>
      <trkpt lat="50.12207" lon="4.12041">
        <ele>161.64</ele>
        <time>2014-03-30T10:51:33Z</time>
      </trkpt>
      <trkpt lat="50.12205" lon="4.12053">
        <ele>161.64</ele>
        <time>2014-03-30T10:51:40Z</time>
      </trkpt>
      <trkpt lat="50.12194" lon="4.12086">
        <ele>160.68</ele>
        <time>2014-03-30T10:51:58Z</time>
      </trkpt>
      <trkpt lat="50.12179" lon="4.12117">
        <ele>160.2</ele>
        <time>2014-03-30T10:52:18Z</time>
      </trkpt>
      <trkpt lat="50.1217" lon="4.12137">
        <ele>160.2</ele>
        <time>2014-03-30T10:52:31Z</time>
      </trkpt>
      <trkpt lat="50.12169" lon="4.12138">
        <ele>160.2</ele>
        <time>2014-03-30T10:52:32Z</time>
      </trkpt>
      <trkpt lat="50.12166" lon="4.12145">
        <ele>160.2</ele>
        <time>2014-03-30T10:52:37Z</time>
      </trkpt>
      <trkpt lat="50.12162" lon="4.12163">
        <ele>159.72</ele>
        <time>2014-03-30T10:52:53Z</time>
      </trkpt>
      <trkpt lat="50.12164" lon="4.12174">
        <ele>159.72</ele>
        <time>2014-03-30T10:52:58Z</time>
      </trkpt>
      <trkpt lat="50.12179" lon="4.12216">
        <ele>160.2</ele>
        <time>2014-03-30T10:53:15Z</time>
      </trkpt>
      <trkpt lat="50.1218" lon="4.12246">
        <ele>160.2</ele>
        <time>2014-03-30T10:53:30Z</time>
      </trkpt>
      <trkpt lat="50.12184" lon="4.12277">
        <ele>160.2</ele>
        <time>2014-03-30T10:53:48Z</time>
      </trkpt>
      <trkpt lat="50.12193" lon="4.12303">
        <ele>161.64</ele>
        <time>2014-03-30T10:54:01Z</time>
      </trkpt>
      <trkpt lat="50.12199" lon="4.12329">
        <ele>161.64</ele>
        <time>2014-03-30T10:54:17Z</time>
      </trkpt>
      <trkpt lat="50.12201" lon="4.12337">
        <ele>161.64</ele>
        <time>2014-03-30T10:54:21Z</time>
      </trkpt>
      <trkpt lat="50.12205" lon="4.12365">
        <ele>162.12</ele>
        <time>2014-03-30T10:54:33Z</time>
      </trkpt>
      <trkpt lat="50.12206" lon="4.12367">
        <ele>162.12</ele>
        <time>2014-03-30T10:54:34Z</time>
      </trkpt>
      <trkpt lat="50.12206" lon="4.12368">
        <ele>162.12</ele>
        <time>2014-03-30T10:54:35Z</time>
      </trkpt>
      <trkpt lat="50.12216" lon="4.1239">
        <ele>162.12</ele>
        <time>2014-03-30T10:54:53Z</time>
      </trkpt>
      <trkpt lat="50.12223" lon="4.12394">
        <ele>162.12</ele>
        <time>2014-03-30T10:55:09Z</time>
      </trkpt>
      <trkpt lat="50.12225" lon="4.12394">
        <ele>162.6</ele>
        <time>2014-03-30T10:55:22Z</time>
      </trkpt>
      <trkpt lat="50.12215" lon="4.1239">
        <ele>161.16</ele>
        <time>2014-03-30T10:55:37Z</time>
      </trkpt>
      <trkpt lat="50.12205" lon="4.12386">
        <ele>160.2</ele>
        <time>2014-03-30T10:55:50Z</time>
      </trkpt>
      <trkpt lat="50.12201" lon="4.12372">
        <ele>160.2</ele>
        <time>2014-03-30T10:56:02Z</time>
      </trkpt>
      <trkpt lat="50.12198" lon="4.12357">
        <ele>160.2</ele>
        <time>2014-03-30T10:56:17Z</time>
      </trkpt>
      <trkpt lat="50.12199" lon="4.12359">
        <ele>160.2</ele>
        <time>2014-03-30T10:56:32Z</time>
      </trkpt>
      <trkpt lat="50.122" lon="4.12359">
        <ele>160.2</ele>
        <time>2014-03-30T10:57:04Z</time>
      </trkpt>
      <trkpt lat="50.122" lon="4.12358">
        <ele>160.68</ele>
        <time>2014-03-30T10:57:40Z</time>
      </trkpt>
      <trkpt lat="50.122" lon="4.12357">
        <ele>161.16</ele>
        <time>2014-03-30T10:58:08Z</time>
      </trkpt>
      <trkpt lat="50.12199" lon="4.12357">
        <ele>161.16</ele>
        <time>2014-03-30T10:58:43Z</time>
      </trkpt>
      <trkpt lat="50.12198" lon="4.12357">
        <ele>161.64</ele>
        <time>2014-03-30T10:59:07Z</time>
      </trkpt>
      <trkpt lat="50.12199" lon="4.12357">
        <ele>162.12</ele>
        <time>2014-03-30T10:59:41Z</time>
      </trkpt>
      <trkpt lat="50.12199" lon="4.12359">
        <ele>162.12</ele>
        <time>2014-03-30T11:00:11Z</time>
      </trkpt>
      <trkpt lat="50.122" lon="4.12357">
        <ele>162.6</ele>
        <time>2014-03-30T11:00:41Z</time>
      </trkpt>
      <trkpt lat="50.12201" lon="4.12359">
        <ele>163.08</ele>
        <time>2014-03-30T11:01:20Z</time>
      </trkpt>
      <trkpt lat="50.12199" lon="4.12358">
        <ele>163.08</ele>
        <time>2014-03-30T11:01:50Z</time>
      </trkpt>
      <trkpt lat="50.12199" lon="4.12358">
        <ele>163.56</ele>
        <time>2014-03-30T11:02:19Z</time>
      </trkpt>
      <trkpt lat="50.12197" lon="4.12359">
        <ele>163.56</ele>
        <time>2014-03-30T11:02:38Z</time>
      </trkpt>
      <trkpt lat="50.12196" lon="4.12366">
        <ele>163.56</ele>
        <time>2014-03-30T11:02:42Z</time>
      </trkpt>
      <trkpt lat="50.12195" lon="4.12369">
        <ele>163.56</ele>
        <time>2014-03-30T11:02:45Z</time>
      </trkpt>
      <trkpt lat="50.12196" lon="4.12375">
        <ele>163.56</ele>
        <time>2014-03-30T11:02:53Z</time>
      </trkpt>
      <trkpt lat="50.12196" lon="4.12371">
        <ele>163.56</ele>
        <time>2014-03-30T11:02:56Z</time>
      </trkpt>
      <trkpt lat="50.12194" lon="4.12367">
        <ele>163.56</ele>
        <time>2014-03-30T11:03:04Z</time>
      </trkpt>
      <trkpt lat="50.12194" lon="4.12367">
        <ele>165.48</ele>
        <time>2014-03-30T11:03:07Z</time>
      </trkpt>
      <trkpt lat="50.12194" lon="4.12365">
        <ele>165.48</ele>
        <time>2014-03-30T11:03:14Z</time>
      </trkpt>
      <trkpt lat="50.12191" lon="4.12354">
        <ele>165.48</ele>
        <time>2014-03-30T11:03:22Z</time>
      </trkpt>
      <trkpt lat="50.12182" lon="4.12336">
        <ele>165.96</ele>
        <time>2014-03-30T11:03:33Z</time>
      </trkpt>
      <trkpt lat="50.1218" lon="4.12319">
        <ele>165.96</ele>
        <time>2014-03-30T11:03:44Z</time>
      </trkpt>
      <trkpt lat="50.1218" lon="4.12288">
        <ele>165.96</ele>
        <time>2014-03-30T11:03:58Z</time>
      </trkpt>
      <trkpt lat="50.12182" lon="4.12284">
        <ele>165.96</ele>
        <time>2014-03-30T11:04:08Z</time>
      </trkpt>
      <trkpt lat="50.12181" lon="4.12276">
        <ele>166.45</ele>
        <time>2014-03-30T11:04:24Z</time>
      </trkpt>
      <trkpt lat="50.1218" lon="4.12268">
        <ele>166.45</ele>
        <time>2014-03-30T11:04:27Z</time>
      </trkpt>
    </trkseg>
  </trk>
</gpx>